id=947718 time=27.05.2020 00:59:01 Vmax=17.3 Vmin=10.3 Vmid=12.5 Napr=41 uakb=12.92 usb=0.04 temp=11.22 hum=71.18 prs=1002.69 Log=11196 Err=0
id=947717 time=27.05.2020 00:57:50 Vmax=13.5 Vmin=9.7 Vmid=10.8 Napr=37 uakb=12.92 usb=0.04 temp=11.22 hum=71.03 prs=1002.67 Log=11195 Err=0
id=947716 time=27.05.2020 00:56:39 Vmax=14 Vmin=7.6 Vmid=10.1 Napr=41 uakb=12.94 usb=0.04 temp=11.25 hum=70.85 prs=1002.65 Log=11194 Err=0
id=947715 time=27.05.2020 00:55:26 Vmax=13.1 Vmin=7.5 Vmid=10.1 Napr=35 uakb=12.92 usb=0.04 temp=11.28 hum=70.71 prs=1002.65 Log=11193 Err=0
id=947714 time=27.05.2020 00:52:41 Vmax=17.7 Vmin=10.3 Vmid=13.6 Napr=39 uakb=12.92 usb=0.04 temp=11.51 hum=70.19 prs=1002.66 Log=11191 Err=0
id=947713 time=27.05.2020 00:51:28 Vmax=14.6 Vmin=11.1 Vmid=12.9 Napr=29 uakb=12.92 usb=0.04 temp=11.61 hum=69.97 prs=1002.58 Log=11190 Err=0
id=947712 time=27.05.2020 00:50:19 Vmax=16.1 Vmin=13.2 Vmid=14.6 Napr=32 uakb=12.92 usb=0.04 temp=11.78 hum=69.77 prs=1002.59 Log=11189 Err=0
id=947711 time=27.05.2020 00:49:04 Vmax=16.6 Vmin=13.9 Vmid=14.8 Napr=21 uakb=12.92 usb=0.04 temp=11.95 hum=69.59 prs=1002.55 Log=11188 Err=0
id=947710 time=27.05.2020 00:47:52 Vmax=26 Vmin=15.6 Vmid=21.5 Napr=11 uakb=12.92 usb=0.04 temp=12.12 hum=69.36 prs=1002.53 Log=11187 Err=0
id=947709 time=27.05.2020 00:46:32 Vmax=21.8 Vmin=13.5 Vmid=16.9 Napr=6 uakb=12.94 usb=0.04 temp=12.31 hum=69.18 prs=1002.46 Log=11186 Err=0
id=947708 time=27.05.2020 00:45:18 Vmax=24.6 Vmin=15.3 Vmid=20.3 Napr=7 uakb=12.94 usb=0.04 temp=12.44 hum=69.01 prs=1002.38 Log=11185 Err=0
id=947707 time=27.05.2020 00:44:06 Vmax=25.3 Vmin=17.6 Vmid=20.9 Napr=351 uakb=12.94 usb=0.04 temp=12.55 hum=68.84 prs=1002.44 Log=11184 Err=0
id=947706 time=27.05.2020 00:42:55 Vmax=23 Vmin=18.3 Vmid=21 Napr=351 uakb=12.94 usb=0.04 temp=12.58 hum=68.69 prs=1002.17 Log=11183 Err=0
id=947705 time=27.05.2020 00:41:40 Vmax=22 Vmin=15.9 Vmid=18.8 Napr=354 uakb=12.94 usb=0.04 temp=12.68 hum=68.55 prs=1002.2 Log=11182 Err=0
id=947704 time=27.05.2020 00:40:29 Vmax=19.9 Vmin=13.8 Vmid=17 Napr=7 uakb=12.94 usb=0.04 temp=12.8 hum=68.39 prs=1002.14 Log=11181 Err=0
id=947703 time=27.05.2020 00:39:08 Vmax=24.8 Vmin=20.8 Vmid=23.1 Napr=356 uakb=12.94 usb=0.04 temp=13.05 hum=68.21 prs=1002.29 Log=11180 Err=0
id=947702 time=27.05.2020 00:37:55 Vmax=30.4 Vmin=20.5 Vmid=24.5 Napr=356 uakb=12.94 usb=0.04 temp=13.29 hum=68.06 prs=1002.27 Log=11179 Err=0
id=947701 time=27.05.2020 00:36:40 Vmax=20.4 Vmin=13.3 Vmid=18 Napr=351 uakb=12.94 usb=0.04 temp=13.53 hum=68.01 prs=1002.16 Log=11178 Err=0
id=947700 time=27.05.2020 00:35:30 Vmax=24 Vmin=14.3 Vmid=18.8 Napr=350 uakb=12.94 usb=0.04 temp=13.71 hum=67.9 prs=1002.2 Log=11177 Err=0
id=947699 time=27.05.2020 00:34:16 Vmax=15.7 Vmin=13.3 Vmid=14.6 Napr=351 uakb=12.92 usb=0.04 temp=13.77 hum=67.89 prs=1002.05 Log=11176 Err=0
id=947698 time=27.05.2020 00:33:04 Vmax=16.3 Vmin=11.3 Vmid=13.4 Napr=1 uakb=12.94 usb=0.04 temp=13.77 hum=67.81 prs=1002.03 Log=11175 Err=0
id=947697 time=27.05.2020 00:31:51 Vmax=14.9 Vmin=13.1 Vmid=14.2 Napr=15 uakb=12.94 usb=0.04 temp=13.78 hum=67.69 prs=1001.97 Log=11174 Err=0
id=947696 time=27.05.2020 00:30:42 Vmax=14.8 Vmin=11 Vmid=13.4 Napr=16 uakb=12.94 usb=0.04 temp=13.8 hum=67.62 prs=1001.87 Log=11173 Err=0
id=947695 time=27.05.2020 00:29:27 Vmax=17 Vmin=12.4 Vmid=15.2 Napr=15 uakb=12.94 usb=0.04 temp=13.8 hum=67.48 prs=1001.85 Log=11172 Err=0
id=947694 time=27.05.2020 00:28:15 Vmax=14.2 Vmin=8.7 Vmid=11.7 Napr=10 uakb=12.94 usb=0.04 temp=13.8 hum=67.39 prs=1001.84 Log=11171 Err=0
id=947693 time=27.05.2020 00:27:03 Vmax=17.4 Vmin=12 Vmid=14.5 Napr=16 uakb=12.94 usb=0.04 temp=13.83 hum=67.28 prs=1001.77 Log=11170 Err=0
id=947692 time=27.05.2020 00:25:51 Vmax=14.7 Vmin=9.7 Vmid=12.5 Napr=8 uakb=12.94 usb=0.04 temp=13.83 hum=67.17 prs=1001.74 Log=11169 Err=0
id=947691 time=27.05.2020 00:24:39 Vmax=15.2 Vmin=9.1 Vmid=12 Napr=8 uakb=12.94 usb=0.04 temp=13.87 hum=67.09 prs=1001.73 Log=11168 Err=0
id=947690 time=27.05.2020 00:23:26 Vmax=14.1 Vmin=10.4 Vmid=12.5 Napr=7 uakb=12.94 usb=0.04 temp=13.9 hum=66.96 prs=1001.69 Log=11167 Err=0
id=947689 time=27.05.2020 00:22:14 Vmax=19.7 Vmin=11.8 Vmid=14.9 Napr=357 uakb=12.94 usb=0.04 temp=13.92 hum=66.88 prs=1001.63 Log=11166 Err=0
id=947688 time=27.05.2020 00:19:30 Vmax=18.4 Vmin=15.4 Vmid=16.6 Napr=356 uakb=12.94 usb=0.04 temp=13.98 hum=66.63 prs=1001.6 Log=11164 Err=0
id=947687 time=27.05.2020 00:18:17 Vmax=19.4 Vmin=9.2 Vmid=13.9 Napr=357 uakb=12.94 usb=0.04 temp=14.03 hum=66.52 prs=1001.6 Log=11163 Err=0
id=947686 time=27.05.2020 00:17:04 Vmax=15.9 Vmin=11.8 Vmid=12.8 Napr=15 uakb=12.94 usb=0.04 temp=14.02 hum=66.43 prs=1001.62 Log=11162 Err=0
id=947685 time=27.05.2020 00:15:52 Vmax=16.6 Vmin=11.7 Vmid=14.3 Napr=13 uakb=12.94 usb=0.06 temp=14.05 hum=66.31 prs=1001.68 Log=11161 Err=0
id=947684 time=27.05.2020 00:14:39 Vmax=15.2 Vmin=9.3 Vmid=13.3 Napr=22 uakb=12.94 usb=0.04 temp=14.11 hum=66.23 prs=1001.53 Log=11160 Err=0
id=947683 time=27.05.2020 00:13:28 Vmax=12.2 Vmin=8.4 Vmid=10.4 Napr=18 uakb=12.94 usb=0.06 temp=14.13 hum=66.16 prs=1001.54 Log=11159 Err=0
id=947682 time=27.05.2020 00:12:16 Vmax=14.2 Vmin=9.3 Vmid=11.1 Napr=16 uakb=12.94 usb=0.04 temp=14.1 hum=66.1 prs=1001.51 Log=11158 Err=0
id=947681 time=27.05.2020 00:11:02 Vmax=12.9 Vmin=9 Vmid=10.6 Napr=27 uakb=12.94 usb=0.04 temp=14.05 hum=65.98 prs=1001.48 Log=11157 Err=0
id=947680 time=27.05.2020 00:08:21 Vmax=10.8 Vmin=8.9 Vmid=9.8 Napr=23 uakb=12.94 usb=0.04 temp=14.01 hum=65.76 prs=1001.39 Log=11155 Err=0
id=947679 time=27.05.2020 00:07:06 Vmax=12.1 Vmin=8.9 Vmid=10.1 Napr=22 uakb=12.96 usb=0.04 temp=13.98 hum=65.63 prs=1001.38 Log=11154 Err=0
id=947678 time=27.05.2020 00:04:22 Vmax=10.6 Vmin=7.7 Vmid=9.2 Napr=26 uakb=12.96 usb=0.04 temp=13.98 hum=65.35 prs=1001.35 Log=11152 Err=0
id=947677 time=27.05.2020 00:01:37 Vmax=11.2 Vmin=9 Vmid=9.8 Napr=31 uakb=12.96 usb=0.06 temp=14.02 hum=65.03 prs=1001.2 Log=11150 Err=0
id=947676 time=27.05.2020 00:00:24 Vmax=14.2 Vmin=9.7 Vmid=11.8 Napr=30 uakb=12.96 usb=0.04 temp=14.05 hum=64.87 prs=1001.22 Log=11149 Err=0
id=947675 time=26.05.2020 23:59:11 Vmax=10.7 Vmin=7.9 Vmid=9.3 Napr=29 uakb=12.96 usb=0.06 temp=14.09 hum=64.75 prs=1001.22 Log=11148 Err=0
id=947674 time=26.05.2020 23:57:59 Vmax=15.4 Vmin=8.5 Vmid=11.8 Napr=26 uakb=12.96 usb=0.04 temp=14.08 hum=64.57 prs=1001.2 Log=11147 Err=0
id=947673 time=26.05.2020 23:56:47 Vmax=17.8 Vmin=7.7 Vmid=12 Napr=22 uakb=12.96 usb=0.06 temp=14.12 hum=64.38 prs=1001.21 Log=11146 Err=0
id=947672 time=26.05.2020 23:55:35 Vmax=15.3 Vmin=10.3 Vmid=12.2 Napr=17 uakb=12.94 usb=0.06 temp=14.17 hum=64.16 prs=1001.21 Log=11145 Err=0
id=947671 time=26.05.2020 23:54:23 Vmax=12.6 Vmin=8.2 Vmid=10.6 Napr=9 uakb=12.96 usb=0.04 temp=14.18 hum=63.97 prs=1001.18 Log=11144 Err=0
id=947670 time=26.05.2020 23:53:11 Vmax=15.3 Vmin=11 Vmid=12.5 Napr=359 uakb=12.96 usb=0.06 temp=14.19 hum=63.76 prs=1001.26 Log=11143 Err=0
id=947669 time=26.05.2020 23:50:25 Vmax=16.1 Vmin=12 Vmid=14 Napr=353 uakb=12.96 usb=0.06 temp=14.16 hum=63.24 prs=1001.1 Log=11141 Err=0
id=947668 time=26.05.2020 23:49:13 Vmax=13.1 Vmin=7.8 Vmid=10.5 Napr=344 uakb=12.96 usb=0.06 temp=14.17 hum=62.96 prs=1001.07 Log=11140 Err=0
id=947667 time=26.05.2020 23:48:02 Vmax=12.8 Vmin=8.5 Vmid=10.8 Napr=345 uakb=12.96 usb=0.06 temp=14.14 hum=62.66 prs=1001.01 Log=11139 Err=0
id=947666 time=26.05.2020 23:46:48 Vmax=13.6 Vmin=9.1 Vmid=10.5 Napr=349 uakb=12.96 usb=0.06 temp=14.14 hum=62.41 prs=1001.05 Log=11138 Err=0
id=947665 time=26.05.2020 23:45:38 Vmax=13.5 Vmin=8.7 Vmid=10.4 Napr=344 uakb=12.96 usb=0.06 temp=14.11 hum=62.14 prs=1000.99 Log=11137 Err=0
id=947664 time=26.05.2020 23:44:24 Vmax=14 Vmin=11.1 Vmid=12.1 Napr=348 uakb=12.96 usb=0.06 temp=14.14 hum=61.77 prs=1000.96 Log=11136 Err=0
id=947663 time=26.05.2020 23:40:09 Vmax=15.4 Vmin=13.4 Vmid=14.2 Napr=337 uakb=12.96 usb=0.06 temp=14.43 hum=60.67 prs=1000.94 Log=11133 Err=0
id=947662 time=26.05.2020 23:38:56 Vmax=14.9 Vmin=12.7 Vmid=13.5 Napr=339 uakb=12.96 usb=0.06 temp=14.59 hum=60.38 prs=1000.93 Log=11132 Err=0
id=947661 time=26.05.2020 23:37:42 Vmax=16.1 Vmin=15 Vmid=15.5 Napr=337 uakb=12.96 usb=0.06 temp=14.8 hum=60.03 prs=1000.91 Log=11131 Err=0
id=947660 time=26.05.2020 23:34:57 Vmax=20.4 Vmin=15.9 Vmid=18.5 Napr=333 uakb=12.98 usb=0.06 temp=15.39 hum=59.43 prs=1000.77 Log=11129 Err=0
id=947659 time=26.05.2020 23:33:45 Vmax=20.3 Vmin=15.3 Vmid=17.6 Napr=333 uakb=12.98 usb=0.06 temp=15.66 hum=59.3 prs=1000.74 Log=11128 Err=0
id=947658 time=26.05.2020 23:31:00 Vmax=16.2 Vmin=12.6 Vmid=14.3 Napr=316 uakb=12.98 usb=0.08 temp=15.82 hum=59.11 prs=1000.62 Log=11126 Err=0
id=947657 time=26.05.2020 23:29:48 Vmax=13.2 Vmin=10.3 Vmid=11.5 Napr=315 uakb=12.98 usb=0.06 temp=15.84 hum=59 prs=1000.61 Log=11125 Err=0
id=947656 time=26.05.2020 23:28:35 Vmax=11.9 Vmin=8.4 Vmid=10.1 Napr=316 uakb=12.98 usb=0.06 temp=15.86 hum=58.92 prs=1000.59 Log=11124 Err=0
id=947655 time=26.05.2020 23:27:24 Vmax=13.3 Vmin=8.3 Vmid=11 Napr=317 uakb=12.98 usb=0.06 temp=15.86 hum=58.84 prs=1000.54 Log=11123 Err=0
id=947654 time=26.05.2020 23:26:11 Vmax=15.2 Vmin=8.6 Vmid=13.1 Napr=318 uakb=12.98 usb=0.06 temp=15.88 hum=58.76 prs=1000.52 Log=11122 Err=0
id=947653 time=26.05.2020 23:24:58 Vmax=10.5 Vmin=9.4 Vmid=9.9 Napr=319 uakb=12.98 usb=0.06 temp=15.89 hum=58.71 prs=1000.54 Log=11121 Err=0
id=947652 time=26.05.2020 23:23:46 Vmax=12.6 Vmin=9.6 Vmid=10.8 Napr=319 uakb=12.98 usb=0.08 temp=15.88 hum=58.62 prs=1000.52 Log=11120 Err=0
id=947651 time=26.05.2020 23:22:36 Vmax=13.5 Vmin=10.8 Vmid=12.5 Napr=315 uakb=12.98 usb=0.06 temp=15.91 hum=58.54 prs=1000.52 Log=11119 Err=0
id=947650 time=26.05.2020 23:21:22 Vmax=15 Vmin=9.9 Vmid=12.2 Napr=323 uakb=13 usb=0.06 temp=15.9 hum=58.47 prs=1000.52 Log=11118 Err=0
id=947649 time=26.05.2020 23:20:10 Vmax=17 Vmin=10.3 Vmid=13.4 Napr=323 uakb=12.98 usb=0.06 temp=15.91 hum=58.39 prs=1000.51 Log=11117 Err=0
id=947648 time=26.05.2020 23:18:57 Vmax=10.3 Vmin=8.6 Vmid=9.4 Napr=324 uakb=12.98 usb=0.08 temp=15.93 hum=58.34 prs=1000.49 Log=11116 Err=0
id=947647 time=26.05.2020 23:17:46 Vmax=12.8 Vmin=9.8 Vmid=11 Napr=328 uakb=13 usb=0.06 temp=15.93 hum=58.29 prs=1000.49 Log=11115 Err=0
id=947646 time=26.05.2020 23:16:33 Vmax=18.4 Vmin=9.2 Vmid=13.4 Napr=321 uakb=13 usb=0.08 temp=15.94 hum=58.22 prs=1000.43 Log=11114 Err=0
id=947645 time=26.05.2020 23:15:20 Vmax=14.8 Vmin=11.8 Vmid=12.9 Napr=321 uakb=13 usb=0.08 temp=15.98 hum=58.15 prs=1000.43 Log=11113 Err=0
id=947644 time=26.05.2020 23:14:08 Vmax=14.3 Vmin=13.1 Vmid=13.5 Napr=322 uakb=13 usb=0.08 temp=15.97 hum=58.08 prs=1000.38 Log=11112 Err=0
id=947643 time=26.05.2020 23:12:55 Vmax=16.1 Vmin=12.9 Vmid=13.6 Napr=321 uakb=13 usb=0.06 temp=15.98 hum=58 prs=1000.38 Log=11111 Err=0
id=947642 time=26.05.2020 23:11:43 Vmax=15.5 Vmin=11.9 Vmid=13.5 Napr=320 uakb=13 usb=0.06 temp=15.98 hum=57.9 prs=1000.34 Log=11110 Err=0
id=947641 time=26.05.2020 23:10:31 Vmax=13.9 Vmin=9.7 Vmid=11.4 Napr=322 uakb=13 usb=0.06 temp=15.98 hum=57.82 prs=1000.31 Log=11109 Err=0
id=947640 time=26.05.2020 23:09:19 Vmax=16.7 Vmin=11.9 Vmid=14.6 Napr=329 uakb=13.02 usb=0.06 temp=15.98 hum=57.72 prs=1000.34 Log=11108 Err=0
id=947639 time=26.05.2020 23:08:06 Vmax=15.6 Vmin=12.9 Vmid=14.8 Napr=321 uakb=13 usb=0.06 temp=15.97 hum=57.62 prs=1000.3 Log=11107 Err=0
id=947638 time=26.05.2020 23:06:54 Vmax=15.2 Vmin=11.2 Vmid=13.6 Napr=315 uakb=13 usb=0.06 temp=16 hum=57.53 prs=1000.21 Log=11106 Err=0
id=947637 time=26.05.2020 23:05:40 Vmax=13.6 Vmin=10.4 Vmid=11.9 Napr=318 uakb=13.02 usb=0.06 temp=16 hum=57.45 prs=1000.29 Log=11105 Err=0
id=947636 time=26.05.2020 23:04:29 Vmax=14.9 Vmin=11.5 Vmid=13.4 Napr=320 uakb=13.02 usb=0.08 temp=16.01 hum=57.31 prs=1000.3 Log=11104 Err=0
id=947635 time=26.05.2020 23:03:16 Vmax=17.7 Vmin=12 Vmid=14 Napr=321 uakb=13 usb=0.06 temp=15.99 hum=57.24 prs=1000.26 Log=11103 Err=0
id=947634 time=26.05.2020 23:02:03 Vmax=17.8 Vmin=15 Vmid=16 Napr=320 uakb=13.02 usb=0.06 temp=16 hum=57.15 prs=1000.33 Log=11102 Err=0
id=947633 time=26.05.2020 23:00:53 Vmax=16.9 Vmin=13.9 Vmid=15 Napr=317 uakb=13.02 usb=0.06 temp=16.01 hum=57.07 prs=1000.27 Log=11101 Err=0
id=947632 time=26.05.2020 22:59:39 Vmax=18.7 Vmin=13.5 Vmid=15.9 Napr=316 uakb=13.04 usb=0.08 temp=16.02 hum=57.01 prs=1000.23 Log=11100 Err=0
id=947631 time=26.05.2020 22:58:28 Vmax=16.7 Vmin=11.7 Vmid=14 Napr=317 uakb=13.02 usb=0.06 temp=16.03 hum=56.9 prs=1000.28 Log=11099 Err=0
id=947630 time=26.05.2020 22:57:14 Vmax=18.2 Vmin=12.6 Vmid=14.6 Napr=322 uakb=13.04 usb=0.06 temp=16.04 hum=56.84 prs=1000.37 Log=11098 Err=0
id=947629 time=26.05.2020 22:56:02 Vmax=21.9 Vmin=13.5 Vmid=17 Napr=328 uakb=13.04 usb=0.08 temp=16.07 hum=56.79 prs=1000.32 Log=11097 Err=0
id=947628 time=26.05.2020 22:53:17 Vmax=15.4 Vmin=11 Vmid=12.6 Napr=309 uakb=13.04 usb=0.06 temp=16.09 hum=56.59 prs=1000.3 Log=11095 Err=0
id=947627 time=26.05.2020 22:52:05 Vmax=14.5 Vmin=10.7 Vmid=13.1 Napr=317 uakb=13.04 usb=0.08 temp=16.1 hum=56.51 prs=1000.39 Log=11094 Err=0
id=947626 time=26.05.2020 22:50:53 Vmax=18.1 Vmin=14.1 Vmid=16 Napr=311 uakb=13.06 usb=0.06 temp=16.12 hum=56.45 prs=1000.35 Log=11093 Err=0
id=947625 time=26.05.2020 22:49:41 Vmax=16.8 Vmin=14 Vmid=15.6 Napr=311 uakb=13.06 usb=0.08 temp=16.13 hum=56.36 prs=1000.29 Log=11092 Err=0
id=947624 time=26.05.2020 22:48:29 Vmax=18.2 Vmin=11.8 Vmid=15.4 Napr=310 uakb=13.08 usb=0.08 temp=16.14 hum=56.25 prs=1000.26 Log=11091 Err=0
id=947623 time=26.05.2020 22:45:42 Vmax=19.5 Vmin=11.2 Vmid=15.3 Napr=312 uakb=13.08 usb=0.06 temp=16.16 hum=56.05 prs=1000.27 Log=11089 Err=0
id=947622 time=26.05.2020 22:44:31 Vmax=19.1 Vmin=13.2 Vmid=16.3 Napr=322 uakb=13.08 usb=0.08 temp=16.2 hum=55.99 prs=1000.35 Log=11088 Err=0
id=947621 time=26.05.2020 22:41:46 Vmax=16.6 Vmin=12.8 Vmid=14.3 Napr=310 uakb=13.08 usb=0.06 temp=16.22 hum=55.74 prs=1000.22 Log=11086 Err=0
id=947620 time=26.05.2020 22:40:33 Vmax=17.3 Vmin=12.9 Vmid=15 Napr=310 uakb=13.08 usb=0.06 temp=16.23 hum=55.63 prs=1000.23 Log=11085 Err=0
id=947619 time=26.05.2020 22:39:22 Vmax=17.6 Vmin=11.7 Vmid=14.5 Napr=306 uakb=13.1 usb=0.08 temp=16.25 hum=55.54 prs=1000.18 Log=11084 Err=0
id=947618 time=26.05.2020 22:38:08 Vmax=17.4 Vmin=11.3 Vmid=14.7 Napr=307 uakb=13.1 usb=0.08 temp=16.26 hum=55.46 prs=1000.22 Log=11083 Err=0
id=947617 time=26.05.2020 22:36:57 Vmax=16.6 Vmin=13.4 Vmid=14.5 Napr=306 uakb=13.1 usb=0.06 temp=16.27 hum=55.36 prs=1000.18 Log=11082 Err=0
id=947616 time=26.05.2020 22:35:46 Vmax=17.7 Vmin=11.4 Vmid=14.6 Napr=299 uakb=13.1 usb=0.08 temp=16.29 hum=55.28 prs=1000.14 Log=11081 Err=0
id=947615 time=26.05.2020 22:34:31 Vmax=18 Vmin=11.5 Vmid=14.2 Napr=309 uakb=13.1 usb=0.08 temp=16.32 hum=55.25 prs=1000.17 Log=11080 Err=0
id=947614 time=26.05.2020 22:33:20 Vmax=14 Vmin=10.1 Vmid=12 Napr=314 uakb=13.12 usb=0.08 temp=16.35 hum=55.23 prs=1000.15 Log=11079 Err=0
id=947613 time=26.05.2020 22:32:06 Vmax=12.2 Vmin=10.1 Vmid=10.7 Napr=308 uakb=13.12 usb=0.08 temp=16.38 hum=55.16 prs=1000.07 Log=11078 Err=0
id=947612 time=26.05.2020 22:30:55 Vmax=14.5 Vmin=10.5 Vmid=12 Napr=310 uakb=13.12 usb=0.06 temp=16.39 hum=55.04 prs=1000.04 Log=11077 Err=0
id=947611 time=26.05.2020 22:29:42 Vmax=14.6 Vmin=9.2 Vmid=11.5 Napr=321 uakb=13.14 usb=0.08 temp=16.4 hum=54.97 prs=1000.06 Log=11076 Err=0
id=947610 time=26.05.2020 22:26:58 Vmax=12.1 Vmin=9.7 Vmid=10.7 Napr=317 uakb=13.14 usb=0.08 temp=16.45 hum=54.85 prs=1000.09 Log=11074 Err=0
id=947609 time=26.05.2020 22:25:45 Vmax=16.7 Vmin=12.4 Vmid=14.9 Napr=314 uakb=13.14 usb=0.08 temp=16.43 hum=54.75 prs=1000.05 Log=11073 Err=0
id=947608 time=26.05.2020 22:24:32 Vmax=18.7 Vmin=13.3 Vmid=16.2 Napr=307 uakb=13.16 usb=0.08 temp=16.45 hum=54.7 prs=1000.04 Log=11072 Err=0
id=947607 time=26.05.2020 22:23:21 Vmax=18.2 Vmin=13.4 Vmid=15.3 Napr=316 uakb=13.16 usb=0.08 temp=16.47 hum=54.68 prs=1000.04 Log=11071 Err=0
id=947606 time=26.05.2020 22:20:35 Vmax=12.6 Vmin=9.4 Vmid=11.5 Napr=320 uakb=13.18 usb=0.08 temp=16.53 hum=54.62 prs=1000.04 Log=11069 Err=0
id=947605 time=26.05.2020 22:19:25 Vmax=12.6 Vmin=11 Vmid=11.7 Napr=333 uakb=13.18 usb=0.08 temp=16.56 hum=54.56 prs=999.99 Log=11068 Err=0
id=947604 time=26.05.2020 22:18:10 Vmax=15.7 Vmin=10.7 Vmid=12.6 Napr=340 uakb=13.18 usb=0.08 temp=16.57 hum=54.52 prs=1000.02 Log=11067 Err=0
id=947603 time=26.05.2020 22:16:58 Vmax=14.9 Vmin=8.6 Vmid=11.7 Napr=324 uakb=13.18 usb=0.08 temp=16.58 hum=54.46 prs=1000 Log=11066 Err=0
id=947602 time=26.05.2020 22:14:12 Vmax=16.8 Vmin=12.6 Vmid=14.9 Napr=321 uakb=13.2 usb=0.08 temp=16.59 hum=54.18 prs=1000.01 Log=11064 Err=0
id=947601 time=26.05.2020 22:13:02 Vmax=19.7 Vmin=13.5 Vmid=16.8 Napr=322 uakb=13.2 usb=0.08 temp=16.58 hum=54.08 prs=999.97 Log=11063 Err=0
id=947600 time=26.05.2020 22:11:51 Vmax=17.6 Vmin=14.5 Vmid=16.2 Napr=322 uakb=13.2 usb=0.08 temp=16.6 hum=54 prs=999.92 Log=11062 Err=0
id=947599 time=26.05.2020 22:10:37 Vmax=21.3 Vmin=16.8 Vmid=18.8 Napr=328 uakb=13.2 usb=0.08 temp=16.6 hum=53.9 prs=999.92 Log=11061 Err=0
id=947598 time=26.05.2020 22:09:25 Vmax=22 Vmin=17.3 Vmid=19.6 Napr=331 uakb=13.22 usb=0.58 temp=16.6 hum=53.79 prs=999.88 Log=11060 Err=0
id=947597 time=26.05.2020 22:08:11 Vmax=21.6 Vmin=16.8 Vmid=19.2 Napr=327 uakb=13.24 usb=0.95 temp=16.61 hum=53.71 prs=999.82 Log=11059 Err=0
id=947596 time=26.05.2020 22:06:59 Vmax=17.5 Vmin=15.4 Vmid=16.4 Napr=324 uakb=13.24 usb=1.17 temp=16.63 hum=53.65 prs=999.77 Log=11058 Err=0
id=947595 time=26.05.2020 22:05:47 Vmax=20.2 Vmin=15.2 Vmid=17.7 Napr=326 uakb=13.24 usb=1.96 temp=16.63 hum=53.54 prs=999.77 Log=11057 Err=0
id=947594 time=26.05.2020 22:04:35 Vmax=18.4 Vmin=13.6 Vmid=16.2 Napr=328 uakb=13.26 usb=0.93 temp=16.64 hum=53.44 prs=999.76 Log=11056 Err=0
id=947593 time=26.05.2020 22:03:21 Vmax=18.4 Vmin=12.2 Vmid=14.8 Napr=319 uakb=13.26 usb=0.95 temp=16.64 hum=53.35 prs=999.7 Log=11055 Err=0
id=947592 time=26.05.2020 22:02:11 Vmax=16.9 Vmin=11.5 Vmid=14.2 Napr=319 uakb=13.26 usb=1.07 temp=16.66 hum=53.28 prs=999.79 Log=11054 Err=0
id=947591 time=26.05.2020 22:00:58 Vmax=19.8 Vmin=15.6 Vmid=17.4 Napr=327 uakb=13.28 usb=1.73 temp=16.66 hum=53.16 prs=999.72 Log=11053 Err=0
id=947590 time=26.05.2020 21:59:45 Vmax=21.8 Vmin=15.2 Vmid=16.4 Napr=318 uakb=13.28 usb=3.53 temp=16.66 hum=53.03 prs=999.79 Log=11052 Err=0
id=947589 time=26.05.2020 21:58:33 Vmax=20.5 Vmin=16.8 Vmid=18 Napr=312 uakb=13.28 usb=4.78 temp=16.66 hum=52.91 prs=999.64 Log=11051 Err=0
id=947588 time=26.05.2020 21:57:20 Vmax=20.3 Vmin=16.6 Vmid=17.8 Napr=324 uakb=13.28 usb=4.3 temp=16.67 hum=52.85 prs=999.71 Log=11050 Err=0
id=947587 time=26.05.2020 21:56:08 Vmax=21 Vmin=18.7 Vmid=19.7 Napr=315 uakb=13.3 usb=5.29 temp=16.68 hum=52.79 prs=999.73 Log=11049 Err=0
id=947586 time=26.05.2020 21:54:57 Vmax=21 Vmin=16.9 Vmid=19 Napr=314 uakb=13.3 usb=4.98 temp=16.69 hum=52.71 prs=999.68 Log=11048 Err=0
id=947585 time=26.05.2020 21:53:43 Vmax=24.2 Vmin=18.7 Vmid=20.6 Napr=314 uakb=13.32 usb=5.31 temp=16.69 hum=52.59 prs=999.65 Log=11047 Err=0
id=947584 time=26.05.2020 21:52:30 Vmax=22.1 Vmin=15.5 Vmid=18.5 Napr=316 uakb=13.32 usb=6.17 temp=16.69 hum=52.49 prs=999.6 Log=11046 Err=0
id=947583 time=26.05.2020 21:49:46 Vmax=20.3 Vmin=14.8 Vmid=17.3 Napr=315 uakb=13.32 usb=8.43 temp=16.73 hum=52.36 prs=999.58 Log=11044 Err=0
id=947582 time=26.05.2020 21:48:34 Vmax=16.2 Vmin=12.4 Vmid=14.7 Napr=317 uakb=13.34 usb=8.75 temp=16.75 hum=52.3 prs=999.56 Log=11043 Err=0
id=947581 time=26.05.2020 21:47:21 Vmax=18.8 Vmin=16.8 Vmid=17.5 Napr=309 uakb=13.34 usb=10.15 temp=16.77 hum=52.22 prs=999.58 Log=11042 Err=0
id=947580 time=26.05.2020 21:46:09 Vmax=21.2 Vmin=16.7 Vmid=18.3 Napr=315 uakb=13.36 usb=10.35 temp=16.79 hum=52.1 prs=999.48 Log=11041 Err=0
id=947579 time=26.05.2020 21:44:57 Vmax=21.7 Vmin=17.5 Vmid=19.8 Napr=317 uakb=13.36 usb=10.31 temp=16.82 hum=52.06 prs=999.45 Log=11040 Err=0
id=947578 time=26.05.2020 21:43:44 Vmax=22.1 Vmin=16.9 Vmid=19.5 Napr=313 uakb=13.38 usb=10.69 temp=16.85 hum=52 prs=999.44 Log=11039 Err=0
id=947577 time=26.05.2020 21:42:31 Vmax=19.2 Vmin=14.7 Vmid=16.1 Napr=315 uakb=13.38 usb=11.94 temp=16.88 hum=51.91 prs=999.43 Log=11038 Err=0
id=947576 time=26.05.2020 21:41:19 Vmax=21.9 Vmin=16.8 Vmid=19.4 Napr=314 uakb=13.38 usb=11.42 temp=16.89 hum=51.77 prs=999.36 Log=11037 Err=0
id=947575 time=26.05.2020 21:40:06 Vmax=22.6 Vmin=15.4 Vmid=19 Napr=315 uakb=13.4 usb=11.6 temp=16.91 hum=51.71 prs=999.4 Log=11036 Err=0
id=947574 time=26.05.2020 21:38:54 Vmax=21.9 Vmin=18.3 Vmid=20.2 Napr=313 uakb=13.4 usb=12.87 temp=16.94 hum=51.65 prs=999.37 Log=11035 Err=0
id=947573 time=26.05.2020 21:37:42 Vmax=17.3 Vmin=13.4 Vmid=15.4 Napr=309 uakb=13.42 usb=12.18 temp=16.97 hum=51.54 prs=999.26 Log=11034 Err=0
id=947572 time=26.05.2020 21:34:57 Vmax=23.3 Vmin=18 Vmid=20.1 Napr=306 uakb=13.44 usb=12.49 temp=17.02 hum=51.32 prs=999.22 Log=11032 Err=0
id=947571 time=26.05.2020 21:33:47 Vmax=21.8 Vmin=17 Vmid=19.1 Napr=311 uakb=13.44 usb=13.17 temp=17.04 hum=51.27 prs=999.2 Log=11031 Err=0
id=947570 time=26.05.2020 21:29:27 Vmax=24.9 Vmin=19.1 Vmid=21.1 Napr=310 uakb=13.46 usb=12.97 temp=17.2 hum=50.96 prs=999.17 Log=11028 Err=0
id=947569 time=26.05.2020 21:28:15 Vmax=20.5 Vmin=18 Vmid=19.1 Napr=307 uakb=13.48 usb=13.27 temp=17.27 hum=50.91 prs=999.11 Log=11027 Err=0
id=947568 time=26.05.2020 21:25:29 Vmax=18.8 Vmin=14.5 Vmid=16.2 Napr=309 uakb=13.5 usb=13.5 temp=17.42 hum=50.74 prs=999.04 Log=11025 Err=0
id=947567 time=26.05.2020 21:24:17 Vmax=18.5 Vmin=15.2 Vmid=16.9 Napr=315 uakb=13.58 usb=13.7 temp=17.48 hum=50.68 prs=999 Log=11024 Err=0
id=947566 time=26.05.2020 21:21:31 Vmax=18.4 Vmin=15.3 Vmid=16.8 Napr=329 uakb=13.54 usb=13.46 temp=17.55 hum=50.51 prs=998.95 Log=11022 Err=0
id=947565 time=26.05.2020 21:20:19 Vmax=21 Vmin=12.6 Vmid=17.5 Napr=322 uakb=13.52 usb=13.56 temp=17.57 hum=50.36 prs=998.99 Log=11021 Err=0
id=947564 time=26.05.2020 21:19:07 Vmax=19.1 Vmin=14.6 Vmid=17.3 Napr=321 uakb=13.52 usb=13.41 temp=17.61 hum=50.35 prs=999.03 Log=11020 Err=0
id=947563 time=26.05.2020 21:17:54 Vmax=14.8 Vmin=11.1 Vmid=12.9 Napr=319 uakb=13.54 usb=13.6 temp=17.64 hum=50.28 prs=998.99 Log=11019 Err=0
id=947562 time=26.05.2020 21:16:43 Vmax=17 Vmin=13.6 Vmid=15.4 Napr=319 uakb=13.54 usb=13.39 temp=17.65 hum=50.15 prs=998.93 Log=11018 Err=0
id=947561 time=26.05.2020 21:15:25 Vmax=21.1 Vmin=16.4 Vmid=18.9 Napr=323 uakb=13.56 usb=13.31 temp=17.67 hum=49.98 prs=998.95 Log=11017 Err=0
id=947560 time=26.05.2020 21:14:06 Vmax=19.2 Vmin=12.8 Vmid=16.6 Napr=328 uakb=13.58 usb=13.66 temp=17.69 hum=49.89 prs=999.06 Log=11016 Err=0
id=947559 time=26.05.2020 21:12:54 Vmax=20.2 Vmin=11.2 Vmid=16.8 Napr=329 uakb=13.62 usb=13.68 temp=17.69 hum=49.73 prs=999.02 Log=11015 Err=0
id=947558 time=26.05.2020 21:11:42 Vmax=23 Vmin=18.4 Vmid=20.4 Napr=331 uakb=13.6 usb=13.52 temp=17.71 hum=49.65 prs=999.12 Log=11014 Err=0
id=947557 time=26.05.2020 21:10:30 Vmax=21.7 Vmin=19.5 Vmid=20.6 Napr=328 uakb=13.58 usb=13.68 temp=17.73 hum=49.66 prs=999 Log=11013 Err=0
id=947556 time=26.05.2020 21:09:17 Vmax=26.9 Vmin=18.8 Vmid=22.4 Napr=329 uakb=13.6 usb=13.48 temp=17.75 hum=49.61 prs=999.04 Log=11012 Err=0
id=947555 time=26.05.2020 21:06:32 Vmax=13.1 Vmin=11 Vmid=11.8 Napr=323 uakb=13.66 usb=13.9 temp=17.82 hum=49.46 prs=998.93 Log=11010 Err=0
id=947554 time=26.05.2020 21:05:19 Vmax=16.1 Vmin=13.8 Vmid=14.8 Napr=326 uakb=13.64 usb=13.6 temp=17.82 hum=49.28 prs=998.92 Log=11009 Err=0
id=947553 time=26.05.2020 21:04:07 Vmax=21.1 Vmin=16.8 Vmid=18.3 Napr=328 uakb=13.66 usb=13.86 temp=17.85 hum=49.16 prs=998.9 Log=11008 Err=0
id=947552 time=26.05.2020 21:02:55 Vmax=22 Vmin=14.2 Vmid=18.1 Napr=324 uakb=13.64 usb=13.68 temp=17.89 hum=49.12 prs=998.88 Log=11007 Err=0
id=947551 time=26.05.2020 20:58:37 Vmax=20.3 Vmin=15 Vmid=17.1 Napr=334 uakb=13.68 usb=13.76 temp=18 hum=49.08 prs=998.75 Log=11004 Err=0
id=947550 time=26.05.2020 20:57:25 Vmax=21 Vmin=15.4 Vmid=16.8 Napr=339 uakb=13.68 usb=13.66 temp=18.02 hum=49.06 prs=998.74 Log=11003 Err=0
id=947549 time=26.05.2020 20:56:12 Vmax=16.8 Vmin=13.4 Vmid=14.7 Napr=340 uakb=13.66 usb=13.8 temp=18.05 hum=49.07 prs=998.72 Log=11002 Err=0
id=947548 time=26.05.2020 20:55:00 Vmax=19.9 Vmin=14.5 Vmid=17.7 Napr=322 uakb=13.68 usb=13.76 temp=18.07 hum=48.96 prs=998.73 Log=11001 Err=0
id=947547 time=26.05.2020 20:52:14 Vmax=22.5 Vmin=14.8 Vmid=17.7 Napr=317 uakb=13.7 usb=13.82 temp=18.12 hum=48.78 prs=998.68 Log=10999 Err=0
id=947546 time=26.05.2020 20:51:01 Vmax=16.6 Vmin=13.9 Vmid=15.5 Napr=322 uakb=13.7 usb=13.84 temp=18.14 hum=48.69 prs=998.7 Log=10998 Err=0
id=947545 time=26.05.2020 20:49:49 Vmax=19.1 Vmin=14 Vmid=16.6 Napr=320 uakb=13.7 usb=13.76 temp=18.16 hum=48.61 prs=998.65 Log=10997 Err=0
id=947544 time=26.05.2020 20:48:38 Vmax=19.2 Vmin=14.1 Vmid=15.7 Napr=326 uakb=13.72 usb=13.74 temp=18.2 hum=48.59 prs=998.59 Log=10996 Err=0
id=947543 time=26.05.2020 20:47:25 Vmax=22 Vmin=17.7 Vmid=19.8 Napr=331 uakb=13.72 usb=13.88 temp=18.23 hum=48.49 prs=998.59 Log=10995 Err=0
id=947542 time=26.05.2020 20:46:14 Vmax=24.9 Vmin=20.3 Vmid=21.8 Napr=326 uakb=13.74 usb=14.04 temp=18.28 hum=48.38 prs=998.64 Log=10994 Err=0
id=947541 time=26.05.2020 20:43:28 Vmax=21.6 Vmin=15.7 Vmid=17.8 Napr=320 uakb=13.76 usb=13.9 temp=18.41 hum=48.3 prs=998.55 Log=10992 Err=0
id=947540 time=26.05.2020 20:42:14 Vmax=24.8 Vmin=20.5 Vmid=22.8 Napr=323 uakb=13.78 usb=14.04 temp=18.48 hum=48.3 prs=998.57 Log=10991 Err=0
id=947539 time=26.05.2020 20:41:02 Vmax=20.1 Vmin=13.5 Vmid=16.3 Napr=323 uakb=13.78 usb=14.04 temp=18.55 hum=48.3 prs=998.52 Log=10990 Err=0
id=947538 time=26.05.2020 20:39:49 Vmax=22.1 Vmin=16.8 Vmid=19 Napr=313 uakb=13.8 usb=14.06 temp=18.6 hum=48.22 prs=998.44 Log=10989 Err=0
id=947537 time=26.05.2020 20:38:38 Vmax=21.9 Vmin=17.4 Vmid=19.1 Napr=313 uakb=13.82 usb=14.06 temp=18.66 hum=48.24 prs=998.47 Log=10988 Err=0
id=947536 time=26.05.2020 20:37:15 Vmax=21.6 Vmin=14.3 Vmid=17.7 Napr=311 uakb=13.8 usb=14.06 temp=18.73 hum=48.11 prs=998.39 Log=10987 Err=0
id=947535 time=26.05.2020 20:36:01 Vmax=23.8 Vmin=17.4 Vmid=20.6 Napr=318 uakb=13.8 usb=14.08 temp=18.81 hum=48.12 prs=998.43 Log=10986 Err=0
id=947534 time=26.05.2020 20:34:49 Vmax=20.8 Vmin=14.8 Vmid=17.6 Napr=308 uakb=13.82 usb=14.06 temp=18.88 hum=48.06 prs=998.35 Log=10985 Err=0
id=947533 time=26.05.2020 20:33:36 Vmax=20.6 Vmin=15.9 Vmid=17.7 Napr=310 uakb=13.8 usb=14.08 temp=18.95 hum=48.04 prs=998.41 Log=10984 Err=0
id=947532 time=26.05.2020 20:32:24 Vmax=18.1 Vmin=12.5 Vmid=16.2 Napr=307 uakb=13.82 usb=14.08 temp=19.01 hum=48.03 prs=998.4 Log=10983 Err=0
id=947531 time=26.05.2020 20:31:13 Vmax=18.9 Vmin=13.8 Vmid=16.7 Napr=303 uakb=13.8 usb=14.06 temp=19.09 hum=48.04 prs=998.34 Log=10982 Err=0
id=947530 time=26.05.2020 20:29:59 Vmax=21.8 Vmin=18.3 Vmid=20.2 Napr=306 uakb=13.8 usb=14.06 temp=19.15 hum=48.05 prs=998.41 Log=10981 Err=0
id=947529 time=26.05.2020 20:28:46 Vmax=20.1 Vmin=13.5 Vmid=16.2 Napr=314 uakb=13.8 usb=14.04 temp=19.19 hum=48.08 prs=998.35 Log=10980 Err=0
id=947528 time=26.05.2020 20:27:34 Vmax=23.5 Vmin=18.7 Vmid=21.1 Napr=313 uakb=13.78 usb=14.08 temp=19.2 hum=48.07 prs=998.33 Log=10979 Err=0
id=947527 time=26.05.2020 20:26:23 Vmax=25.2 Vmin=18.4 Vmid=20.8 Napr=316 uakb=13.8 usb=14.08 temp=19.23 hum=48.08 prs=998.33 Log=10978 Err=0
id=947526 time=26.05.2020 20:25:09 Vmax=21.2 Vmin=16.4 Vmid=19 Napr=320 uakb=13.8 usb=14.06 temp=19.24 hum=48.09 prs=998.24 Log=10977 Err=0
id=947525 time=26.05.2020 20:23:57 Vmax=25.4 Vmin=18.7 Vmid=21.2 Napr=324 uakb=13.8 usb=14.06 temp=19.27 hum=47.96 prs=998.18 Log=10976 Err=0
id=947524 time=26.05.2020 20:22:44 Vmax=24.5 Vmin=16.8 Vmid=20.4 Napr=334 uakb=13.8 usb=14.06 temp=19.3 hum=47.97 prs=998.22 Log=10975 Err=0
id=947523 time=26.05.2020 20:21:32 Vmax=22.4 Vmin=19 Vmid=20.6 Napr=326 uakb=13.78 usb=14.06 temp=19.31 hum=47.92 prs=998.25 Log=10974 Err=0
id=947522 time=26.05.2020 20:18:46 Vmax=22.4 Vmin=19.2 Vmid=20.6 Napr=319 uakb=13.8 usb=14.06 temp=19.28 hum=47.59 prs=998.16 Log=10972 Err=0
id=947521 time=26.05.2020 20:17:34 Vmax=24.5 Vmin=15.3 Vmid=19 Napr=322 uakb=13.8 usb=14.06 temp=19.3 hum=47.4 prs=998.17 Log=10971 Err=0
id=947520 time=26.05.2020 20:16:21 Vmax=23.1 Vmin=14.5 Vmid=20.4 Napr=324 uakb=13.8 usb=14.06 temp=19.36 hum=47.36 prs=998.12 Log=10970 Err=0
id=947519 time=26.05.2020 20:15:09 Vmax=25.6 Vmin=21.5 Vmid=24 Napr=335 uakb=13.8 usb=14.04 temp=19.44 hum=47.31 prs=998.16 Log=10969 Err=0
id=947518 time=26.05.2020 20:13:56 Vmax=26 Vmin=20.5 Vmid=23.4 Napr=327 uakb=13.8 usb=14.04 temp=19.55 hum=47.16 prs=998.03 Log=10968 Err=0
id=947517 time=26.05.2020 20:12:43 Vmax=25.1 Vmin=19.1 Vmid=21.7 Napr=317 uakb=13.78 usb=14.06 temp=19.67 hum=47.1 prs=998.03 Log=10967 Err=0
id=947516 time=26.05.2020 20:11:31 Vmax=20.8 Vmin=17.5 Vmid=19 Napr=321 uakb=13.8 usb=14.06 temp=19.79 hum=46.94 prs=997.93 Log=10966 Err=0
id=947515 time=26.05.2020 20:10:19 Vmax=20.5 Vmin=15.3 Vmid=17.8 Napr=315 uakb=13.8 usb=14.06 temp=19.88 hum=46.91 prs=997.95 Log=10965 Err=0
id=947514 time=26.05.2020 20:09:09 Vmax=20.9 Vmin=16.4 Vmid=18.7 Napr=327 uakb=13.78 usb=14.06 temp=19.93 hum=46.8 prs=997.82 Log=10964 Err=0
id=947513 time=26.05.2020 20:07:54 Vmax=20.1 Vmin=10.4 Vmid=14.8 Napr=322 uakb=13.78 usb=14.04 temp=19.95 hum=46.78 prs=997.72 Log=10963 Err=0
id=947512 time=26.05.2020 20:06:40 Vmax=15.9 Vmin=12.4 Vmid=14.1 Napr=325 uakb=13.8 usb=14.04 temp=19.96 hum=46.67 prs=997.69 Log=10962 Err=0
id=947511 time=26.05.2020 20:05:29 Vmax=18.9 Vmin=13.5 Vmid=16.6 Napr=315 uakb=13.8 usb=14.06 temp=19.96 hum=46.56 prs=997.57 Log=10961 Err=0
id=947510 time=26.05.2020 20:02:43 Vmax=24.8 Vmin=21.2 Vmid=22.6 Napr=326 uakb=13.8 usb=14.06 temp=19.98 hum=46.21 prs=997.45 Log=10959 Err=0
id=947509 time=26.05.2020 20:01:32 Vmax=26.3 Vmin=14.7 Vmid=19.9 Napr=322 uakb=13.78 usb=14.06 temp=20 hum=46.03 prs=997.43 Log=10958 Err=0
id=947508 time=26.05.2020 20:00:18 Vmax=24.7 Vmin=14.2 Vmid=19.9 Napr=324 uakb=13.8 usb=14.06 temp=20.02 hum=45.91 prs=997.45 Log=10957 Err=0
id=947507 time=26.05.2020 19:59:06 Vmax=22.7 Vmin=16.2 Vmid=18.5 Napr=326 uakb=13.8 usb=14.06 temp=20.05 hum=45.91 prs=997.41 Log=10956 Err=0
id=947506 time=26.05.2020 19:57:54 Vmax=22.6 Vmin=18.3 Vmid=20.1 Napr=316 uakb=13.78 usb=14.04 temp=20.08 hum=45.84 prs=997.33 Log=10955 Err=0
id=947505 time=26.05.2020 19:56:41 Vmax=24 Vmin=18.8 Vmid=22 Napr=313 uakb=13.8 usb=14.04 temp=20.11 hum=45.73 prs=997.28 Log=10954 Err=0
id=947504 time=26.05.2020 19:55:29 Vmax=23.4 Vmin=20.8 Vmid=22.7 Napr=318 uakb=13.78 usb=14.06 temp=20.16 hum=45.63 prs=997.27 Log=10953 Err=0
id=947503 time=26.05.2020 19:54:15 Vmax=25.6 Vmin=21.5 Vmid=23.2 Napr=316 uakb=13.78 usb=14.04 temp=20.23 hum=45.65 prs=997.32 Log=10952 Err=0
id=947502 time=26.05.2020 19:53:04 Vmax=26.5 Vmin=20.4 Vmid=22.4 Napr=309 uakb=13.8 usb=14.06 temp=20.3 hum=45.69 prs=997.36 Log=10951 Err=0
id=947501 time=26.05.2020 19:51:50 Vmax=24.9 Vmin=19.2 Vmid=22.3 Napr=310 uakb=13.8 usb=14.06 temp=20.36 hum=45.6 prs=997.18 Log=10950 Err=0
id=947500 time=26.05.2020 19:50:38 Vmax=22.3 Vmin=13.9 Vmid=16.8 Napr=312 uakb=13.8 usb=14.06 temp=20.42 hum=45.51 prs=997.18 Log=10949 Err=0
id=947499 time=26.05.2020 19:49:26 Vmax=26.1 Vmin=17.3 Vmid=20.1 Napr=322 uakb=13.8 usb=14.06 temp=20.49 hum=45.21 prs=997.22 Log=10948 Err=0
id=947498 time=26.05.2020 19:48:12 Vmax=26.1 Vmin=19.7 Vmid=22.6 Napr=323 uakb=13.8 usb=14.06 temp=20.6 hum=45.08 prs=997.2 Log=10947 Err=0
id=947497 time=26.05.2020 19:47:00 Vmax=21.5 Vmin=17.5 Vmid=19.2 Napr=321 uakb=13.78 usb=14.04 temp=20.73 hum=44.87 prs=997.14 Log=10946 Err=0
id=947496 time=26.05.2020 19:45:47 Vmax=28.4 Vmin=22.6 Vmid=25.8 Napr=322 uakb=13.78 usb=14.06 temp=20.87 hum=44.6 prs=997.17 Log=10945 Err=0
id=947495 time=26.05.2020 19:44:35 Vmax=32.2 Vmin=24.2 Vmid=28.2 Napr=320 uakb=13.78 usb=14.06 temp=21.06 hum=44.43 prs=997.03 Log=10944 Err=0
id=947494 time=26.05.2020 19:43:23 Vmax=31 Vmin=22.8 Vmid=27.4 Napr=313 uakb=13.78 usb=14.04 temp=21.25 hum=44.32 prs=997.1 Log=10943 Err=0
id=947493 time=26.05.2020 19:42:10 Vmax=26.7 Vmin=21 Vmid=24.1 Napr=307 uakb=13.78 usb=14.06 temp=21.46 hum=44.33 prs=997.03 Log=10942 Err=0
id=947492 time=26.05.2020 19:40:57 Vmax=28.1 Vmin=21.1 Vmid=24 Napr=308 uakb=13.78 usb=14.06 temp=21.64 hum=44.29 prs=997.03 Log=10941 Err=0
id=947491 time=26.05.2020 19:39:44 Vmax=23.5 Vmin=18 Vmid=19.9 Napr=310 uakb=13.8 usb=14.06 temp=21.72 hum=44.25 prs=996.88 Log=10940 Err=0
id=947490 time=26.05.2020 19:38:31 Vmax=19.7 Vmin=14 Vmid=16.4 Napr=310 uakb=13.8 usb=14.04 temp=21.73 hum=44.18 prs=996.81 Log=10939 Err=0
id=947489 time=26.05.2020 19:37:20 Vmax=20.5 Vmin=13.5 Vmid=15.7 Napr=322 uakb=13.8 usb=14.04 temp=21.72 hum=43.88 prs=996.76 Log=10938 Err=0
id=947488 time=26.05.2020 19:36:07 Vmax=20.8 Vmin=16.4 Vmid=18.2 Napr=321 uakb=13.8 usb=14.04 temp=21.73 hum=43.8 prs=996.8 Log=10937 Err=0
id=947487 time=26.05.2020 19:34:54 Vmax=18.5 Vmin=12.6 Vmid=15 Napr=324 uakb=13.8 usb=14.04 temp=21.71 hum=43.66 prs=996.66 Log=10936 Err=0
id=947486 time=26.05.2020 19:33:42 Vmax=17.6 Vmin=13.3 Vmid=15.2 Napr=321 uakb=13.8 usb=14.06 temp=21.69 hum=43.44 prs=996.5 Log=10935 Err=0
id=947485 time=26.05.2020 19:32:29 Vmax=23.3 Vmin=18.2 Vmid=21.8 Napr=329 uakb=13.78 usb=14.06 temp=21.72 hum=43.28 prs=996.51 Log=10934 Err=0
id=947484 time=26.05.2020 19:31:16 Vmax=27.3 Vmin=18.2 Vmid=21.6 Napr=325 uakb=13.8 usb=14.04 temp=21.78 hum=43.24 prs=996.58 Log=10933 Err=0
id=947483 time=26.05.2020 19:30:03 Vmax=28.8 Vmin=21.5 Vmid=24.6 Napr=326 uakb=13.78 usb=14.06 temp=21.84 hum=43.1 prs=996.52 Log=10932 Err=0
id=947482 time=26.05.2020 19:28:51 Vmax=26.9 Vmin=19 Vmid=22.3 Napr=321 uakb=13.8 usb=14.06 temp=21.89 hum=43.01 prs=996.53 Log=10931 Err=0
id=947481 time=26.05.2020 19:26:05 Vmax=26.2 Vmin=16.2 Vmid=20.6 Napr=324 uakb=13.78 usb=14.06 temp=22 hum=42.8 prs=996.44 Log=10929 Err=0
id=947480 time=26.05.2020 19:24:55 Vmax=21 Vmin=16.6 Vmid=18 Napr=324 uakb=13.8 usb=14.06 temp=22.01 hum=42.71 prs=996.42 Log=10928 Err=0
id=947479 time=26.05.2020 19:23:41 Vmax=24.6 Vmin=18.3 Vmid=20.6 Napr=315 uakb=13.8 usb=14.06 temp=21.99 hum=42.39 prs=996.27 Log=10927 Err=0
id=947478 time=26.05.2020 19:22:28 Vmax=25.1 Vmin=18 Vmid=21.2 Napr=317 uakb=13.78 usb=14.06 temp=22.02 hum=42.24 prs=996.29 Log=10926 Err=0
id=947477 time=26.05.2020 19:21:16 Vmax=25.6 Vmin=20.4 Vmid=24.5 Napr=321 uakb=13.8 usb=14.06 temp=22.06 hum=41.93 prs=996.28 Log=10925 Err=0
id=947476 time=26.05.2020 19:18:29 Vmax=26.2 Vmin=22.5 Vmid=24.7 Napr=319 uakb=13.78 usb=14.04 temp=22.26 hum=41.35 prs=996.13 Log=10923 Err=0
id=947475 time=26.05.2020 19:17:17 Vmax=23.2 Vmin=18.4 Vmid=20.5 Napr=322 uakb=13.8 usb=14.06 temp=22.34 hum=41.06 prs=996.17 Log=10922 Err=0
id=947474 time=26.05.2020 19:16:05 Vmax=26.5 Vmin=19.6 Vmid=22.5 Napr=329 uakb=13.78 usb=14.06 temp=22.47 hum=40.76 prs=996.02 Log=10921 Err=0
id=947473 time=26.05.2020 19:13:18 Vmax=24.6 Vmin=21.2 Vmid=23.1 Napr=317 uakb=13.78 usb=14.06 temp=23.04 hum=39.87 prs=995.95 Log=10919 Err=0
id=947472 time=26.05.2020 19:12:05 Vmax=24.2 Vmin=19.6 Vmid=22.4 Napr=315 uakb=13.78 usb=14.06 temp=23.31 hum=39.49 prs=995.75 Log=10918 Err=0
id=947471 time=26.05.2020 19:10:53 Vmax=24.9 Vmin=18 Vmid=22.4 Napr=313 uakb=13.76 usb=14.04 temp=23.48 hum=39.26 prs=995.65 Log=10917 Err=0
id=947470 time=26.05.2020 19:09:40 Vmax=22.3 Vmin=13.3 Vmid=18.4 Napr=298 uakb=13.78 usb=14.04 temp=23.54 hum=38.93 prs=995.44 Log=10916 Err=0
id=947469 time=26.05.2020 19:08:28 Vmax=23.5 Vmin=16.1 Vmid=20.4 Napr=297 uakb=13.8 usb=14.04 temp=23.59 hum=38.58 prs=995.45 Log=10915 Err=0
id=947468 time=26.05.2020 19:07:15 Vmax=23.1 Vmin=16.3 Vmid=19.1 Napr=299 uakb=13.78 usb=14.04 temp=23.65 hum=38.29 prs=995.39 Log=10914 Err=0
id=947467 time=26.05.2020 19:06:04 Vmax=25.9 Vmin=21.1 Vmid=23.5 Napr=302 uakb=13.78 usb=14.04 temp=23.72 hum=37.98 prs=995.35 Log=10913 Err=0
id=947466 time=26.05.2020 19:04:49 Vmax=26.9 Vmin=17.4 Vmid=21.3 Napr=303 uakb=13.78 usb=14.04 temp=23.83 hum=37.82 prs=995.41 Log=10912 Err=0
id=947465 time=26.05.2020 19:03:37 Vmax=21.5 Vmin=17.7 Vmid=19.7 Napr=298 uakb=13.78 usb=14.06 temp=23.92 hum=37.52 prs=995.35 Log=10911 Err=0
id=947464 time=26.05.2020 19:02:24 Vmax=28.9 Vmin=22.1 Vmid=24.5 Napr=296 uakb=13.78 usb=14.04 temp=24.03 hum=37.27 prs=995.23 Log=10910 Err=0
id=947463 time=26.05.2020 19:01:11 Vmax=23.1 Vmin=15.9 Vmid=19 Napr=298 uakb=13.78 usb=14.04 temp=24.13 hum=37.06 prs=995.43 Log=10909 Err=0
id=947462 time=26.05.2020 18:58:25 Vmax=24.5 Vmin=18.3 Vmid=21 Napr=293 uakb=13.78 usb=14.06 temp=24.33 hum=36.68 prs=995.33 Log=10907 Err=0
id=947461 time=26.05.2020 18:57:13 Vmax=18.5 Vmin=13.6 Vmid=15.9 Napr=293 uakb=13.78 usb=14.04 temp=24.39 hum=36.5 prs=995.26 Log=10906 Err=0
id=947460 time=26.05.2020 18:56:00 Vmax=23 Vmin=17.6 Vmid=20.1 Napr=294 uakb=13.8 usb=14.04 temp=24.43 hum=36.25 prs=995.26 Log=10905 Err=0
id=947459 time=26.05.2020 18:54:47 Vmax=23.3 Vmin=18.9 Vmid=21.6 Napr=296 uakb=13.78 usb=14.04 temp=24.48 hum=36.2 prs=995.22 Log=10904 Err=0
id=947458 time=26.05.2020 18:53:34 Vmax=26.7 Vmin=14.3 Vmid=19.9 Napr=296 uakb=13.78 usb=14.06 temp=24.51 hum=35.97 prs=995.19 Log=10903 Err=0
id=947457 time=26.05.2020 18:52:22 Vmax=24.2 Vmin=17.3 Vmid=20.4 Napr=299 uakb=13.78 usb=14.04 temp=24.5 hum=35.88 prs=995.16 Log=10902 Err=0
id=947456 time=26.05.2020 18:51:11 Vmax=23 Vmin=16.1 Vmid=18.3 Napr=299 uakb=13.78 usb=14.04 temp=24.49 hum=35.78 prs=995.12 Log=10901 Err=0
id=947455 time=26.05.2020 18:50:00 Vmax=22.4 Vmin=16.3 Vmid=18.4 Napr=297 uakb=13.78 usb=14.04 temp=24.53 hum=35.62 prs=995.01 Log=10900 Err=0
id=947454 time=26.05.2020 18:47:11 Vmax=23.3 Vmin=17.5 Vmid=20.2 Napr=295 uakb=13.78 usb=14.04 temp=24.74 hum=34.98 prs=995.01 Log=10898 Err=0
id=947453 time=26.05.2020 18:45:58 Vmax=29.7 Vmin=20.6 Vmid=24.2 Napr=293 uakb=13.78 usb=14.04 temp=24.84 hum=34.7 prs=995 Log=10897 Err=0
id=947452 time=26.05.2020 18:44:48 Vmax=30.9 Vmin=23.9 Vmid=27.9 Napr=295 uakb=13.78 usb=14.04 temp=24.92 hum=34.44 prs=994.97 Log=10896 Err=0
id=947451 time=26.05.2020 18:43:34 Vmax=32.4 Vmin=19 Vmid=26.1 Napr=298 uakb=13.78 usb=14.04 temp=25 hum=34.34 prs=995.05 Log=10895 Err=0
id=947450 time=26.05.2020 18:40:49 Vmax=28.4 Vmin=22.1 Vmid=25.1 Napr=307 uakb=13.78 usb=14.04 temp=25.22 hum=33.81 prs=994.84 Log=10893 Err=0
id=947449 time=26.05.2020 18:39:35 Vmax=33.8 Vmin=22.5 Vmid=27 Napr=306 uakb=13.78 usb=14.04 temp=25.38 hum=33.59 prs=994.74 Log=10892 Err=0
id=947448 time=26.05.2020 18:38:22 Vmax=30.3 Vmin=19.7 Vmid=24.7 Napr=307 uakb=13.78 usb=14.04 temp=25.54 hum=33.53 prs=994.84 Log=10891 Err=0
id=947447 time=26.05.2020 18:37:09 Vmax=27.4 Vmin=19.2 Vmid=22.5 Napr=301 uakb=13.8 usb=14.04 temp=25.6 hum=33.33 prs=994.68 Log=10890 Err=0
id=947446 time=26.05.2020 18:35:56 Vmax=28.4 Vmin=23 Vmid=25.3 Napr=304 uakb=13.78 usb=14.06 temp=25.66 hum=32.97 prs=994.68 Log=10889 Err=0
id=947445 time=26.05.2020 18:34:43 Vmax=25.6 Vmin=15.9 Vmid=22.3 Napr=305 uakb=13.78 usb=14.04 temp=25.68 hum=32.89 prs=994.58 Log=10888 Err=0
id=947444 time=26.05.2020 18:33:31 Vmax=26.2 Vmin=20.5 Vmid=23.5 Napr=304 uakb=13.78 usb=14.06 temp=25.74 hum=32.72 prs=994.44 Log=10887 Err=0
id=947443 time=26.05.2020 18:30:45 Vmax=29 Vmin=16.2 Vmid=22.1 Napr=305 uakb=13.78 usb=14.04 temp=25.91 hum=32.22 prs=994.47 Log=10885 Err=0
id=947442 time=26.05.2020 18:29:32 Vmax=24.8 Vmin=14.2 Vmid=17.8 Napr=310 uakb=13.78 usb=14.04 temp=25.94 hum=31.88 prs=994.45 Log=10884 Err=0
id=947441 time=26.05.2020 18:28:20 Vmax=29.6 Vmin=22.8 Vmid=26.5 Napr=313 uakb=13.76 usb=14.04 temp=26.06 hum=31.62 prs=994.39 Log=10883 Err=0
id=947440 time=26.05.2020 18:27:09 Vmax=30.1 Vmin=24.2 Vmid=26.8 Napr=309 uakb=13.78 usb=14.04 temp=26.25 hum=31.29 prs=994.34 Log=10882 Err=0
id=947439 time=26.05.2020 18:25:54 Vmax=29.1 Vmin=25.6 Vmid=27.4 Napr=309 uakb=13.8 usb=14.04 temp=26.45 hum=30.99 prs=994.22 Log=10881 Err=0
id=947438 time=26.05.2020 18:24:41 Vmax=31.4 Vmin=18.9 Vmid=28.1 Napr=304 uakb=13.78 usb=14.06 temp=26.7 hum=30.8 prs=994.28 Log=10880 Err=0
id=947437 time=26.05.2020 18:23:28 Vmax=26.6 Vmin=18.2 Vmid=21.5 Napr=302 uakb=13.78 usb=14.04 temp=26.84 hum=30.66 prs=994.1 Log=10879 Err=0
id=947436 time=26.05.2020 18:22:15 Vmax=26.9 Vmin=21.1 Vmid=24.2 Napr=304 uakb=13.78 usb=14.06 temp=26.97 hum=30.41 prs=994.06 Log=10878 Err=0
id=947435 time=26.05.2020 18:21:03 Vmax=22.1 Vmin=13.9 Vmid=18.1 Napr=303 uakb=13.78 usb=14.04 temp=27.08 hum=30.41 prs=993.95 Log=10877 Err=0
id=947434 time=26.05.2020 18:18:19 Vmax=0 Vmin=0 Vmid=0 Napr=301 uakb=13.8 usb=14.04 temp=27.12 hum=30.32 prs=993.82 Log=10875 Err=0
id=947433 time=26.05.2020 18:17:04 Vmax=0 Vmin=0 Vmid=0 Napr=300 uakb=13.78 usb=14.04 temp=27.17 hum=30.33 prs=993.74 Log=10874 Err=0
id=947432 time=26.05.2020 18:15:51 Vmax=0 Vmin=0 Vmid=0 Napr=302 uakb=13.78 usb=14.04 temp=27.24 hum=30.35 prs=993.73 Log=10873 Err=0
id=947431 time=26.05.2020 18:14:38 Vmax=0 Vmin=0 Vmid=0 Napr=301 uakb=13.78 usb=14.04 temp=27.32 hum=30.51 prs=993.75 Log=10872 Err=0
id=947430 time=26.05.2020 18:13:26 Vmax=0 Vmin=0 Vmid=0 Napr=299 uakb=13.78 usb=14.04 temp=27.37 hum=30.65 prs=993.75 Log=10871 Err=0
id=947429 time=26.05.2020 18:12:13 Vmax=0 Vmin=0 Vmid=0 Napr=304 uakb=13.78 usb=14.04 temp=27.45 hum=30.59 prs=993.69 Log=10870 Err=0
id=947428 time=26.05.2020 18:09:27 Vmax=0 Vmin=0 Vmid=0 Napr=302 uakb=13.78 usb=14.04 temp=27.68 hum=30.68 prs=993.54 Log=10868 Err=0
id=947427 time=26.05.2020 18:08:14 Vmax=0 Vmin=0 Vmid=0 Napr=302 uakb=13.78 usb=14.04 temp=27.79 hum=30.85 prs=993.52 Log=10867 Err=0
id=947426 time=26.05.2020 18:07:01 Vmax=0 Vmin=0 Vmid=0 Napr=306 uakb=13.78 usb=14.04 temp=27.9 hum=31.02 prs=993.45 Log=10866 Err=0
id=947425 time=26.05.2020 18:05:49 Vmax=0 Vmin=0 Vmid=0 Napr=303 uakb=13.8 usb=14.04 temp=28.02 hum=30.97 prs=993.47 Log=10865 Err=0
id=947424 time=26.05.2020 18:04:36 Vmax=0 Vmin=0 Vmid=0 Napr=294 uakb=13.78 usb=14.04 temp=28.17 hum=30.97 prs=993.43 Log=10864 Err=0
id=947423 time=26.05.2020 18:03:24 Vmax=0 Vmin=0 Vmid=0 Napr=295 uakb=13.78 usb=14.04 temp=28.34 hum=30.86 prs=993.25 Log=10863 Err=0
id=947422 time=26.05.2020 18:02:11 Vmax=0 Vmin=0 Vmid=0 Napr=296 uakb=13.78 usb=14.06 temp=28.52 hum=30.78 prs=993.19 Log=10862 Err=0
id=947421 time=26.05.2020 18:00:58 Vmax=0 Vmin=0 Vmid=0 Napr=299 uakb=13.76 usb=14.04 temp=28.63 hum=30.55 prs=993.03 Log=10861 Err=0
id=947420 time=26.05.2020 17:59:44 Vmax=0 Vmin=0 Vmid=0 Napr=302 uakb=13.78 usb=14.04 temp=28.74 hum=30.35 prs=992.99 Log=10860 Err=0
id=947419 time=26.05.2020 17:58:31 Vmax=0 Vmin=0 Vmid=0 Napr=302 uakb=13.78 usb=14.06 temp=28.81 hum=30.27 prs=992.86 Log=10859 Err=0
id=947418 time=26.05.2020 17:55:46 Vmax=0 Vmin=0 Vmid=0 Napr=300 uakb=13.78 usb=14.04 temp=28.89 hum=30.26 prs=992.65 Log=10857 Err=0
id=947417 time=26.05.2020 17:54:33 Vmax=0 Vmin=0 Vmid=0 Napr=303 uakb=13.78 usb=14.04 temp=28.98 hum=30.53 prs=992.63 Log=10856 Err=0
id=947416 time=26.05.2020 17:53:20 Vmax=0 Vmin=0 Vmid=0 Napr=302 uakb=13.78 usb=14.04 temp=29.09 hum=30.5 prs=992.55 Log=10855 Err=0
id=947415 time=26.05.2020 17:52:06 Vmax=0 Vmin=0 Vmid=0 Napr=299 uakb=13.78 usb=14.04 temp=29.2 hum=30.64 prs=992.53 Log=10854 Err=0
id=947414 time=26.05.2020 17:50:54 Vmax=0 Vmin=0 Vmid=0 Napr=292 uakb=13.78 usb=14.04 temp=29.32 hum=30.95 prs=992.53 Log=10853 Err=0
id=947413 time=26.05.2020 17:49:42 Vmax=0 Vmin=0 Vmid=0 Napr=293 uakb=13.78 usb=14.06 temp=29.44 hum=31.42 prs=992.48 Log=10852 Err=0
id=947412 time=26.05.2020 17:48:30 Vmax=0 Vmin=0 Vmid=0 Napr=299 uakb=13.78 usb=14.04 temp=29.54 hum=31.89 prs=992.39 Log=10851 Err=0
id=947411 time=26.05.2020 17:47:15 Vmax=0 Vmin=0 Vmid=0 Napr=290 uakb=13.78 usb=14.04 temp=29.63 hum=32.71 prs=992.44 Log=10850 Err=0
id=947410 time=26.05.2020 17:46:03 Vmax=0 Vmin=0 Vmid=0 Napr=286 uakb=13.78 usb=14.04 temp=29.71 hum=33.13 prs=992.31 Log=10849 Err=0
id=947409 time=26.05.2020 17:44:51 Vmax=0 Vmin=0 Vmid=0 Napr=281 uakb=13.78 usb=14.04 temp=29.79 hum=33.33 prs=992.3 Log=10848 Err=0
id=947408 time=26.05.2020 17:43:37 Vmax=0 Vmin=0 Vmid=0 Napr=283 uakb=13.78 usb=14.04 temp=29.86 hum=33.74 prs=992.33 Log=10847 Err=0
id=947407 time=26.05.2020 17:42:24 Vmax=0 Vmin=0 Vmid=0 Napr=281 uakb=13.78 usb=14.04 temp=29.88 hum=34.03 prs=992.33 Log=10846 Err=0
id=947406 time=26.05.2020 17:41:11 Vmax=0 Vmin=0 Vmid=0 Napr=281 uakb=13.78 usb=14.04 temp=29.91 hum=34.32 prs=992.24 Log=10845 Err=0
id=947405 time=26.05.2020 17:39:58 Vmax=0 Vmin=0 Vmid=0 Napr=275 uakb=13.78 usb=14.04 temp=29.96 hum=34.47 prs=992.2 Log=10844 Err=0
id=947404 time=26.05.2020 17:38:45 Vmax=0 Vmin=0 Vmid=0 Napr=268 uakb=13.8 usb=14.04 temp=29.99 hum=34.48 prs=992.16 Log=10843 Err=0
id=947403 time=26.05.2020 17:37:32 Vmax=0 Vmin=0 Vmid=0 Napr=269 uakb=13.78 usb=14.06 temp=30.02 hum=34.52 prs=992.17 Log=10842 Err=0
id=947402 time=26.05.2020 17:36:20 Vmax=0 Vmin=0 Vmid=0 Napr=268 uakb=13.78 usb=14.06 temp=30.06 hum=34.58 prs=992.14 Log=10841 Err=0
id=947401 time=26.05.2020 17:35:07 Vmax=0 Vmin=0 Vmid=0 Napr=268 uakb=13.8 usb=14.04 temp=30.11 hum=34.63 prs=992.14 Log=10840 Err=0
id=947400 time=26.05.2020 17:33:53 Vmax=0 Vmin=0 Vmid=0 Napr=265 uakb=13.78 usb=14.04 temp=30.18 hum=34.49 prs=992.08 Log=10839 Err=0
id=947399 time=26.05.2020 17:32:40 Vmax=0 Vmin=0 Vmid=0 Napr=266 uakb=13.78 usb=14.04 temp=30.23 hum=34.45 prs=992.01 Log=10838 Err=0
id=947398 time=26.05.2020 17:31:28 Vmax=0 Vmin=0 Vmid=0 Napr=262 uakb=13.78 usb=14.04 temp=30.23 hum=34.65 prs=992.02 Log=10837 Err=0
id=947397 time=26.05.2020 17:30:15 Vmax=0 Vmin=0 Vmid=0 Napr=261 uakb=13.78 usb=14.04 temp=30.25 hum=35.1 prs=992.13 Log=10836 Err=0
id=947396 time=26.05.2020 17:27:29 Vmax=0 Vmin=0 Vmid=0 Napr=258 uakb=13.78 usb=14.06 temp=30.28 hum=35.61 prs=992.1 Log=10834 Err=0
id=947395 time=26.05.2020 17:26:16 Vmax=0 Vmin=0 Vmid=0 Napr=258 uakb=13.78 usb=14.04 temp=30.27 hum=35.79 prs=992.05 Log=10833 Err=0
id=947394 time=26.05.2020 17:25:04 Vmax=0 Vmin=0 Vmid=0 Napr=261 uakb=13.76 usb=14.04 temp=30.22 hum=36.25 prs=992.01 Log=10832 Err=0
id=947393 time=26.05.2020 17:23:50 Vmax=0 Vmin=0 Vmid=0 Napr=265 uakb=13.78 usb=14.06 temp=30.22 hum=36.61 prs=992.04 Log=10831 Err=0
id=947392 time=26.05.2020 17:22:37 Vmax=0 Vmin=0 Vmid=0 Napr=262 uakb=13.76 usb=14.04 temp=30.21 hum=36.88 prs=991.97 Log=10830 Err=0
id=947391 time=26.05.2020 17:21:24 Vmax=0 Vmin=0 Vmid=0 Napr=270 uakb=13.78 usb=14.04 temp=30.21 hum=37.13 prs=991.95 Log=10829 Err=0
id=947390 time=26.05.2020 17:17:06 Vmax=0 Vmin=0 Vmid=0 Napr=267 uakb=13.78 usb=14.06 temp=30.2 hum=38.05 prs=991.93 Log=10826 Err=0
id=947389 time=26.05.2020 17:15:53 Vmax=0 Vmin=0 Vmid=0 Napr=269 uakb=13.8 usb=14.04 temp=30.18 hum=38.25 prs=991.95 Log=10825 Err=0
id=947388 time=26.05.2020 17:14:41 Vmax=0 Vmin=0 Vmid=0 Napr=274 uakb=13.78 usb=14.06 temp=30.12 hum=38.5 prs=991.85 Log=10824 Err=0
id=947387 time=26.05.2020 17:11:54 Vmax=0 Vmin=0 Vmid=0 Napr=262 uakb=13.78 usb=14.04 temp=29.85 hum=39.2 prs=992.02 Log=10822 Err=0
id=947386 time=26.05.2020 17:10:41 Vmax=0 Vmin=0 Vmid=0 Napr=255 uakb=13.78 usb=14.06 temp=29.78 hum=39.35 prs=992.04 Log=10821 Err=0
id=947385 time=26.05.2020 17:09:29 Vmax=0 Vmin=0 Vmid=0 Napr=254 uakb=13.78 usb=14.06 temp=29.61 hum=39.52 prs=991.91 Log=10820 Err=0
id=947384 time=26.05.2020 17:06:43 Vmax=0 Vmin=0 Vmid=0 Napr=244 uakb=13.78 usb=14.04 temp=29.14 hum=40.24 prs=991.9 Log=10818 Err=0
id=947383 time=26.05.2020 17:05:30 Vmax=0 Vmin=0 Vmid=0 Napr=237 uakb=13.8 usb=14.04 temp=29.07 hum=40.37 prs=991.95 Log=10817 Err=0
id=947382 time=26.05.2020 17:04:18 Vmax=0 Vmin=0 Vmid=0 Napr=246 uakb=13.78 usb=14.06 temp=28.92 hum=40.42 prs=991.98 Log=10816 Err=0
id=947381 time=26.05.2020 17:03:04 Vmax=0 Vmin=0 Vmid=0 Napr=241 uakb=13.78 usb=14.06 temp=28.83 hum=40.34 prs=991.9 Log=10815 Err=0
id=947380 time=26.05.2020 17:01:50 Vmax=0 Vmin=0 Vmid=0 Napr=238 uakb=13.78 usb=14.06 temp=28.74 hum=40.19 prs=991.99 Log=10814 Err=0
id=947379 time=26.05.2020 17:00:40 Vmax=0 Vmin=0 Vmid=0 Napr=240 uakb=13.8 usb=14.04 temp=28.63 hum=40.15 prs=992.05 Log=10813 Err=0
id=947378 time=26.05.2020 16:59:25 Vmax=0 Vmin=0 Vmid=0 Napr=236 uakb=13.78 usb=14.04 temp=28.58 hum=40.09 prs=992.03 Log=10812 Err=0
id=947377 time=26.05.2020 16:58:13 Vmax=0 Vmin=0 Vmid=0 Napr=230 uakb=13.78 usb=14.06 temp=28.59 hum=39.87 prs=992.07 Log=10811 Err=0
id=947376 time=26.05.2020 16:57:00 Vmax=0 Vmin=0 Vmid=0 Napr=226 uakb=13.78 usb=14.06 temp=28.62 hum=39.67 prs=991.95 Log=10810 Err=0
id=947375 time=26.05.2020 16:55:47 Vmax=0 Vmin=0 Vmid=0 Napr=224 uakb=13.78 usb=14.04 temp=28.67 hum=39.54 prs=991.98 Log=10809 Err=0
id=947374 time=26.05.2020 16:54:34 Vmax=0 Vmin=0 Vmid=0 Napr=223 uakb=13.8 usb=14.06 temp=28.78 hum=39.48 prs=992 Log=10808 Err=0
id=947373 time=26.05.2020 16:53:21 Vmax=0 Vmin=0 Vmid=0 Napr=233 uakb=13.8 usb=14.04 temp=28.89 hum=39.25 prs=992.17 Log=10807 Err=0
id=947372 time=26.05.2020 16:52:08 Vmax=0 Vmin=0 Vmid=0 Napr=228 uakb=13.78 usb=14.04 temp=29 hum=38.98 prs=992.2 Log=10806 Err=0
id=947371 time=26.05.2020 16:50:56 Vmax=0 Vmin=0 Vmid=0 Napr=222 uakb=13.78 usb=14.04 temp=29.15 hum=38.81 prs=992.28 Log=10805 Err=0
id=947370 time=26.05.2020 16:49:43 Vmax=0 Vmin=0 Vmid=0 Napr=222 uakb=13.8 usb=14.04 temp=29.34 hum=38.49 prs=992.29 Log=10804 Err=0
id=947369 time=26.05.2020 16:48:30 Vmax=0 Vmin=0 Vmid=0 Napr=239 uakb=13.78 usb=14.04 temp=29.43 hum=38.34 prs=992.31 Log=10803 Err=0
id=947368 time=26.05.2020 16:47:18 Vmax=0.1 Vmin=0 Vmid=0 Napr=248 uakb=13.78 usb=14.06 temp=29.45 hum=38.17 prs=992.25 Log=10802 Err=0
id=947367 time=26.05.2020 16:46:05 Vmax=0 Vmin=0 Vmid=0 Napr=247 uakb=13.78 usb=14.06 temp=29.42 hum=38.11 prs=992.19 Log=10801 Err=0
id=947366 time=26.05.2020 16:44:52 Vmax=0 Vmin=0 Vmid=0 Napr=247 uakb=13.78 usb=14.04 temp=29.35 hum=38.07 prs=992.09 Log=10800 Err=0
id=947365 time=26.05.2020 16:43:39 Vmax=0 Vmin=0 Vmid=0 Napr=254 uakb=13.78 usb=14.04 temp=29.26 hum=37.91 prs=992.03 Log=10799 Err=0
id=947364 time=26.05.2020 16:42:21 Vmax=0 Vmin=0 Vmid=0 Napr=251 uakb=13.78 usb=14.06 temp=29.17 hum=37.74 prs=992.08 Log=10798 Err=0
id=947363 time=26.05.2020 16:41:02 Vmax=0 Vmin=0 Vmid=0 Napr=249 uakb=13.8 usb=14.04 temp=29.12 hum=37.59 prs=992.03 Log=10797 Err=0
id=947362 time=26.05.2020 16:38:17 Vmax=0 Vmin=0 Vmid=0 Napr=256 uakb=13.78 usb=14.04 temp=29.06 hum=37.62 prs=992.15 Log=10795 Err=0
id=947361 time=26.05.2020 16:37:03 Vmax=0 Vmin=0 Vmid=0 Napr=257 uakb=13.8 usb=14.04 temp=29.08 hum=37.64 prs=992.14 Log=10794 Err=0
id=947360 time=26.05.2020 16:35:51 Vmax=0 Vmin=0 Vmid=0 Napr=260 uakb=13.78 usb=14.04 temp=29.12 hum=37.62 prs=992.19 Log=10793 Err=0
id=947359 time=26.05.2020 16:34:39 Vmax=0 Vmin=0 Vmid=0 Napr=261 uakb=13.78 usb=14.04 temp=29.15 hum=37.6 prs=992.17 Log=10792 Err=0
id=947358 time=26.05.2020 16:33:26 Vmax=0 Vmin=0 Vmid=0 Napr=260 uakb=13.78 usb=14.06 temp=29.14 hum=37.56 prs=992.28 Log=10791 Err=0
id=947357 time=26.05.2020 16:32:12 Vmax=0 Vmin=0 Vmid=0 Napr=254 uakb=13.76 usb=14.04 temp=29.12 hum=37.6 prs=992.41 Log=10790 Err=0
id=947356 time=26.05.2020 16:31:00 Vmax=0 Vmin=0 Vmid=0 Napr=251 uakb=13.78 usb=14.04 temp=29.11 hum=37.56 prs=992.46 Log=10789 Err=0
id=947355 time=26.05.2020 16:29:46 Vmax=0 Vmin=0 Vmid=0 Napr=251 uakb=13.78 usb=14.04 temp=29.16 hum=37.38 prs=992.65 Log=10788 Err=0
id=947354 time=26.05.2020 16:28:34 Vmax=0 Vmin=0 Vmid=0 Napr=245 uakb=13.78 usb=14.04 temp=29.2 hum=37.07 prs=992.99 Log=10787 Err=0
id=947353 time=26.05.2020 16:25:48 Vmax=0 Vmin=0 Vmid=0 Napr=235 uakb=13.78 usb=14.04 temp=29.26 hum=36.55 prs=992.62 Log=10785 Err=0
id=947352 time=26.05.2020 16:24:35 Vmax=0 Vmin=0 Vmid=0 Napr=236 uakb=13.78 usb=14.04 temp=29.42 hum=36.21 prs=992.65 Log=10784 Err=0
id=947351 time=26.05.2020 16:23:22 Vmax=0 Vmin=0 Vmid=0 Napr=239 uakb=13.76 usb=14.04 temp=29.54 hum=35.91 prs=992.52 Log=10783 Err=0
id=947350 time=26.05.2020 16:22:12 Vmax=0 Vmin=0 Vmid=0 Napr=235 uakb=13.76 usb=14.04 temp=29.64 hum=35.79 prs=992.53 Log=10782 Err=0
id=947349 time=26.05.2020 16:20:56 Vmax=0 Vmin=0 Vmid=0 Napr=231 uakb=13.76 usb=14.04 temp=29.72 hum=35.67 prs=992.54 Log=10781 Err=0
id=947348 time=26.05.2020 16:19:43 Vmax=0 Vmin=0 Vmid=0 Napr=232 uakb=13.78 usb=14.04 temp=29.78 hum=35.65 prs=992.56 Log=10780 Err=0
id=947347 time=26.05.2020 16:18:30 Vmax=0 Vmin=0 Vmid=0 Napr=238 uakb=13.78 usb=14.04 temp=29.85 hum=35.65 prs=992.56 Log=10779 Err=0
id=947346 time=26.05.2020 16:17:17 Vmax=0 Vmin=0 Vmid=0 Napr=237 uakb=13.78 usb=14.04 temp=29.88 hum=35.63 prs=992.61 Log=10778 Err=0
id=947345 time=26.05.2020 16:16:04 Vmax=0 Vmin=0 Vmid=0 Napr=234 uakb=13.78 usb=14.04 temp=29.9 hum=35.54 prs=992.65 Log=10777 Err=0
id=947344 time=26.05.2020 16:14:52 Vmax=0 Vmin=0 Vmid=0 Napr=233 uakb=13.78 usb=14.04 temp=29.92 hum=35.52 prs=992.69 Log=10776 Err=0
id=947343 time=26.05.2020 16:12:06 Vmax=0 Vmin=0 Vmid=0 Napr=235 uakb=13.78 usb=14.04 temp=30.02 hum=35.62 prs=992.77 Log=10774 Err=0
id=947342 time=26.05.2020 16:10:53 Vmax=0 Vmin=0 Vmid=0 Napr=233 uakb=13.78 usb=14.04 temp=30.13 hum=35.49 prs=992.78 Log=10773 Err=0
id=947341 time=26.05.2020 16:09:41 Vmax=0 Vmin=0 Vmid=0 Napr=235 uakb=13.78 usb=14.04 temp=30.17 hum=35.34 prs=992.73 Log=10772 Err=0
id=947340 time=26.05.2020 16:06:54 Vmax=0 Vmin=0 Vmid=0 Napr=235 uakb=13.78 usb=14.04 temp=30.25 hum=35.31 prs=992.81 Log=10770 Err=0
id=947339 time=26.05.2020 16:05:41 Vmax=0 Vmin=0 Vmid=0 Napr=239 uakb=13.78 usb=14.04 temp=30.38 hum=35.29 prs=992.95 Log=10769 Err=0
id=947338 time=26.05.2020 16:04:27 Vmax=0 Vmin=0 Vmid=0 Napr=239 uakb=13.78 usb=14.04 temp=30.47 hum=35.18 prs=992.99 Log=10768 Err=0
id=947337 time=26.05.2020 16:01:43 Vmax=0 Vmin=0 Vmid=0 Napr=243 uakb=13.8 usb=14.04 temp=30.62 hum=35.45 prs=993.11 Log=10766 Err=0
id=947336 time=26.05.2020 16:00:30 Vmax=0 Vmin=0 Vmid=0 Napr=244 uakb=13.78 usb=14.02 temp=30.7 hum=35.67 prs=993.07 Log=10765 Err=0
id=947335 time=26.05.2020 15:59:11 Vmax=0 Vmin=0 Vmid=0 Napr=245 uakb=13.78 usb=14.04 temp=30.78 hum=36.03 prs=993.28 Log=10764 Err=0
id=947334 time=26.05.2020 15:57:55 Vmax=0 Vmin=0 Vmid=0 Napr=243 uakb=13.78 usb=14.02 temp=30.74 hum=36.33 prs=993.13 Log=10763 Err=0
id=947333 time=26.05.2020 15:55:06 Vmax=0 Vmin=0 Vmid=0 Napr=240 uakb=13.8 usb=14.04 temp=30.31 hum=37.38 prs=993.33 Log=10761 Err=0
id=947332 time=26.05.2020 15:53:53 Vmax=0 Vmin=0 Vmid=0 Napr=248 uakb=13.78 usb=14.04 temp=30.11 hum=37.78 prs=993.48 Log=10760 Err=0
id=947331 time=26.05.2020 15:52:41 Vmax=0 Vmin=0 Vmid=0 Napr=243 uakb=13.78 usb=14.04 temp=29.85 hum=38.2 prs=993.48 Log=10759 Err=0
id=947330 time=26.05.2020 15:51:28 Vmax=0 Vmin=0 Vmid=0 Napr=243 uakb=13.78 usb=14.04 temp=29.6 hum=38.68 prs=993.44 Log=10758 Err=0
id=947329 time=26.05.2020 15:50:14 Vmax=0 Vmin=0 Vmid=0 Napr=242 uakb=13.78 usb=14.02 temp=29.47 hum=38.95 prs=993.55 Log=10757 Err=0
id=947328 time=26.05.2020 15:49:02 Vmax=0 Vmin=0 Vmid=0 Napr=240 uakb=13.78 usb=14.04 temp=29.43 hum=39.03 prs=993.59 Log=10756 Err=0
id=947327 time=26.05.2020 15:47:49 Vmax=0 Vmin=0 Vmid=0 Napr=235 uakb=13.78 usb=14.04 temp=29.43 hum=39.05 prs=993.64 Log=10755 Err=0
id=947326 time=26.05.2020 15:46:36 Vmax=0 Vmin=0 Vmid=0 Napr=237 uakb=13.78 usb=14.04 temp=29.41 hum=39.12 prs=993.64 Log=10754 Err=0
id=947325 time=26.05.2020 15:43:50 Vmax=0 Vmin=0 Vmid=0 Napr=233 uakb=13.78 usb=14.06 temp=29.39 hum=39.26 prs=993.71 Log=10752 Err=0
id=947324 time=26.05.2020 15:42:37 Vmax=0 Vmin=0 Vmid=0 Napr=230 uakb=13.78 usb=14.04 temp=29.41 hum=39.21 prs=993.75 Log=10751 Err=0
id=947323 time=26.05.2020 15:41:23 Vmax=0 Vmin=0 Vmid=0 Napr=233 uakb=13.78 usb=14.04 temp=29.51 hum=39.22 prs=993.73 Log=10750 Err=0
id=947322 time=26.05.2020 15:40:11 Vmax=0 Vmin=0 Vmid=0 Napr=232 uakb=13.78 usb=14.06 temp=29.61 hum=39.24 prs=993.74 Log=10749 Err=0
id=947321 time=26.05.2020 15:38:58 Vmax=0 Vmin=0 Vmid=0 Napr=232 uakb=13.78 usb=14.04 temp=29.65 hum=39.24 prs=993.78 Log=10748 Err=0
id=947320 time=26.05.2020 15:37:45 Vmax=0 Vmin=0 Vmid=0 Napr=242 uakb=13.76 usb=14.04 temp=29.62 hum=39.3 prs=993.8 Log=10747 Err=0
id=947319 time=26.05.2020 15:36:33 Vmax=0 Vmin=0 Vmid=0 Napr=240 uakb=13.78 usb=14.06 temp=29.64 hum=39.42 prs=993.86 Log=10746 Err=0
id=947318 time=26.05.2020 15:35:20 Vmax=0 Vmin=0 Vmid=0 Napr=236 uakb=13.78 usb=14.04 temp=29.62 hum=39.63 prs=993.89 Log=10745 Err=0
id=947317 time=26.05.2020 15:34:06 Vmax=0 Vmin=0 Vmid=0 Napr=233 uakb=13.78 usb=14.04 temp=29.54 hum=39.85 prs=993.9 Log=10744 Err=0
id=947316 time=26.05.2020 15:32:54 Vmax=0 Vmin=0 Vmid=0 Napr=230 uakb=13.78 usb=14.04 temp=29.42 hum=40.03 prs=993.94 Log=10743 Err=0
id=947315 time=26.05.2020 15:31:41 Vmax=0 Vmin=0 Vmid=0 Napr=224 uakb=13.78 usb=14.06 temp=29.36 hum=40.26 prs=993.93 Log=10742 Err=0
id=947314 time=26.05.2020 15:30:28 Vmax=0 Vmin=0 Vmid=0 Napr=217 uakb=13.78 usb=14.04 temp=29.39 hum=40.33 prs=993.94 Log=10741 Err=0
id=947313 time=26.05.2020 15:29:14 Vmax=0 Vmin=0 Vmid=0 Napr=217 uakb=13.78 usb=14.04 temp=29.48 hum=40.19 prs=994.01 Log=10740 Err=0
id=947312 time=26.05.2020 15:28:03 Vmax=0 Vmin=0 Vmid=0 Napr=221 uakb=13.8 usb=14.04 temp=29.56 hum=40 prs=994.08 Log=10739 Err=0
id=947311 time=26.05.2020 15:26:49 Vmax=0 Vmin=0 Vmid=0 Napr=224 uakb=13.78 usb=14.04 temp=29.63 hum=39.89 prs=994.1 Log=10738 Err=0
id=947310 time=26.05.2020 15:25:36 Vmax=0 Vmin=0 Vmid=0 Napr=227 uakb=13.78 usb=14.04 temp=29.74 hum=39.83 prs=994.1 Log=10737 Err=0
id=947309 time=26.05.2020 15:24:24 Vmax=0 Vmin=0 Vmid=0 Napr=226 uakb=13.8 usb=14.02 temp=29.83 hum=39.88 prs=994.06 Log=10736 Err=0
id=947308 time=26.05.2020 15:23:10 Vmax=0 Vmin=0 Vmid=0 Napr=225 uakb=13.78 usb=14.04 temp=29.84 hum=40.01 prs=994.14 Log=10735 Err=0
id=947307 time=26.05.2020 15:21:57 Vmax=0 Vmin=0 Vmid=0 Napr=231 uakb=13.78 usb=14.06 temp=29.76 hum=40.23 prs=994.12 Log=10734 Err=0
id=947306 time=26.05.2020 15:20:44 Vmax=0 Vmin=0 Vmid=0 Napr=225 uakb=13.78 usb=14.06 temp=29.68 hum=40.32 prs=994.21 Log=10733 Err=0
id=947305 time=26.05.2020 15:19:31 Vmax=0 Vmin=0 Vmid=0 Napr=221 uakb=13.78 usb=14.04 temp=29.62 hum=40.49 prs=994.21 Log=10732 Err=0
id=947304 time=26.05.2020 15:18:18 Vmax=0 Vmin=0 Vmid=0 Napr=226 uakb=13.78 usb=14.04 temp=29.58 hum=40.74 prs=994.27 Log=10731 Err=0
id=947303 time=26.05.2020 15:17:06 Vmax=0 Vmin=0 Vmid=0 Napr=229 uakb=13.78 usb=14.06 temp=29.59 hum=40.97 prs=994.36 Log=10730 Err=0
id=947302 time=26.05.2020 15:15:53 Vmax=0 Vmin=0 Vmid=0 Napr=226 uakb=13.8 usb=14.04 temp=29.63 hum=41.03 prs=994.45 Log=10729 Err=0
id=947301 time=26.05.2020 15:14:39 Vmax=0 Vmin=0 Vmid=0 Napr=229 uakb=13.76 usb=14.04 temp=29.62 hum=41.19 prs=994.47 Log=10728 Err=0
id=947300 time=26.05.2020 15:13:27 Vmax=0 Vmin=0 Vmid=0 Napr=231 uakb=13.78 usb=14.04 temp=29.56 hum=41.45 prs=994.47 Log=10727 Err=0
id=947299 time=26.05.2020 15:12:14 Vmax=0 Vmin=0 Vmid=0 Napr=227 uakb=13.78 usb=14.04 temp=29.47 hum=41.66 prs=994.61 Log=10726 Err=0
id=947298 time=26.05.2020 15:11:01 Vmax=0 Vmin=0 Vmid=0 Napr=229 uakb=13.78 usb=14.04 temp=29.31 hum=41.98 prs=994.6 Log=10725 Err=0
id=947297 time=26.05.2020 15:09:48 Vmax=0 Vmin=0 Vmid=0 Napr=226 uakb=13.78 usb=14.04 temp=29.15 hum=42.4 prs=994.56 Log=10724 Err=0
id=947296 time=26.05.2020 15:08:36 Vmax=0 Vmin=0 Vmid=0 Napr=223 uakb=13.78 usb=14.06 temp=29.08 hum=42.7 prs=994.65 Log=10723 Err=0
id=947295 time=26.05.2020 15:07:22 Vmax=0 Vmin=0 Vmid=0 Napr=226 uakb=13.8 usb=14.06 temp=29.04 hum=42.96 prs=994.73 Log=10722 Err=0
id=947294 time=26.05.2020 15:06:11 Vmax=0 Vmin=0 Vmid=0 Napr=224 uakb=13.76 usb=14.04 temp=29.05 hum=43.15 prs=994.76 Log=10721 Err=0
id=947293 time=26.05.2020 15:04:58 Vmax=0 Vmin=0 Vmid=0 Napr=221 uakb=13.78 usb=14.04 temp=29.08 hum=43.39 prs=994.82 Log=10720 Err=0
id=947292 time=26.05.2020 15:03:46 Vmax=0 Vmin=0 Vmid=0 Napr=223 uakb=13.8 usb=14.04 temp=29.08 hum=43.5 prs=994.87 Log=10719 Err=0
id=947291 time=26.05.2020 15:02:30 Vmax=0 Vmin=0 Vmid=0 Napr=228 uakb=13.8 usb=14.04 temp=29.03 hum=43.6 prs=994.86 Log=10718 Err=0
id=947290 time=26.05.2020 15:01:17 Vmax=0 Vmin=0 Vmid=0 Napr=231 uakb=13.8 usb=14.04 temp=28.91 hum=43.77 prs=994.88 Log=10717 Err=0
id=947289 time=26.05.2020 15:00:05 Vmax=0 Vmin=0 Vmid=0 Napr=230 uakb=13.78 usb=14.04 temp=28.81 hum=44.04 prs=994.92 Log=10716 Err=0
id=947288 time=26.05.2020 14:58:52 Vmax=0 Vmin=0 Vmid=0 Napr=225 uakb=13.78 usb=14.06 temp=28.73 hum=44.23 prs=995.07 Log=10715 Err=0
id=947287 time=26.05.2020 14:57:40 Vmax=0 Vmin=0 Vmid=0 Napr=222 uakb=13.76 usb=14.04 temp=28.64 hum=44.42 prs=994.96 Log=10714 Err=0
id=947286 time=26.05.2020 14:56:27 Vmax=0 Vmin=0 Vmid=0 Napr=219 uakb=13.8 usb=14.02 temp=28.6 hum=44.56 prs=994.96 Log=10713 Err=0
id=947285 time=26.05.2020 14:55:13 Vmax=0 Vmin=0 Vmid=0 Napr=216 uakb=13.78 usb=14.04 temp=28.61 hum=44.64 prs=995.01 Log=10712 Err=0
id=947284 time=26.05.2020 14:52:28 Vmax=0 Vmin=0 Vmid=0 Napr=217 uakb=13.78 usb=14.04 temp=28.79 hum=44.69 prs=995.06 Log=10710 Err=0
id=947283 time=26.05.2020 14:51:15 Vmax=0 Vmin=0 Vmid=0 Napr=220 uakb=13.78 usb=14.06 temp=28.81 hum=44.69 prs=995.18 Log=10709 Err=0
id=947282 time=26.05.2020 14:50:03 Vmax=0 Vmin=0 Vmid=0 Napr=220 uakb=13.78 usb=14.04 temp=28.81 hum=44.75 prs=995.16 Log=10708 Err=0
id=947281 time=26.05.2020 14:48:50 Vmax=0 Vmin=0 Vmid=0 Napr=220 uakb=13.78 usb=14.04 temp=28.78 hum=44.88 prs=995.17 Log=10707 Err=0
id=947280 time=26.05.2020 14:47:37 Vmax=0 Vmin=0 Vmid=0 Napr=219 uakb=13.78 usb=14.04 temp=28.74 hum=45.1 prs=995.21 Log=10706 Err=0
id=947279 time=26.05.2020 14:46:16 Vmax=0 Vmin=0 Vmid=0 Napr=216 uakb=13.78 usb=14.04 temp=28.7 hum=45.32 prs=995.16 Log=10705 Err=0
id=947278 time=26.05.2020 14:44:59 Vmax=0 Vmin=0 Vmid=0 Napr=219 uakb=13.8 usb=14.02 temp=28.65 hum=45.51 prs=995.21 Log=10704 Err=0
id=947277 time=26.05.2020 14:43:47 Vmax=0 Vmin=0 Vmid=0 Napr=220 uakb=13.78 usb=14.04 temp=28.59 hum=45.74 prs=995.26 Log=10703 Err=0
id=947276 time=26.05.2020 14:42:34 Vmax=0 Vmin=0 Vmid=0 Napr=221 uakb=13.78 usb=14.04 temp=28.54 hum=46.03 prs=995.28 Log=10702 Err=0
id=947275 time=26.05.2020 14:41:21 Vmax=0 Vmin=0 Vmid=0 Napr=221 uakb=13.78 usb=14.04 temp=28.55 hum=46.17 prs=995.43 Log=10701 Err=0
id=947274 time=26.05.2020 14:40:08 Vmax=0 Vmin=0 Vmid=0 Napr=222 uakb=13.78 usb=14.06 temp=28.57 hum=46.28 prs=995.49 Log=10700 Err=0
id=947273 time=26.05.2020 14:38:55 Vmax=0 Vmin=0 Vmid=0 Napr=222 uakb=13.78 usb=14.04 temp=28.58 hum=46.47 prs=995.46 Log=10699 Err=0
id=947272 time=26.05.2020 14:37:42 Vmax=0 Vmin=0 Vmid=0 Napr=220 uakb=13.78 usb=14.04 temp=28.55 hum=46.78 prs=995.49 Log=10698 Err=0
id=947271 time=26.05.2020 14:36:30 Vmax=0 Vmin=0 Vmid=0 Napr=222 uakb=13.8 usb=14.04 temp=28.48 hum=47.16 prs=995.54 Log=10697 Err=0
id=947270 time=26.05.2020 14:35:16 Vmax=0 Vmin=0 Vmid=0 Napr=221 uakb=13.78 usb=14.04 temp=28.42 hum=47.59 prs=995.57 Log=10696 Err=0
id=947269 time=26.05.2020 14:34:04 Vmax=0 Vmin=0 Vmid=0 Napr=216 uakb=13.78 usb=14.04 temp=28.38 hum=47.9 prs=995.58 Log=10695 Err=0
id=947268 time=26.05.2020 14:32:53 Vmax=0 Vmin=0 Vmid=0 Napr=219 uakb=13.8 usb=14.04 temp=28.35 hum=48.14 prs=995.64 Log=10694 Err=0
id=947267 time=26.05.2020 14:31:38 Vmax=0 Vmin=0 Vmid=0 Napr=221 uakb=13.78 usb=14.04 temp=28.26 hum=48.53 prs=995.65 Log=10693 Err=0
id=947266 time=26.05.2020 14:30:24 Vmax=0 Vmin=0 Vmid=0 Napr=217 uakb=13.78 usb=14.04 temp=28.19 hum=48.89 prs=995.65 Log=10692 Err=0
id=947265 time=26.05.2020 14:29:14 Vmax=0 Vmin=0 Vmid=0 Napr=216 uakb=13.78 usb=14.04 temp=28.17 hum=49.15 prs=995.7 Log=10691 Err=0
id=947264 time=26.05.2020 14:27:59 Vmax=0 Vmin=0 Vmid=0 Napr=219 uakb=13.78 usb=14.04 temp=28.17 hum=49.41 prs=995.76 Log=10690 Err=0
id=947263 time=26.05.2020 14:26:47 Vmax=0 Vmin=0 Vmid=0 Napr=220 uakb=13.78 usb=14.04 temp=28.2 hum=49.66 prs=995.76 Log=10689 Err=0
id=947262 time=26.05.2020 14:25:33 Vmax=17 Vmin=0 Vmid=8.6 Napr=223 uakb=13.78 usb=14.04 temp=28.25 hum=50 prs=995.86 Log=10688 Err=0
id=947261 time=26.05.2020 14:24:21 Vmax=18.7 Vmin=15 Vmid=16.4 Napr=224 uakb=13.78 usb=14.04 temp=28.29 hum=50.36 prs=995.91 Log=10687 Err=0
id=947260 time=26.05.2020 14:23:08 Vmax=18.4 Vmin=15.2 Vmid=16.3 Napr=227 uakb=13.8 usb=14.02 temp=28.26 hum=50.68 prs=995.96 Log=10686 Err=0
id=947259 time=26.05.2020 14:21:55 Vmax=21 Vmin=17.5 Vmid=18.5 Napr=231 uakb=13.78 usb=14.04 temp=28.13 hum=51.22 prs=996.02 Log=10685 Err=0
id=947258 time=26.05.2020 14:20:42 Vmax=22.1 Vmin=20.8 Vmid=21.2 Napr=234 uakb=13.8 usb=14.02 temp=27.96 hum=51.75 prs=996.01 Log=10684 Err=0
id=947257 time=26.05.2020 14:19:29 Vmax=19.9 Vmin=14.9 Vmid=17 Napr=231 uakb=13.78 usb=14.04 temp=27.84 hum=52.28 prs=996.1 Log=10683 Err=0
id=947256 time=26.05.2020 14:18:18 Vmax=21.3 Vmin=14.3 Vmid=18.8 Napr=226 uakb=13.78 usb=14.04 temp=27.75 hum=52.73 prs=996.1 Log=10682 Err=0
id=947255 time=26.05.2020 14:17:05 Vmax=15.9 Vmin=12.9 Vmid=14.8 Napr=226 uakb=13.78 usb=14.04 temp=27.69 hum=53.13 prs=996.17 Log=10681 Err=0
id=947254 time=26.05.2020 14:15:51 Vmax=16.2 Vmin=12.4 Vmid=13.9 Napr=221 uakb=13.78 usb=14.04 temp=27.64 hum=53.46 prs=996.19 Log=10680 Err=0
id=947253 time=26.05.2020 14:14:39 Vmax=14.8 Vmin=12.2 Vmid=13.8 Napr=218 uakb=13.78 usb=14.04 temp=27.59 hum=53.92 prs=996.29 Log=10679 Err=0
id=947252 time=26.05.2020 14:13:25 Vmax=16.4 Vmin=14 Vmid=15.2 Napr=213 uakb=13.78 usb=14.04 temp=27.54 hum=54.36 prs=996.27 Log=10678 Err=0
id=947251 time=26.05.2020 14:12:12 Vmax=15.6 Vmin=11.4 Vmid=12.9 Napr=209 uakb=13.78 usb=14.04 temp=27.5 hum=54.61 prs=996.32 Log=10677 Err=0
id=947250 time=26.05.2020 14:11:01 Vmax=11.4 Vmin=10 Vmid=10.8 Napr=207 uakb=13.8 usb=14.04 temp=27.45 hum=54.69 prs=996.42 Log=10676 Err=0
id=947249 time=26.05.2020 14:08:15 Vmax=17.1 Vmin=13.3 Vmid=15.3 Napr=210 uakb=13.78 usb=14.04 temp=27.36 hum=55.1 prs=996.38 Log=10674 Err=0
id=947248 time=26.05.2020 14:07:02 Vmax=16.1 Vmin=12.2 Vmid=13.6 Napr=212 uakb=13.78 usb=14.04 temp=27.34 hum=55.37 prs=996.38 Log=10673 Err=0
id=947247 time=26.05.2020 14:05:48 Vmax=12.8 Vmin=11.7 Vmid=12.1 Napr=206 uakb=13.8 usb=14.04 temp=27.29 hum=55.56 prs=996.47 Log=10672 Err=0
id=947246 time=26.05.2020 14:04:35 Vmax=12 Vmin=11.1 Vmid=11.4 Napr=203 uakb=13.78 usb=14.04 temp=27.23 hum=55.69 prs=996.47 Log=10671 Err=0
id=947245 time=26.05.2020 14:03:22 Vmax=12.9 Vmin=10.7 Vmid=11.9 Napr=201 uakb=13.78 usb=14.04 temp=27.16 hum=55.82 prs=996.48 Log=10670 Err=0
id=947244 time=26.05.2020 14:02:10 Vmax=13.2 Vmin=12.1 Vmid=12.8 Napr=202 uakb=13.78 usb=14.04 temp=27.11 hum=55.92 prs=996.53 Log=10669 Err=0
id=947243 time=26.05.2020 14:00:57 Vmax=13.1 Vmin=11.9 Vmid=12.4 Napr=202 uakb=13.8 usb=14.04 temp=27.06 hum=56 prs=996.53 Log=10668 Err=0
id=947242 time=26.05.2020 13:59:43 Vmax=12.5 Vmin=11.4 Vmid=11.9 Napr=203 uakb=13.78 usb=14.04 temp=27.01 hum=56.06 prs=996.51 Log=10667 Err=0
id=947241 time=26.05.2020 13:58:31 Vmax=13.1 Vmin=11.4 Vmid=12 Napr=202 uakb=13.78 usb=14.04 temp=26.98 hum=56.09 prs=996.57 Log=10666 Err=0
id=947240 time=26.05.2020 13:57:19 Vmax=13.3 Vmin=12.1 Vmid=12.6 Napr=202 uakb=13.78 usb=14.04 temp=26.95 hum=56.11 prs=996.67 Log=10665 Err=0
id=947239 time=26.05.2020 13:56:05 Vmax=14 Vmin=12.1 Vmid=12.9 Napr=201 uakb=13.78 usb=14.04 temp=26.92 hum=56.15 prs=996.65 Log=10664 Err=0
id=947238 time=26.05.2020 13:54:53 Vmax=15.9 Vmin=13.5 Vmid=14.7 Napr=200 uakb=13.8 usb=14.04 temp=26.91 hum=56.21 prs=996.66 Log=10663 Err=0
id=947237 time=26.05.2020 13:52:07 Vmax=13.8 Vmin=11.8 Vmid=12.7 Napr=202 uakb=13.78 usb=14.06 temp=26.86 hum=56.27 prs=996.79 Log=10661 Err=0
id=947236 time=26.05.2020 13:50:53 Vmax=15.5 Vmin=12.4 Vmid=13.9 Napr=201 uakb=13.8 usb=14.04 temp=26.85 hum=56.3 prs=996.85 Log=10660 Err=0
id=947235 time=26.05.2020 13:49:41 Vmax=14.9 Vmin=13.1 Vmid=13.8 Napr=199 uakb=13.78 usb=14.04 temp=26.89 hum=56.33 prs=996.86 Log=10659 Err=0
id=947234 time=26.05.2020 13:48:29 Vmax=14.3 Vmin=12.9 Vmid=13.5 Napr=201 uakb=13.8 usb=14.04 temp=26.94 hum=56.39 prs=996.85 Log=10658 Err=0
id=947233 time=26.05.2020 13:47:16 Vmax=13.3 Vmin=11.7 Vmid=12.4 Napr=205 uakb=13.78 usb=14.04 temp=26.98 hum=56.46 prs=996.91 Log=10657 Err=0
id=947232 time=26.05.2020 13:46:02 Vmax=14.5 Vmin=12.5 Vmid=13.8 Napr=206 uakb=13.78 usb=14.02 temp=26.99 hum=56.56 prs=996.96 Log=10656 Err=0
id=947231 time=26.05.2020 13:44:51 Vmax=14.3 Vmin=12.4 Vmid=13.3 Napr=206 uakb=13.8 usb=14.04 temp=26.99 hum=56.65 prs=996.98 Log=10655 Err=0
id=947230 time=26.05.2020 13:43:37 Vmax=15.6 Vmin=13.5 Vmid=14.7 Napr=206 uakb=13.78 usb=14.04 temp=26.96 hum=56.75 prs=997.01 Log=10654 Err=0
id=947229 time=26.05.2020 13:42:24 Vmax=15.2 Vmin=13.5 Vmid=14.6 Napr=204 uakb=13.78 usb=14.04 temp=26.9 hum=56.82 prs=997.02 Log=10653 Err=0
id=947228 time=26.05.2020 13:41:12 Vmax=15.3 Vmin=12.8 Vmid=13.5 Napr=204 uakb=13.78 usb=14.04 temp=26.82 hum=56.89 prs=997.05 Log=10652 Err=0
id=947227 time=26.05.2020 13:40:00 Vmax=15.5 Vmin=12.5 Vmid=13.9 Napr=205 uakb=13.78 usb=14.04 temp=26.74 hum=57 prs=997.09 Log=10651 Err=0
id=947226 time=26.05.2020 13:38:46 Vmax=16.2 Vmin=14 Vmid=15.2 Napr=206 uakb=13.78 usb=14.04 temp=26.67 hum=57.05 prs=997.08 Log=10650 Err=0
id=947225 time=26.05.2020 13:37:33 Vmax=15.5 Vmin=12.6 Vmid=13.8 Napr=204 uakb=13.78 usb=14.04 temp=26.62 hum=57.05 prs=997.15 Log=10649 Err=0
id=947224 time=26.05.2020 13:36:21 Vmax=13.6 Vmin=10.6 Vmid=12 Napr=208 uakb=13.76 usb=14.04 temp=26.58 hum=57.05 prs=997.2 Log=10648 Err=0
id=947223 time=26.05.2020 13:35:08 Vmax=12.9 Vmin=9.4 Vmid=11.2 Napr=212 uakb=13.78 usb=14.04 temp=26.59 hum=57.1 prs=997.26 Log=10647 Err=0
id=947222 time=26.05.2020 13:33:55 Vmax=15.6 Vmin=11.9 Vmid=14 Napr=214 uakb=13.78 usb=14.04 temp=26.64 hum=57.2 prs=997.25 Log=10646 Err=0
id=947221 time=26.05.2020 13:32:41 Vmax=13.1 Vmin=11.7 Vmid=12.4 Napr=211 uakb=13.78 usb=14.04 temp=26.68 hum=57.26 prs=997.31 Log=10645 Err=0
id=947220 time=26.05.2020 13:31:29 Vmax=15.4 Vmin=12.8 Vmid=14.1 Napr=211 uakb=13.78 usb=14.04 temp=26.73 hum=57.36 prs=997.32 Log=10644 Err=0
id=947219 time=26.05.2020 13:28:44 Vmax=14.5 Vmin=9.8 Vmid=11.8 Napr=210 uakb=13.8 usb=14.04 temp=26.81 hum=57.52 prs=997.33 Log=10642 Err=0
id=947218 time=26.05.2020 13:27:31 Vmax=12 Vmin=9.4 Vmid=10.6 Napr=207 uakb=13.78 usb=14.04 temp=26.81 hum=57.63 prs=997.38 Log=10641 Err=0
id=947217 time=26.05.2020 13:26:18 Vmax=13.9 Vmin=11.4 Vmid=12.5 Napr=205 uakb=13.78 usb=14.04 temp=26.8 hum=57.68 prs=997.32 Log=10640 Err=0
id=947216 time=26.05.2020 13:25:05 Vmax=15.5 Vmin=12.2 Vmid=13.9 Napr=202 uakb=13.8 usb=14.02 temp=26.77 hum=57.8 prs=997.36 Log=10639 Err=0
id=947215 time=26.05.2020 13:23:52 Vmax=18.3 Vmin=14.7 Vmid=16.4 Napr=204 uakb=13.78 usb=14.04 temp=26.74 hum=57.97 prs=997.37 Log=10638 Err=0
id=947214 time=26.05.2020 13:22:39 Vmax=22.6 Vmin=14.9 Vmid=20.1 Napr=206 uakb=13.78 usb=14.04 temp=26.71 hum=58.17 prs=997.39 Log=10637 Err=0
id=947213 time=26.05.2020 13:21:26 Vmax=15.4 Vmin=13.8 Vmid=14.5 Napr=202 uakb=13.78 usb=14.04 temp=26.7 hum=58.27 prs=997.42 Log=10636 Err=0
id=947212 time=26.05.2020 13:20:13 Vmax=16.2 Vmin=14 Vmid=15 Napr=200 uakb=13.78 usb=14.04 temp=26.67 hum=58.39 prs=997.42 Log=10635 Err=0
id=947211 time=26.05.2020 13:19:01 Vmax=17 Vmin=15.2 Vmid=15.9 Napr=202 uakb=13.8 usb=14.04 temp=26.63 hum=58.48 prs=997.42 Log=10634 Err=0
id=947210 time=26.05.2020 13:17:48 Vmax=14.9 Vmin=13.8 Vmid=14.1 Napr=201 uakb=13.8 usb=14.04 temp=26.58 hum=58.56 prs=997.51 Log=10633 Err=0
id=947209 time=26.05.2020 13:15:01 Vmax=16.1 Vmin=14.3 Vmid=15 Napr=201 uakb=13.78 usb=14.04 temp=26.51 hum=58.66 prs=997.5 Log=10631 Err=0
id=947208 time=26.05.2020 13:13:49 Vmax=16.1 Vmin=14.5 Vmid=15 Napr=199 uakb=13.78 usb=14.04 temp=26.51 hum=58.71 prs=997.51 Log=10630 Err=0
id=947207 time=26.05.2020 13:12:37 Vmax=17.5 Vmin=14 Vmid=14.8 Napr=199 uakb=13.78 usb=14.02 temp=26.51 hum=58.76 prs=997.53 Log=10629 Err=0
id=947206 time=26.05.2020 13:06:46 Vmax=15.5 Vmin=13.5 Vmid=14.7 Napr=199 uakb=13.78 usb=14.04 temp=26.48 hum=59.03 prs=997.66 Log=10625 Err=0
id=947205 time=26.05.2020 13:05:32 Vmax=15.4 Vmin=13.1 Vmid=14.7 Napr=197 uakb=13.78 usb=14.04 temp=26.47 hum=59.07 prs=997.69 Log=10624 Err=0
id=947204 time=26.05.2020 13:04:20 Vmax=14.6 Vmin=12.8 Vmid=13.5 Napr=200 uakb=13.8 usb=14.04 temp=26.46 hum=59.09 prs=997.79 Log=10623 Err=0
id=947203 time=26.05.2020 13:03:06 Vmax=15 Vmin=13.4 Vmid=14.2 Napr=200 uakb=13.78 usb=14.04 temp=26.45 hum=59.13 prs=997.87 Log=10622 Err=0
id=947202 time=26.05.2020 13:01:53 Vmax=16.1 Vmin=13.8 Vmid=15 Napr=197 uakb=13.78 usb=14.04 temp=26.45 hum=59.14 prs=997.85 Log=10621 Err=0
id=947201 time=26.05.2020 12:59:08 Vmax=15.6 Vmin=14.6 Vmid=15.2 Napr=197 uakb=13.78 usb=14.04 temp=26.48 hum=59.17 prs=997.87 Log=10619 Err=0
id=947200 time=26.05.2020 12:57:56 Vmax=15.6 Vmin=14.7 Vmid=15.2 Napr=196 uakb=13.8 usb=14.02 temp=26.5 hum=59.18 prs=997.96 Log=10618 Err=0
id=947199 time=26.05.2020 12:56:42 Vmax=16.2 Vmin=13.1 Vmid=15.2 Napr=196 uakb=13.78 usb=14.04 temp=26.53 hum=59.2 prs=998 Log=10617 Err=0
id=947198 time=26.05.2020 12:55:30 Vmax=15.9 Vmin=13.3 Vmid=14.6 Napr=197 uakb=13.8 usb=14.02 temp=26.56 hum=59.23 prs=998.03 Log=10616 Err=0
id=947197 time=26.05.2020 12:54:17 Vmax=15.2 Vmin=14.1 Vmid=14.7 Napr=199 uakb=13.8 usb=14.04 temp=26.57 hum=59.27 prs=998.07 Log=10615 Err=0
id=947196 time=26.05.2020 12:53:05 Vmax=16.3 Vmin=14.7 Vmid=15.2 Napr=199 uakb=13.78 usb=14.04 temp=26.6 hum=59.32 prs=998.07 Log=10614 Err=0
id=947195 time=26.05.2020 12:51:51 Vmax=16 Vmin=14.1 Vmid=15.4 Napr=200 uakb=13.78 usb=14.04 temp=26.6 hum=59.37 prs=998.12 Log=10613 Err=0
id=947194 time=26.05.2020 12:50:39 Vmax=15.6 Vmin=14.7 Vmid=15 Napr=199 uakb=13.78 usb=14.04 temp=26.59 hum=59.42 prs=998.11 Log=10612 Err=0
id=947193 time=26.05.2020 12:49:25 Vmax=15.7 Vmin=14.2 Vmid=14.9 Napr=202 uakb=13.78 usb=14.04 temp=26.59 hum=59.49 prs=998.19 Log=10611 Err=0
id=947192 time=26.05.2020 12:48:13 Vmax=16.1 Vmin=14.6 Vmid=15.5 Napr=204 uakb=13.78 usb=14.04 temp=26.58 hum=59.57 prs=998.19 Log=10610 Err=0
id=947191 time=26.05.2020 12:47:00 Vmax=17 Vmin=14.9 Vmid=16.1 Napr=202 uakb=13.8 usb=14.04 temp=26.56 hum=59.62 prs=998.25 Log=10609 Err=0
id=947190 time=26.05.2020 12:45:47 Vmax=16.8 Vmin=14.9 Vmid=15.5 Napr=201 uakb=13.8 usb=14.02 temp=26.54 hum=59.7 prs=998.28 Log=10608 Err=0
id=947189 time=26.05.2020 12:44:35 Vmax=17.7 Vmin=15.3 Vmid=16.3 Napr=202 uakb=13.78 usb=14.04 temp=26.54 hum=59.78 prs=998.28 Log=10607 Err=0
id=947188 time=26.05.2020 12:43:22 Vmax=17.7 Vmin=15.9 Vmid=16.9 Napr=203 uakb=13.78 usb=14.04 temp=26.53 hum=59.88 prs=998.31 Log=10606 Err=0
id=947187 time=26.05.2020 12:40:36 Vmax=18.3 Vmin=15.5 Vmid=17 Napr=203 uakb=13.8 usb=14.02 temp=26.52 hum=60.13 prs=998.42 Log=10604 Err=0
id=947186 time=26.05.2020 12:39:23 Vmax=16.9 Vmin=15 Vmid=16.1 Napr=204 uakb=13.78 usb=14.02 temp=26.52 hum=60.25 prs=998.45 Log=10603 Err=0
id=947185 time=26.05.2020 12:38:10 Vmax=17.1 Vmin=14.8 Vmid=16.1 Napr=202 uakb=13.78 usb=14.04 temp=26.52 hum=60.32 prs=998.5 Log=10602 Err=0
id=947184 time=26.05.2020 12:35:24 Vmax=16.3 Vmin=14.5 Vmid=15.3 Napr=201 uakb=13.78 usb=14.04 temp=26.5 hum=60.53 prs=998.47 Log=10600 Err=0
id=947183 time=26.05.2020 12:34:13 Vmax=16.9 Vmin=13.3 Vmid=15.5 Napr=203 uakb=13.8 usb=14.04 temp=26.48 hum=60.6 prs=998.5 Log=10599 Err=0
id=947182 time=26.05.2020 12:33:00 Vmax=16.1 Vmin=14.8 Vmid=15.4 Napr=202 uakb=13.78 usb=14.04 temp=26.47 hum=60.67 prs=998.5 Log=10598 Err=0
id=947181 time=26.05.2020 12:31:47 Vmax=16.3 Vmin=14.7 Vmid=15.4 Napr=202 uakb=13.8 usb=14.04 temp=26.46 hum=60.74 prs=998.5 Log=10597 Err=0
id=947180 time=26.05.2020 12:30:34 Vmax=15.9 Vmin=14.3 Vmid=14.9 Napr=202 uakb=13.78 usb=14.04 temp=26.48 hum=60.8 prs=998.51 Log=10596 Err=0
id=947179 time=26.05.2020 12:29:20 Vmax=16.3 Vmin=14.3 Vmid=15 Napr=201 uakb=13.8 usb=14.04 temp=26.51 hum=60.85 prs=998.54 Log=10595 Err=0
id=947178 time=26.05.2020 12:28:07 Vmax=15.7 Vmin=13.2 Vmid=14.1 Napr=199 uakb=13.78 usb=14.04 temp=26.55 hum=60.91 prs=998.61 Log=10594 Err=0
id=947177 time=26.05.2020 12:26:55 Vmax=15.9 Vmin=0 Vmid=9.3 Napr=200 uakb=13.78 usb=14.04 temp=26.57 hum=60.98 prs=998.62 Log=10593 Err=0
id=947176 time=26.05.2020 12:25:42 Vmax=0 Vmin=0 Vmid=0 Napr=199 uakb=13.78 usb=14.04 temp=26.59 hum=61.05 prs=998.67 Log=10592 Err=0
id=947175 time=26.05.2020 12:24:30 Vmax=0 Vmin=0 Vmid=0 Napr=199 uakb=13.78 usb=14.04 temp=26.62 hum=61.12 prs=998.72 Log=10591 Err=0
id=947174 time=26.05.2020 12:21:43 Vmax=0 Vmin=0 Vmid=0 Napr=200 uakb=13.8 usb=14.02 temp=26.65 hum=61.3 prs=998.74 Log=10589 Err=0
id=947173 time=26.05.2020 12:20:31 Vmax=0 Vmin=0 Vmid=0 Napr=199 uakb=13.78 usb=14.02 temp=26.68 hum=61.34 prs=998.8 Log=10588 Err=0
id=947172 time=26.05.2020 12:19:18 Vmax=0 Vmin=0 Vmid=0 Napr=200 uakb=13.78 usb=14.04 temp=26.71 hum=61.42 prs=998.83 Log=10587 Err=0
id=947171 time=26.05.2020 12:18:05 Vmax=0 Vmin=0 Vmid=0 Napr=200 uakb=13.78 usb=14.04 temp=26.78 hum=61.47 prs=998.84 Log=10586 Err=0
id=947170 time=26.05.2020 12:15:20 Vmax=0 Vmin=0 Vmid=0 Napr=198 uakb=13.78 usb=14.04 temp=27.02 hum=61.73 prs=998.89 Log=10584 Err=0
id=947169 time=26.05.2020 12:14:06 Vmax=0 Vmin=0 Vmid=0 Napr=199 uakb=13.78 usb=14.04 temp=27.14 hum=61.87 prs=998.97 Log=10583 Err=0
id=947168 time=26.05.2020 12:11:20 Vmax=13.5 Vmin=11.3 Vmid=12.2 Napr=203 uakb=13.78 usb=14.04 temp=27.38 hum=62.28 prs=999.14 Log=10581 Err=0
id=947167 time=26.05.2020 12:10:11 Vmax=12.8 Vmin=11.8 Vmid=12.4 Napr=207 uakb=13.78 usb=14.04 temp=27.43 hum=62.49 prs=999.22 Log=10580 Err=0
id=947166 time=26.05.2020 12:08:56 Vmax=13.4 Vmin=10.7 Vmid=12.1 Napr=205 uakb=13.78 usb=14.04 temp=27.48 hum=62.66 prs=999.27 Log=10579 Err=0
id=947165 time=26.05.2020 12:06:08 Vmax=9.2 Vmin=7.6 Vmid=8.3 Napr=207 uakb=13.78 usb=14.04 temp=27.58 hum=63.02 prs=999.37 Log=10577 Err=0
id=947164 time=26.05.2020 12:04:56 Vmax=9.6 Vmin=6.5 Vmid=7.7 Napr=206 uakb=13.8 usb=14.04 temp=27.59 hum=63.13 prs=999.41 Log=10576 Err=0
id=947163 time=26.05.2020 12:03:43 Vmax=7.8 Vmin=6.8 Vmid=7.5 Napr=203 uakb=13.76 usb=14.04 temp=27.58 hum=63.24 prs=999.43 Log=10575 Err=0
id=947162 time=26.05.2020 12:00:58 Vmax=7.2 Vmin=5.4 Vmid=6.3 Napr=201 uakb=13.78 usb=14.04 temp=27.54 hum=63.47 prs=999.43 Log=10573 Err=0
id=947161 time=26.05.2020 11:59:45 Vmax=7.2 Vmin=5.1 Vmid=6.2 Napr=201 uakb=13.78 usb=14.04 temp=27.53 hum=63.56 prs=999.41 Log=10572 Err=0
id=947160 time=26.05.2020 11:58:32 Vmax=6.6 Vmin=5.4 Vmid=5.8 Napr=197 uakb=13.78 usb=14.02 temp=27.5 hum=63.64 prs=999.39 Log=10571 Err=0
id=947159 time=26.05.2020 11:57:19 Vmax=5.9 Vmin=4.8 Vmid=5.2 Napr=195 uakb=13.78 usb=14.04 temp=27.44 hum=63.72 prs=999.46 Log=10570 Err=0
id=947158 time=26.05.2020 11:56:07 Vmax=6.1 Vmin=4.6 Vmid=5 Napr=195 uakb=13.78 usb=14.04 temp=27.36 hum=63.78 prs=999.48 Log=10569 Err=0
id=947157 time=26.05.2020 11:54:53 Vmax=5 Vmin=4.3 Vmid=4.7 Napr=191 uakb=13.78 usb=14.04 temp=27.27 hum=63.83 prs=999.52 Log=10568 Err=0
id=947156 time=26.05.2020 11:53:41 Vmax=5.1 Vmin=4 Vmid=4.8 Napr=189 uakb=13.78 usb=14.04 temp=27.18 hum=63.88 prs=999.58 Log=10567 Err=0
id=947155 time=26.05.2020 11:52:28 Vmax=5.1 Vmin=4 Vmid=4.4 Napr=182 uakb=13.78 usb=14.02 temp=27.09 hum=63.95 prs=999.57 Log=10566 Err=0
id=947154 time=26.05.2020 11:51:16 Vmax=5.8 Vmin=4.1 Vmid=4.9 Napr=180 uakb=13.78 usb=14.04 temp=27 hum=64.04 prs=999.5 Log=10565 Err=0
id=947153 time=26.05.2020 11:50:04 Vmax=5.2 Vmin=4.1 Vmid=4.7 Napr=173 uakb=13.78 usb=14.04 temp=26.92 hum=64.11 prs=999.57 Log=10564 Err=0
id=947152 time=26.05.2020 11:48:51 Vmax=6.4 Vmin=5.5 Vmid=5.7 Napr=166 uakb=13.76 usb=14.04 temp=26.85 hum=64.19 prs=999.6 Log=10563 Err=0
id=947151 time=26.05.2020 11:47:37 Vmax=5.7 Vmin=4.8 Vmid=5.2 Napr=163 uakb=13.78 usb=14.02 temp=26.77 hum=64.25 prs=999.56 Log=10562 Err=0
id=947150 time=26.05.2020 11:46:24 Vmax=6.2 Vmin=4.4 Vmid=5 Napr=159 uakb=13.78 usb=14.04 temp=26.7 hum=64.3 prs=999.6 Log=10561 Err=0
id=947149 time=26.05.2020 11:45:12 Vmax=5.9 Vmin=4.8 Vmid=5.2 Napr=160 uakb=13.78 usb=14.04 temp=26.65 hum=64.32 prs=999.58 Log=10560 Err=0
id=947148 time=26.05.2020 11:43:59 Vmax=4.8 Vmin=4 Vmid=4.3 Napr=161 uakb=13.78 usb=14.04 temp=26.58 hum=64.36 prs=999.71 Log=10559 Err=0
id=947147 time=26.05.2020 11:42:46 Vmax=4.7 Vmin=4.1 Vmid=4.3 Napr=161 uakb=13.78 usb=14.04 temp=26.51 hum=64.39 prs=999.74 Log=10558 Err=0
id=947146 time=26.05.2020 11:40:00 Vmax=5.2 Vmin=4.6 Vmid=4.9 Napr=162 uakb=13.78 usb=14.04 temp=26.5 hum=64.4 prs=999.81 Log=10556 Err=0
id=947145 time=26.05.2020 11:38:37 Vmax=6.2 Vmin=5.6 Vmid=5.7 Napr=165 uakb=13.78 usb=14.02 temp=26.55 hum=64.44 prs=999.85 Log=10555 Err=0
id=947144 time=26.05.2020 11:37:24 Vmax=6.5 Vmin=5.5 Vmid=5.8 Napr=166 uakb=13.78 usb=14.04 temp=26.6 hum=64.51 prs=999.89 Log=10554 Err=0
id=947143 time=26.05.2020 11:36:12 Vmax=6.6 Vmin=5.6 Vmid=5.9 Napr=167 uakb=13.78 usb=14.04 temp=26.66 hum=64.55 prs=999.89 Log=10553 Err=0
id=947142 time=26.05.2020 11:34:59 Vmax=6.6 Vmin=6.2 Vmid=6.3 Napr=167 uakb=13.78 usb=14.02 temp=26.74 hum=64.65 prs=999.96 Log=10552 Err=0
id=947141 time=26.05.2020 11:33:47 Vmax=6.9 Vmin=5.4 Vmid=5.9 Napr=167 uakb=13.78 usb=14.04 temp=26.79 hum=64.72 prs=999.99 Log=10551 Err=0
id=947140 time=26.05.2020 11:32:33 Vmax=6.8 Vmin=5.4 Vmid=5.8 Napr=167 uakb=13.78 usb=14.04 temp=26.85 hum=64.83 prs=999.99 Log=10550 Err=0
id=947139 time=26.05.2020 11:29:47 Vmax=5.8 Vmin=5.6 Vmid=5.7 Napr=163 uakb=13.78 usb=14.02 temp=26.89 hum=65.07 prs=1000.08 Log=10548 Err=0
id=947138 time=26.05.2020 11:28:35 Vmax=6.1 Vmin=5.8 Vmid=5.9 Napr=163 uakb=13.78 usb=14.04 temp=26.87 hum=65.18 prs=1000.05 Log=10547 Err=0
id=947137 time=26.05.2020 11:25:49 Vmax=6.9 Vmin=5.6 Vmid=6.1 Napr=161 uakb=13.78 usb=14.02 temp=26.83 hum=65.35 prs=1000.08 Log=10545 Err=0
id=947136 time=26.05.2020 11:24:37 Vmax=5.9 Vmin=5.4 Vmid=5.6 Napr=162 uakb=13.78 usb=14.04 temp=26.88 hum=65.44 prs=1000.16 Log=10544 Err=0
id=947135 time=26.05.2020 11:23:23 Vmax=6.1 Vmin=5.2 Vmid=5.7 Napr=162 uakb=13.78 usb=14.02 temp=26.97 hum=65.57 prs=1000.17 Log=10543 Err=0
id=947134 time=26.05.2020 11:22:11 Vmax=5.8 Vmin=5.4 Vmid=5.6 Napr=164 uakb=13.78 usb=14.04 temp=27.06 hum=65.67 prs=1000.14 Log=10542 Err=0
id=947133 time=26.05.2020 11:20:58 Vmax=6.2 Vmin=5.1 Vmid=5.7 Napr=171 uakb=13.78 usb=14.04 temp=27.13 hum=65.79 prs=1000.16 Log=10541 Err=0
id=947132 time=26.05.2020 11:19:45 Vmax=5.2 Vmin=4.8 Vmid=4.9 Napr=185 uakb=13.78 usb=14.04 temp=27.17 hum=65.91 prs=1000.21 Log=10540 Err=0
id=947131 time=26.05.2020 11:18:34 Vmax=4.7 Vmin=4.2 Vmid=4.4 Napr=201 uakb=13.78 usb=14.04 temp=27.15 hum=66.03 prs=1000.28 Log=10539 Err=0
id=947130 time=26.05.2020 11:17:21 Vmax=4.2 Vmin=4.1 Vmid=4.1 Napr=203 uakb=13.78 usb=14.04 temp=27.11 hum=66.13 prs=1000.4 Log=10538 Err=0
id=947129 time=26.05.2020 11:14:34 Vmax=3.3 Vmin=3 Vmid=3.2 Napr=204 uakb=13.78 usb=14.04 temp=26.98 hum=66.34 prs=1000.46 Log=10536 Err=0
id=947128 time=26.05.2020 11:10:13 Vmax=4.3 Vmin=3.4 Vmid=3.6 Napr=204 uakb=13.78 usb=14.04 temp=26.69 hum=66.7 prs=1000.75 Log=10533 Err=0
id=947127 time=26.05.2020 11:08:52 Vmax=4.3 Vmin=3.7 Vmid=4 Napr=204 uakb=13.78 usb=14.04 temp=26.6 hum=66.77 prs=1000.79 Log=10532 Err=0
id=947126 time=26.05.2020 11:07:41 Vmax=4.2 Vmin=3.5 Vmid=3.9 Napr=204 uakb=13.78 usb=14.04 temp=26.51 hum=66.83 prs=1000.76 Log=10531 Err=0
id=947125 time=26.05.2020 11:06:26 Vmax=6.1 Vmin=4.9 Vmid=5.5 Napr=205 uakb=13.8 usb=14.04 temp=26.45 hum=66.85 prs=1000.78 Log=10530 Err=0
id=947124 time=26.05.2020 11:05:14 Vmax=6.5 Vmin=5.6 Vmid=6.2 Napr=205 uakb=13.76 usb=14.04 temp=26.39 hum=66.88 prs=1000.78 Log=10529 Err=0
id=947123 time=26.05.2020 11:04:01 Vmax=7.1 Vmin=6.4 Vmid=6.8 Napr=205 uakb=13.78 usb=14.04 temp=26.33 hum=66.92 prs=1000.81 Log=10528 Err=0
id=947122 time=26.05.2020 11:02:50 Vmax=6.9 Vmin=6.4 Vmid=6.6 Napr=203 uakb=13.78 usb=14.02 temp=26.28 hum=66.94 prs=1000.83 Log=10527 Err=0
id=947121 time=26.05.2020 11:01:37 Vmax=7.5 Vmin=6.4 Vmid=7 Napr=202 uakb=13.78 usb=14.04 temp=26.24 hum=66.97 prs=1000.85 Log=10526 Err=0
id=947120 time=26.05.2020 10:58:50 Vmax=6.6 Vmin=6.3 Vmid=6.4 Napr=197 uakb=13.78 usb=14.04 temp=26.18 hum=67.08 prs=1000.91 Log=10524 Err=0
id=947119 time=26.05.2020 10:57:38 Vmax=7 Vmin=6.2 Vmid=6.5 Napr=189 uakb=13.8 usb=14.04 temp=26.14 hum=67.14 prs=1000.92 Log=10523 Err=0
id=947118 time=26.05.2020 10:56:24 Vmax=8.6 Vmin=6.2 Vmid=7.1 Napr=185 uakb=13.8 usb=14.02 temp=26.09 hum=67.22 prs=1000.91 Log=10522 Err=0
id=947117 time=26.05.2020 10:52:06 Vmax=10 Vmin=9.1 Vmid=9.3 Napr=173 uakb=13.78 usb=14.02 temp=25.97 hum=67.44 prs=1000.99 Log=10519 Err=0
id=947116 time=26.05.2020 10:50:54 Vmax=9.8 Vmin=9.1 Vmid=9.4 Napr=173 uakb=13.78 usb=14.04 temp=25.95 hum=67.52 prs=1001.04 Log=10518 Err=0
id=947115 time=26.05.2020 10:49:42 Vmax=9.8 Vmin=8.7 Vmid=9.3 Napr=173 uakb=13.78 usb=14.04 temp=25.96 hum=67.61 prs=1001 Log=10517 Err=0
id=947114 time=26.05.2020 10:48:28 Vmax=9.6 Vmin=9 Vmid=9.3 Napr=173 uakb=13.8 usb=14.02 temp=26 hum=67.69 prs=1001.09 Log=10516 Err=0
id=947113 time=26.05.2020 10:47:15 Vmax=10.5 Vmin=9.6 Vmid=10 Napr=170 uakb=13.78 usb=14.04 temp=26.05 hum=67.82 prs=1001.09 Log=10515 Err=0
id=947112 time=26.05.2020 10:46:03 Vmax=10.3 Vmin=9.6 Vmid=9.8 Napr=173 uakb=13.78 usb=14.04 temp=26.12 hum=67.98 prs=1001.13 Log=10514 Err=0
id=947111 time=26.05.2020 10:43:19 Vmax=11 Vmin=10.5 Vmid=10.7 Napr=174 uakb=13.78 usb=14.04 temp=26.25 hum=68.42 prs=1001.25 Log=10512 Err=0
id=947110 time=26.05.2020 10:42:04 Vmax=11.8 Vmin=10.1 Vmid=10.7 Napr=174 uakb=13.78 usb=14.04 temp=26.27 hum=68.6 prs=1001.24 Log=10511 Err=0
id=947109 time=26.05.2020 10:39:19 Vmax=11.3 Vmin=8.2 Vmid=9.6 Napr=168 uakb=13.78 usb=14.02 temp=26.17 hum=68.98 prs=1001.33 Log=10509 Err=0
id=947108 time=26.05.2020 10:38:05 Vmax=8.3 Vmin=8 Vmid=8.2 Napr=164 uakb=13.78 usb=14.04 temp=26.11 hum=69.15 prs=1001.4 Log=10508 Err=0
id=947107 time=26.05.2020 10:36:53 Vmax=8.7 Vmin=7.9 Vmid=8.4 Napr=163 uakb=13.78 usb=14.04 temp=26.06 hum=69.28 prs=1001.44 Log=10507 Err=0
id=947106 time=26.05.2020 10:35:41 Vmax=11.8 Vmin=9.2 Vmid=10.6 Napr=161 uakb=13.78 usb=14.02 temp=26 hum=69.41 prs=1001.41 Log=10506 Err=0
id=947105 time=26.05.2020 10:34:29 Vmax=8.4 Vmin=7.8 Vmid=8 Napr=159 uakb=13.78 usb=14.04 temp=25.95 hum=69.5 prs=1001.49 Log=10505 Err=0
id=947104 time=26.05.2020 10:33:15 Vmax=8.4 Vmin=7.8 Vmid=8 Napr=159 uakb=13.78 usb=14.04 temp=25.89 hum=69.62 prs=1001.53 Log=10504 Err=0
id=947103 time=26.05.2020 10:32:02 Vmax=9.3 Vmin=8.2 Vmid=8.7 Napr=157 uakb=13.78 usb=14.02 temp=25.83 hum=69.69 prs=1001.55 Log=10503 Err=0
id=947102 time=26.05.2020 10:30:50 Vmax=10.3 Vmin=9.1 Vmid=9.7 Napr=157 uakb=13.78 usb=14.04 temp=25.8 hum=69.79 prs=1001.55 Log=10502 Err=0
id=947101 time=26.05.2020 10:29:38 Vmax=9.6 Vmin=7.5 Vmid=8.4 Napr=159 uakb=13.8 usb=14.02 temp=25.75 hum=69.89 prs=1001.6 Log=10501 Err=0
id=947100 time=26.05.2020 10:28:25 Vmax=11.3 Vmin=8.6 Vmid=9.8 Napr=158 uakb=13.78 usb=14.04 temp=25.7 hum=69.96 prs=1001.61 Log=10500 Err=0
id=947099 time=26.05.2020 10:27:12 Vmax=10.3 Vmin=9.6 Vmid=9.9 Napr=157 uakb=13.78 usb=14.04 temp=25.66 hum=70.06 prs=1001.64 Log=10499 Err=0
id=947098 time=26.05.2020 10:26:01 Vmax=10 Vmin=9.2 Vmid=9.7 Napr=157 uakb=13.78 usb=14.04 temp=25.63 hum=70.12 prs=1001.66 Log=10498 Err=0
id=947097 time=26.05.2020 10:24:46 Vmax=10.4 Vmin=8.6 Vmid=9.3 Napr=156 uakb=13.78 usb=14.02 temp=25.6 hum=70.2 prs=1001.7 Log=10497 Err=0
id=947096 time=26.05.2020 10:23:34 Vmax=10.5 Vmin=9.1 Vmid=9.7 Napr=156 uakb=13.78 usb=14.04 temp=25.58 hum=70.25 prs=1001.7 Log=10496 Err=0
id=947095 time=26.05.2020 10:22:21 Vmax=9.7 Vmin=8.4 Vmid=9 Napr=156 uakb=13.78 usb=14.04 temp=25.55 hum=70.33 prs=1001.76 Log=10495 Err=0
id=947094 time=26.05.2020 10:21:09 Vmax=9.3 Vmin=8.7 Vmid=8.9 Napr=157 uakb=13.78 usb=14.04 temp=25.52 hum=70.41 prs=1001.81 Log=10494 Err=0
id=947093 time=26.05.2020 10:19:56 Vmax=9.8 Vmin=9.3 Vmid=9.6 Napr=160 uakb=13.78 usb=14.04 temp=25.51 hum=70.46 prs=1001.84 Log=10493 Err=0
id=947092 time=26.05.2020 10:18:43 Vmax=9.8 Vmin=9.2 Vmid=9.4 Napr=160 uakb=13.78 usb=14.04 temp=25.49 hum=70.54 prs=1001.85 Log=10492 Err=0
id=947091 time=26.05.2020 10:17:31 Vmax=9.6 Vmin=8.7 Vmid=9.2 Napr=161 uakb=13.78 usb=14.04 temp=25.47 hum=70.62 prs=1001.89 Log=10491 Err=0
id=947090 time=26.05.2020 10:16:18 Vmax=9.3 Vmin=9.1 Vmid=9.2 Napr=161 uakb=13.76 usb=14.04 temp=25.44 hum=70.67 prs=1001.92 Log=10490 Err=0
id=947089 time=26.05.2020 10:15:05 Vmax=9.8 Vmin=8.7 Vmid=9.2 Napr=161 uakb=13.8 usb=14.02 temp=25.43 hum=70.73 prs=1001.96 Log=10489 Err=0
id=947088 time=26.05.2020 10:12:20 Vmax=8.9 Vmin=7.5 Vmid=8.2 Napr=160 uakb=13.78 usb=14.02 temp=25.39 hum=70.91 prs=1002.06 Log=10487 Err=0
id=947087 time=26.05.2020 10:11:07 Vmax=7.6 Vmin=7 Vmid=7.2 Napr=156 uakb=13.78 usb=14.02 temp=25.34 hum=70.99 prs=1002.08 Log=10486 Err=0
id=947086 time=26.05.2020 10:09:54 Vmax=8.4 Vmin=7.8 Vmid=8 Napr=156 uakb=13.78 usb=14.04 temp=25.29 hum=71.04 prs=1002.09 Log=10485 Err=0
id=947085 time=26.05.2020 10:08:42 Vmax=8.6 Vmin=8.3 Vmid=8.4 Napr=154 uakb=13.78 usb=14.02 temp=25.24 hum=71.09 prs=1002.16 Log=10484 Err=0
id=947084 time=26.05.2020 10:07:29 Vmax=8.5 Vmin=7.8 Vmid=8.2 Napr=153 uakb=13.78 usb=14.04 temp=25.21 hum=71.13 prs=1002.17 Log=10483 Err=0
id=947083 time=26.05.2020 10:06:17 Vmax=8 Vmin=7.1 Vmid=7.3 Napr=153 uakb=13.78 usb=14.02 temp=25.17 hum=71.17 prs=1002.21 Log=10482 Err=0
id=947082 time=26.05.2020 10:05:05 Vmax=7.9 Vmin=6.9 Vmid=7.5 Napr=157 uakb=13.78 usb=14.04 temp=25.14 hum=71.2 prs=1002.25 Log=10481 Err=0
id=947081 time=26.05.2020 10:03:52 Vmax=7.8 Vmin=7.2 Vmid=7.5 Napr=157 uakb=13.76 usb=14.04 temp=25.11 hum=71.25 prs=1002.3 Log=10480 Err=0
id=947080 time=26.05.2020 10:02:38 Vmax=7.9 Vmin=7.7 Vmid=7.7 Napr=157 uakb=13.76 usb=14.04 temp=25.08 hum=71.27 prs=1002.34 Log=10479 Err=0
id=947079 time=26.05.2020 10:01:26 Vmax=7.6 Vmin=7.1 Vmid=7.3 Napr=163 uakb=13.78 usb=14.04 temp=25.09 hum=71.33 prs=1002.37 Log=10478 Err=0
id=947078 time=26.05.2020 10:00:15 Vmax=7.5 Vmin=7 Vmid=7.1 Napr=165 uakb=13.78 usb=14.02 temp=25.1 hum=71.38 prs=1002.41 Log=10477 Err=0
id=947077 time=26.05.2020 09:59:01 Vmax=7.5 Vmin=6.8 Vmid=7 Napr=166 uakb=13.78 usb=14.04 temp=25.11 hum=71.46 prs=1002.41 Log=10476 Err=0
id=947076 time=26.05.2020 09:57:48 Vmax=7.3 Vmin=6.3 Vmid=6.9 Napr=163 uakb=13.78 usb=14.04 temp=25.09 hum=71.58 prs=1002.43 Log=10475 Err=0
id=947075 time=26.05.2020 09:56:36 Vmax=8.3 Vmin=6.4 Vmid=7.3 Napr=154 uakb=13.78 usb=14.04 temp=25.04 hum=71.71 prs=1002.48 Log=10474 Err=0
id=947074 time=26.05.2020 09:55:23 Vmax=8.3 Vmin=7.5 Vmid=7.9 Napr=150 uakb=13.78 usb=14.04 temp=25.01 hum=71.8 prs=1002.51 Log=10473 Err=0
id=947073 time=26.05.2020 09:52:37 Vmax=9.1 Vmin=7.7 Vmid=8.3 Napr=146 uakb=13.78 usb=14.04 temp=24.94 hum=72.09 prs=1002.59 Log=10471 Err=0
id=947072 time=26.05.2020 09:51:26 Vmax=9.1 Vmin=7.1 Vmid=7.8 Napr=147 uakb=13.78 usb=14.04 temp=24.9 hum=72.25 prs=1002.65 Log=10470 Err=0
id=947071 time=26.05.2020 09:50:12 Vmax=8.4 Vmin=6.1 Vmid=7.1 Napr=145 uakb=13.78 usb=14.02 temp=24.84 hum=72.38 prs=1002.7 Log=10469 Err=0
id=947070 time=26.05.2020 09:49:01 Vmax=7.8 Vmin=5.8 Vmid=6.8 Napr=144 uakb=13.76 usb=14.04 temp=24.78 hum=72.49 prs=1002.69 Log=10468 Err=0
id=947069 time=26.05.2020 09:47:47 Vmax=7.9 Vmin=6.3 Vmid=7.1 Napr=144 uakb=13.78 usb=14.04 temp=24.74 hum=72.61 prs=1002.69 Log=10467 Err=0
id=947068 time=26.05.2020 09:46:34 Vmax=9.3 Vmin=7.2 Vmid=8.5 Napr=145 uakb=13.78 usb=14.02 temp=24.73 hum=72.74 prs=1002.7 Log=10466 Err=0
id=947067 time=26.05.2020 09:45:21 Vmax=9.3 Vmin=7.2 Vmid=7.9 Napr=146 uakb=13.76 usb=14.04 temp=24.72 hum=72.89 prs=1002.68 Log=10465 Err=0
id=947066 time=26.05.2020 09:44:09 Vmax=9.1 Vmin=6.6 Vmid=7.6 Napr=146 uakb=13.8 usb=14.02 temp=24.71 hum=73.04 prs=1002.71 Log=10464 Err=0
id=947065 time=26.05.2020 09:42:50 Vmax=8.9 Vmin=7.2 Vmid=7.8 Napr=144 uakb=13.78 usb=14.04 temp=24.72 hum=73.23 prs=1002.78 Log=10463 Err=0
id=947064 time=26.05.2020 09:41:33 Vmax=9.4 Vmin=8 Vmid=8.7 Napr=144 uakb=13.78 usb=14.04 temp=24.75 hum=73.38 prs=1002.79 Log=10462 Err=0
id=947063 time=26.05.2020 09:40:20 Vmax=10.5 Vmin=6.8 Vmid=8.4 Napr=143 uakb=13.78 usb=14.02 temp=24.77 hum=73.57 prs=1002.8 Log=10461 Err=0
id=947062 time=26.05.2020 09:39:09 Vmax=8.9 Vmin=7.6 Vmid=8.3 Napr=146 uakb=13.78 usb=14.02 temp=24.79 hum=73.77 prs=1002.82 Log=10460 Err=0
id=947061 time=26.05.2020 09:36:22 Vmax=9.7 Vmin=7.8 Vmid=8.7 Napr=147 uakb=13.78 usb=14.04 temp=24.84 hum=74.21 prs=1002.9 Log=10458 Err=0
id=947060 time=26.05.2020 09:35:11 Vmax=8.3 Vmin=7 Vmid=7.7 Napr=147 uakb=13.78 usb=14.02 temp=24.86 hum=74.38 prs=1002.96 Log=10457 Err=0
id=947059 time=26.05.2020 09:33:57 Vmax=8.9 Vmin=7.2 Vmid=7.7 Napr=150 uakb=13.78 usb=14.04 temp=24.88 hum=74.54 prs=1003.04 Log=10456 Err=0
id=947058 time=26.05.2020 09:32:45 Vmax=7.2 Vmin=5.4 Vmid=6.2 Napr=155 uakb=13.78 usb=14.04 temp=24.87 hum=74.71 prs=1003.11 Log=10455 Err=0
id=947057 time=26.05.2020 09:31:32 Vmax=5.6 Vmin=4.4 Vmid=4.8 Napr=161 uakb=13.76 usb=14.02 temp=24.84 hum=74.89 prs=1003.19 Log=10454 Err=0
id=947056 time=26.05.2020 09:30:20 Vmax=4.7 Vmin=4.3 Vmid=4.4 Napr=161 uakb=13.76 usb=14.04 temp=24.81 hum=75.07 prs=1003.26 Log=10453 Err=0
id=947055 time=26.05.2020 09:29:07 Vmax=4.4 Vmin=4.2 Vmid=4.3 Napr=161 uakb=13.78 usb=14.04 temp=24.77 hum=75.25 prs=1003.27 Log=10452 Err=0
id=947054 time=26.05.2020 09:26:21 Vmax=4.9 Vmin=4.4 Vmid=4.6 Napr=161 uakb=13.78 usb=14.02 temp=24.64 hum=75.7 prs=1003.34 Log=10450 Err=0
id=947053 time=26.05.2020 09:25:09 Vmax=5.7 Vmin=5 Vmid=5.2 Napr=161 uakb=13.78 usb=14.02 temp=24.55 hum=75.86 prs=1003.4 Log=10449 Err=0
id=947052 time=26.05.2020 09:23:57 Vmax=5.7 Vmin=5.4 Vmid=5.5 Napr=161 uakb=13.78 usb=14.02 temp=24.47 hum=76.05 prs=1003.45 Log=10448 Err=0
id=947051 time=26.05.2020 09:22:44 Vmax=5.7 Vmin=5.5 Vmid=5.6 Napr=161 uakb=13.78 usb=14.02 temp=24.4 hum=76.23 prs=1003.52 Log=10447 Err=0
id=947050 time=26.05.2020 09:21:31 Vmax=5.4 Vmin=4.9 Vmid=5.1 Napr=161 uakb=13.78 usb=14.02 temp=24.35 hum=76.42 prs=1003.6 Log=10446 Err=0
id=947049 time=26.05.2020 09:20:19 Vmax=5.4 Vmin=5 Vmid=5.1 Napr=161 uakb=13.78 usb=14.02 temp=24.31 hum=76.63 prs=1003.64 Log=10445 Err=0
id=947048 time=26.05.2020 09:17:33 Vmax=5.8 Vmin=5.4 Vmid=5.5 Napr=160 uakb=13.76 usb=14.04 temp=24.29 hum=77.1 prs=1003.65 Log=10443 Err=0
id=947047 time=26.05.2020 09:16:20 Vmax=6.1 Vmin=5.4 Vmid=5.6 Napr=160 uakb=13.78 usb=14.04 temp=24.32 hum=77.34 prs=1003.71 Log=10442 Err=0
id=947046 time=26.05.2020 09:15:08 Vmax=5.9 Vmin=5.5 Vmid=5.6 Napr=160 uakb=13.78 usb=14.04 temp=24.34 hum=77.6 prs=1003.75 Log=10441 Err=0
id=947045 time=26.05.2020 09:13:55 Vmax=5.8 Vmin=5.2 Vmid=5.6 Napr=160 uakb=13.78 usb=14.02 temp=24.34 hum=77.84 prs=1003.8 Log=10440 Err=0
id=947044 time=26.05.2020 09:12:43 Vmax=5.6 Vmin=5.1 Vmid=5.4 Napr=160 uakb=13.78 usb=14.04 temp=24.32 hum=78.11 prs=1003.85 Log=10439 Err=0
id=947043 time=26.05.2020 09:11:30 Vmax=5.9 Vmin=5.5 Vmid=5.7 Napr=160 uakb=13.78 usb=14.02 temp=24.28 hum=78.36 prs=1003.84 Log=10438 Err=0
id=947042 time=26.05.2020 09:10:17 Vmax=5.8 Vmin=5.4 Vmid=5.5 Napr=160 uakb=13.78 usb=14.02 temp=24.22 hum=78.61 prs=1003.86 Log=10437 Err=0
id=947041 time=26.05.2020 09:09:05 Vmax=5.7 Vmin=4.9 Vmid=5.4 Napr=160 uakb=13.78 usb=14.02 temp=24.16 hum=78.86 prs=1003.87 Log=10436 Err=0
id=947040 time=26.05.2020 09:07:53 Vmax=5.6 Vmin=5 Vmid=5.2 Napr=160 uakb=13.78 usb=14.04 temp=24.08 hum=79.13 prs=1003.96 Log=10435 Err=0
id=947039 time=26.05.2020 09:06:40 Vmax=5.2 Vmin=4.8 Vmid=5.1 Napr=160 uakb=13.76 usb=14.04 temp=24 hum=79.38 prs=1003.97 Log=10434 Err=0
id=947038 time=26.05.2020 09:05:28 Vmax=5.5 Vmin=5 Vmid=5.1 Napr=160 uakb=13.78 usb=14.04 temp=23.92 hum=79.62 prs=1003.99 Log=10433 Err=0
id=947037 time=26.05.2020 09:04:15 Vmax=5.1 Vmin=4.4 Vmid=4.8 Napr=160 uakb=13.8 usb=14.02 temp=23.83 hum=79.85 prs=1004.07 Log=10432 Err=0
id=947036 time=26.05.2020 09:03:01 Vmax=4.7 Vmin=4 Vmid=4.3 Napr=160 uakb=13.78 usb=14.04 temp=23.75 hum=80.1 prs=1004.1 Log=10431 Err=0
id=947035 time=26.05.2020 09:01:50 Vmax=5.7 Vmin=4.2 Vmid=5 Napr=160 uakb=13.78 usb=14.02 temp=23.66 hum=80.33 prs=1004.1 Log=10430 Err=0
id=947034 time=26.05.2020 09:00:37 Vmax=5.4 Vmin=5 Vmid=5.1 Napr=160 uakb=13.78 usb=14.04 temp=23.58 hum=80.55 prs=1004.12 Log=10429 Err=0
id=947033 time=26.05.2020 08:59:24 Vmax=4.9 Vmin=4.4 Vmid=4.7 Napr=160 uakb=13.78 usb=14.02 temp=23.51 hum=80.79 prs=1004.15 Log=10428 Err=0
id=947032 time=26.05.2020 08:58:12 Vmax=4.9 Vmin=4.2 Vmid=4.7 Napr=160 uakb=13.78 usb=14.04 temp=23.42 hum=81.01 prs=1004.19 Log=10427 Err=0
id=947031 time=26.05.2020 08:56:59 Vmax=5.5 Vmin=5 Vmid=5.2 Napr=160 uakb=13.78 usb=14.04 temp=23.35 hum=81.24 prs=1004.24 Log=10426 Err=0
id=947030 time=26.05.2020 08:55:47 Vmax=5.7 Vmin=4.7 Vmid=5 Napr=160 uakb=13.78 usb=14.04 temp=23.29 hum=81.48 prs=1004.28 Log=10425 Err=0
id=947029 time=26.05.2020 08:54:34 Vmax=5.6 Vmin=5.1 Vmid=5.4 Napr=160 uakb=13.78 usb=14.02 temp=23.21 hum=81.71 prs=1004.32 Log=10424 Err=0
id=947028 time=26.05.2020 08:53:21 Vmax=5.4 Vmin=4.4 Vmid=4.9 Napr=160 uakb=13.78 usb=14.04 temp=23.14 hum=81.92 prs=1004.3 Log=10423 Err=0
id=947027 time=26.05.2020 08:52:09 Vmax=5.2 Vmin=4.8 Vmid=5 Napr=160 uakb=13.78 usb=14.02 temp=23.05 hum=82.12 prs=1004.29 Log=10422 Err=0
id=947026 time=26.05.2020 08:50:57 Vmax=5.8 Vmin=5.4 Vmid=5.6 Napr=160 uakb=13.78 usb=14.04 temp=22.97 hum=82.35 prs=1004.3 Log=10421 Err=0
id=947025 time=26.05.2020 08:49:44 Vmax=6.1 Vmin=5 Vmid=5.6 Napr=161 uakb=13.78 usb=14.02 temp=22.9 hum=82.55 prs=1004.37 Log=10420 Err=0
id=947024 time=26.05.2020 08:48:32 Vmax=5.8 Vmin=5.4 Vmid=5.5 Napr=161 uakb=13.78 usb=14.02 temp=22.83 hum=82.76 prs=1004.38 Log=10419 Err=0
id=947023 time=26.05.2020 08:47:19 Vmax=5.9 Vmin=5 Vmid=5.5 Napr=161 uakb=13.78 usb=14 temp=22.78 hum=82.96 prs=1004.36 Log=10418 Err=0
id=947022 time=26.05.2020 08:46:06 Vmax=6.4 Vmin=5.4 Vmid=5.9 Napr=161 uakb=13.78 usb=14.04 temp=22.73 hum=83.18 prs=1004.4 Log=10417 Err=0
id=947021 time=26.05.2020 08:44:54 Vmax=6.4 Vmin=5.8 Vmid=6.2 Napr=161 uakb=13.78 usb=14.02 temp=22.68 hum=83.38 prs=1004.41 Log=10416 Err=0
id=947020 time=26.05.2020 08:43:41 Vmax=7 Vmin=5.6 Vmid=6.2 Napr=161 uakb=13.78 usb=14.04 temp=22.62 hum=83.6 prs=1004.39 Log=10415 Err=0
id=947019 time=26.05.2020 08:42:29 Vmax=6.5 Vmin=5.5 Vmid=5.9 Napr=161 uakb=13.78 usb=14.04 temp=22.57 hum=83.79 prs=1004.46 Log=10414 Err=0
id=947018 time=26.05.2020 08:41:17 Vmax=6.6 Vmin=6.1 Vmid=6.3 Napr=161 uakb=13.78 usb=14.02 temp=22.51 hum=83.99 prs=1004.5 Log=10413 Err=0
id=947017 time=26.05.2020 08:40:03 Vmax=6.8 Vmin=5.9 Vmid=6.3 Napr=161 uakb=13.78 usb=14.02 temp=22.47 hum=84.21 prs=1004.5 Log=10412 Err=0
id=947016 time=26.05.2020 08:38:52 Vmax=6.9 Vmin=6.3 Vmid=6.5 Napr=161 uakb=13.78 usb=14.02 temp=22.43 hum=84.4 prs=1004.54 Log=10411 Err=0
id=947015 time=26.05.2020 08:37:34 Vmax=7.1 Vmin=6.4 Vmid=6.8 Napr=161 uakb=13.78 usb=14.04 temp=22.39 hum=84.63 prs=1004.6 Log=10410 Err=0
id=947014 time=26.05.2020 08:36:16 Vmax=6.9 Vmin=6.1 Vmid=6.4 Napr=161 uakb=13.78 usb=14.04 temp=22.35 hum=84.83 prs=1004.62 Log=10409 Err=0
id=947013 time=26.05.2020 08:35:03 Vmax=6.9 Vmin=5.6 Vmid=6.5 Napr=160 uakb=13.76 usb=14.04 temp=22.31 hum=85.01 prs=1004.65 Log=10408 Err=0
id=947012 time=26.05.2020 08:33:50 Vmax=6.9 Vmin=6.2 Vmid=6.5 Napr=160 uakb=13.76 usb=14.04 temp=22.26 hum=85.2 prs=1004.61 Log=10407 Err=0
id=947011 time=26.05.2020 08:32:39 Vmax=7 Vmin=6.3 Vmid=6.6 Napr=160 uakb=13.78 usb=14.04 temp=22.21 hum=85.38 prs=1004.6 Log=10406 Err=0
id=947010 time=26.05.2020 08:31:26 Vmax=7.3 Vmin=6.9 Vmid=7 Napr=160 uakb=13.76 usb=14.02 temp=22.15 hum=85.56 prs=1004.59 Log=10405 Err=0
id=947009 time=26.05.2020 08:30:13 Vmax=7.2 Vmin=6.6 Vmid=6.8 Napr=160 uakb=13.78 usb=14.04 temp=22.08 hum=85.75 prs=1004.58 Log=10404 Err=0
id=947008 time=26.05.2020 08:29:00 Vmax=7 Vmin=6.2 Vmid=6.4 Napr=160 uakb=13.78 usb=14.04 temp=22.02 hum=85.91 prs=1004.62 Log=10403 Err=0
id=947007 time=26.05.2020 08:27:48 Vmax=6.9 Vmin=6.5 Vmid=6.6 Napr=160 uakb=13.78 usb=14.02 temp=21.95 hum=86.07 prs=1004.65 Log=10402 Err=0
id=947006 time=26.05.2020 08:26:35 Vmax=6.8 Vmin=6.3 Vmid=6.5 Napr=160 uakb=13.76 usb=14.02 temp=21.88 hum=86.23 prs=1004.66 Log=10401 Err=0
id=947005 time=26.05.2020 08:25:22 Vmax=7 Vmin=6.2 Vmid=6.6 Napr=160 uakb=13.78 usb=14.02 temp=21.83 hum=86.38 prs=1004.68 Log=10400 Err=0
id=947004 time=26.05.2020 08:24:10 Vmax=7.7 Vmin=6.6 Vmid=7.2 Napr=160 uakb=13.78 usb=14.04 temp=21.78 hum=86.54 prs=1004.66 Log=10399 Err=0
id=947003 time=26.05.2020 08:22:57 Vmax=7.5 Vmin=7 Vmid=7.1 Napr=160 uakb=13.76 usb=14.04 temp=21.74 hum=86.68 prs=1004.66 Log=10398 Err=0
id=947002 time=26.05.2020 08:21:44 Vmax=7.7 Vmin=7.3 Vmid=7.5 Napr=160 uakb=13.76 usb=14.04 temp=21.69 hum=86.84 prs=1004.65 Log=10397 Err=0
id=947001 time=26.05.2020 08:20:32 Vmax=8 Vmin=6.8 Vmid=7.6 Napr=159 uakb=13.78 usb=14.02 temp=21.64 hum=86.98 prs=1004.71 Log=10396 Err=0
id=947000 time=26.05.2020 08:19:20 Vmax=7.9 Vmin=7 Vmid=7.5 Napr=159 uakb=13.78 usb=14.02 temp=21.59 hum=87.12 prs=1004.72 Log=10395 Err=0
id=946999 time=26.05.2020 08:18:07 Vmax=8 Vmin=6.9 Vmid=7.7 Napr=158 uakb=13.78 usb=14.04 temp=21.56 hum=87.24 prs=1004.74 Log=10394 Err=0
id=946998 time=26.05.2020 08:16:55 Vmax=8 Vmin=7 Vmid=7.5 Napr=159 uakb=13.78 usb=14.02 temp=21.53 hum=87.38 prs=1004.78 Log=10393 Err=0
id=946997 time=26.05.2020 08:14:09 Vmax=7.9 Vmin=7.3 Vmid=7.6 Napr=160 uakb=13.78 usb=14.02 temp=21.44 hum=87.67 prs=1004.8 Log=10391 Err=0
id=946996 time=26.05.2020 08:12:57 Vmax=7.9 Vmin=7.5 Vmid=7.7 Napr=160 uakb=13.78 usb=14.04 temp=21.4 hum=87.79 prs=1004.83 Log=10390 Err=0
id=946995 time=26.05.2020 08:11:45 Vmax=7.5 Vmin=7 Vmid=7.2 Napr=163 uakb=13.76 usb=14.02 temp=21.34 hum=87.91 prs=1004.89 Log=10389 Err=0
id=946994 time=26.05.2020 08:10:33 Vmax=7.3 Vmin=6.8 Vmid=7 Napr=164 uakb=13.76 usb=14.04 temp=21.29 hum=88 prs=1004.87 Log=10388 Err=0
id=946993 time=26.05.2020 08:09:20 Vmax=7.8 Vmin=7 Vmid=7.2 Napr=164 uakb=13.78 usb=14.02 temp=21.26 hum=88.12 prs=1004.9 Log=10387 Err=0
id=946992 time=26.05.2020 08:08:07 Vmax=7.8 Vmin=6.9 Vmid=7.3 Napr=163 uakb=13.78 usb=14.04 temp=21.23 hum=88.19 prs=1004.9 Log=10386 Err=0
id=946991 time=26.05.2020 08:06:55 Vmax=8 Vmin=7.1 Vmid=7.6 Napr=161 uakb=13.78 usb=14.04 temp=21.21 hum=88.3 prs=1004.9 Log=10385 Err=0
id=946990 time=26.05.2020 08:05:42 Vmax=7.9 Vmin=7.3 Vmid=7.6 Napr=159 uakb=13.78 usb=14.02 temp=21.2 hum=88.4 prs=1004.88 Log=10384 Err=0
id=946989 time=26.05.2020 08:04:29 Vmax=8.3 Vmin=7.6 Vmid=7.7 Napr=157 uakb=13.78 usb=14.04 temp=21.19 hum=88.49 prs=1004.88 Log=10383 Err=0
id=946988 time=26.05.2020 08:03:17 Vmax=8.4 Vmin=7.3 Vmid=7.9 Napr=157 uakb=13.78 usb=14.02 temp=21.17 hum=88.54 prs=1004.86 Log=10382 Err=0
id=946987 time=26.05.2020 08:02:05 Vmax=8.3 Vmin=7.7 Vmid=8 Napr=158 uakb=13.76 usb=14.04 temp=21.16 hum=88.65 prs=1004.84 Log=10381 Err=0
id=946986 time=26.05.2020 08:00:53 Vmax=9.1 Vmin=8 Vmid=8.5 Napr=159 uakb=13.78 usb=14.02 temp=21.17 hum=88.71 prs=1004.87 Log=10380 Err=0
id=946985 time=26.05.2020 07:59:39 Vmax=9.3 Vmin=8.4 Vmid=8.7 Napr=159 uakb=13.76 usb=14.04 temp=21.16 hum=88.78 prs=1004.87 Log=10379 Err=0
id=946984 time=26.05.2020 07:58:27 Vmax=9.3 Vmin=8.4 Vmid=8.9 Napr=158 uakb=13.76 usb=14.02 temp=21.14 hum=88.85 prs=1004.9 Log=10378 Err=0
id=946983 time=26.05.2020 07:57:15 Vmax=9 Vmin=8.7 Vmid=8.9 Napr=155 uakb=13.76 usb=14.04 temp=21.13 hum=88.93 prs=1005 Log=10377 Err=0
id=946982 time=26.05.2020 07:56:02 Vmax=9.6 Vmin=7.5 Vmid=8.3 Napr=153 uakb=13.76 usb=14.02 temp=21.1 hum=88.97 prs=1005.05 Log=10376 Err=0
id=946981 time=26.05.2020 07:54:50 Vmax=7.7 Vmin=6.8 Vmid=7 Napr=148 uakb=13.78 usb=14.02 temp=21.07 hum=89.05 prs=1005.1 Log=10375 Err=0
id=946980 time=26.05.2020 07:53:37 Vmax=7.7 Vmin=7.1 Vmid=7.3 Napr=146 uakb=13.76 usb=14.02 temp=21.05 hum=89.11 prs=1005.12 Log=10374 Err=0
id=946979 time=26.05.2020 07:52:24 Vmax=7.2 Vmin=5.9 Vmid=6.5 Napr=147 uakb=13.78 usb=14.02 temp=21.01 hum=89.15 prs=1005.16 Log=10373 Err=0
id=946978 time=26.05.2020 07:51:13 Vmax=7.3 Vmin=6.8 Vmid=7 Napr=146 uakb=13.76 usb=14.02 temp=20.96 hum=89.21 prs=1005.19 Log=10372 Err=0
id=946977 time=26.05.2020 07:50:00 Vmax=7.2 Vmin=6.5 Vmid=6.9 Napr=146 uakb=13.76 usb=14.02 temp=20.92 hum=89.23 prs=1005.2 Log=10371 Err=0
id=946976 time=26.05.2020 07:48:47 Vmax=7.7 Vmin=6.5 Vmid=7 Napr=144 uakb=13.78 usb=14.02 temp=20.88 hum=89.27 prs=1005.18 Log=10370 Err=0
id=946975 time=26.05.2020 07:47:35 Vmax=7.5 Vmin=4.9 Vmid=6.1 Napr=146 uakb=13.78 usb=14.02 temp=20.82 hum=89.31 prs=1005.2 Log=10369 Err=0
id=946974 time=26.05.2020 07:46:22 Vmax=7.9 Vmin=5.6 Vmid=7 Napr=143 uakb=13.76 usb=14.02 temp=20.77 hum=89.33 prs=1005.2 Log=10368 Err=0
id=946973 time=26.05.2020 07:45:10 Vmax=7 Vmin=5.9 Vmid=6.5 Napr=147 uakb=13.76 usb=14.02 temp=20.73 hum=89.37 prs=1005.21 Log=10367 Err=0
id=946972 time=26.05.2020 07:43:59 Vmax=8.3 Vmin=6.6 Vmid=7.3 Napr=146 uakb=13.76 usb=14.02 temp=20.69 hum=89.4 prs=1005.26 Log=10366 Err=0
id=946971 time=26.05.2020 07:42:44 Vmax=7.7 Vmin=6.3 Vmid=7.1 Napr=143 uakb=13.76 usb=14.02 temp=20.64 hum=89.42 prs=1005.29 Log=10365 Err=0
id=946970 time=26.05.2020 07:41:33 Vmax=7.6 Vmin=5.2 Vmid=6.5 Napr=142 uakb=13.76 usb=14.02 temp=20.56 hum=89.44 prs=1005.3 Log=10364 Err=0
id=946969 time=26.05.2020 07:40:20 Vmax=7 Vmin=5.6 Vmid=6.3 Napr=143 uakb=13.76 usb=14.04 temp=20.5 hum=89.47 prs=1005.37 Log=10363 Err=0
id=946968 time=26.05.2020 07:39:08 Vmax=6.9 Vmin=6.1 Vmid=6.4 Napr=148 uakb=13.76 usb=14.02 temp=20.45 hum=89.48 prs=1005.36 Log=10362 Err=0
id=946967 time=26.05.2020 07:37:55 Vmax=6.9 Vmin=5.8 Vmid=6.5 Napr=146 uakb=13.76 usb=14.02 temp=20.39 hum=89.5 prs=1005.38 Log=10361 Err=0
id=946966 time=26.05.2020 07:36:43 Vmax=6.8 Vmin=5.5 Vmid=6.2 Napr=146 uakb=13.76 usb=14.02 temp=20.34 hum=89.5 prs=1005.43 Log=10360 Err=0
id=946965 time=26.05.2020 07:35:31 Vmax=6.8 Vmin=5.8 Vmid=6.3 Napr=146 uakb=13.76 usb=14.02 temp=20.27 hum=89.53 prs=1005.49 Log=10359 Err=0
id=946964 time=26.05.2020 07:34:18 Vmax=7.7 Vmin=5.9 Vmid=6.6 Napr=144 uakb=13.76 usb=14.04 temp=20.19 hum=89.57 prs=1005.51 Log=10358 Err=0
id=946963 time=26.05.2020 07:33:06 Vmax=7.8 Vmin=5.5 Vmid=6.4 Napr=142 uakb=13.76 usb=14.02 temp=20.1 hum=89.56 prs=1005.51 Log=10357 Err=0
id=946962 time=26.05.2020 07:31:53 Vmax=7.7 Vmin=5.7 Vmid=6.4 Napr=144 uakb=13.76 usb=14.02 temp=20.03 hum=89.56 prs=1005.53 Log=10356 Err=0
id=946961 time=26.05.2020 07:30:41 Vmax=6.5 Vmin=4.9 Vmid=5.5 Napr=142 uakb=13.76 usb=14.02 temp=19.96 hum=89.57 prs=1005.49 Log=10355 Err=0
id=946960 time=26.05.2020 07:27:55 Vmax=8.5 Vmin=6.1 Vmid=7.1 Napr=140 uakb=13.76 usb=14.02 temp=19.86 hum=89.59 prs=1005.45 Log=10353 Err=0
id=946959 time=26.05.2020 07:26:43 Vmax=8 Vmin=6.4 Vmid=7.2 Napr=141 uakb=13.76 usb=14.02 temp=19.79 hum=89.6 prs=1005.4 Log=10352 Err=0
id=946958 time=26.05.2020 07:25:31 Vmax=7.5 Vmin=5.4 Vmid=6.4 Napr=143 uakb=13.76 usb=14.04 temp=19.72 hum=89.63 prs=1005.4 Log=10351 Err=0
id=946957 time=26.05.2020 07:24:18 Vmax=7.6 Vmin=6.4 Vmid=6.9 Napr=140 uakb=13.76 usb=14.02 temp=19.64 hum=89.61 prs=1005.4 Log=10350 Err=0
id=946956 time=26.05.2020 07:23:06 Vmax=8.6 Vmin=7.1 Vmid=7.5 Napr=141 uakb=13.76 usb=14.02 temp=19.58 hum=89.61 prs=1005.38 Log=10349 Err=0
id=946955 time=26.05.2020 07:21:54 Vmax=8.7 Vmin=6.9 Vmid=7.9 Napr=141 uakb=13.76 usb=14.02 temp=19.53 hum=89.62 prs=1005.4 Log=10348 Err=0
id=946954 time=26.05.2020 07:20:40 Vmax=7.7 Vmin=5.1 Vmid=6.3 Napr=140 uakb=13.76 usb=14.02 temp=19.46 hum=89.62 prs=1005.41 Log=10347 Err=0
id=946953 time=26.05.2020 07:19:28 Vmax=7.7 Vmin=6.1 Vmid=6.6 Napr=143 uakb=13.76 usb=14.02 temp=19.41 hum=89.62 prs=1005.43 Log=10346 Err=0
id=946952 time=26.05.2020 07:18:15 Vmax=7.3 Vmin=5.9 Vmid=6.8 Napr=140 uakb=13.76 usb=14.02 temp=19.35 hum=89.62 prs=1005.45 Log=10345 Err=0
id=946951 time=26.05.2020 07:17:04 Vmax=7.1 Vmin=5.7 Vmid=6.4 Napr=144 uakb=13.76 usb=14.02 temp=19.31 hum=89.61 prs=1005.52 Log=10344 Err=0
id=946950 time=26.05.2020 07:15:52 Vmax=7.9 Vmin=6.4 Vmid=7.1 Napr=144 uakb=13.76 usb=14.02 temp=19.28 hum=89.64 prs=1005.53 Log=10343 Err=0
id=946949 time=26.05.2020 07:14:39 Vmax=8.2 Vmin=6.8 Vmid=7.3 Napr=145 uakb=13.76 usb=14.02 temp=19.26 hum=89.64 prs=1005.57 Log=10342 Err=0
id=946948 time=26.05.2020 07:13:27 Vmax=8.4 Vmin=6.2 Vmid=7.1 Napr=146 uakb=13.74 usb=14.02 temp=19.24 hum=89.63 prs=1005.59 Log=10341 Err=0
id=946947 time=26.05.2020 07:12:16 Vmax=8.9 Vmin=6.3 Vmid=7.9 Napr=144 uakb=13.74 usb=14.02 temp=19.24 hum=89.65 prs=1005.59 Log=10340 Err=0
id=946946 time=26.05.2020 07:11:01 Vmax=8.2 Vmin=6.5 Vmid=7.5 Napr=142 uakb=13.76 usb=14.02 temp=19.22 hum=89.65 prs=1005.66 Log=10339 Err=0
id=946945 time=26.05.2020 07:09:50 Vmax=8.3 Vmin=6.6 Vmid=7.5 Napr=144 uakb=13.74 usb=14.02 temp=19.2 hum=89.66 prs=1005.73 Log=10338 Err=0
id=946944 time=26.05.2020 07:07:04 Vmax=8.3 Vmin=7.3 Vmid=7.8 Napr=144 uakb=13.74 usb=14.02 temp=19.19 hum=89.68 prs=1005.84 Log=10336 Err=0
id=946943 time=26.05.2020 07:05:51 Vmax=8.3 Vmin=6.8 Vmid=7.6 Napr=144 uakb=13.74 usb=14.02 temp=19.17 hum=89.68 prs=1005.87 Log=10335 Err=0
id=946942 time=26.05.2020 07:04:39 Vmax=7 Vmin=5.5 Vmid=6.3 Napr=143 uakb=13.74 usb=14.02 temp=19.11 hum=89.69 prs=1005.84 Log=10334 Err=0
id=946941 time=26.05.2020 07:03:26 Vmax=7.1 Vmin=6.3 Vmid=6.5 Napr=143 uakb=13.74 usb=14.02 temp=19.06 hum=89.69 prs=1005.87 Log=10333 Err=0
id=946940 time=26.05.2020 07:02:15 Vmax=7.1 Vmin=5.9 Vmid=6.4 Napr=143 uakb=13.76 usb=14.02 temp=18.99 hum=89.72 prs=1005.91 Log=10332 Err=0
id=946939 time=26.05.2020 07:01:03 Vmax=6.4 Vmin=5.9 Vmid=6.1 Napr=143 uakb=13.74 usb=14.02 temp=18.91 hum=89.68 prs=1005.93 Log=10331 Err=0
id=946938 time=26.05.2020 06:59:50 Vmax=5.9 Vmin=5.6 Vmid=5.7 Napr=144 uakb=13.74 usb=14.02 temp=18.82 hum=89.7 prs=1005.99 Log=10330 Err=0
id=946937 time=26.05.2020 06:58:39 Vmax=6.6 Vmin=4.8 Vmid=5.7 Napr=146 uakb=13.74 usb=14.02 temp=18.74 hum=89.71 prs=1006.02 Log=10329 Err=0
id=946936 time=26.05.2020 06:57:24 Vmax=6.5 Vmin=5.6 Vmid=6.1 Napr=146 uakb=13.74 usb=14.04 temp=18.67 hum=89.7 prs=1006.05 Log=10328 Err=0
id=946935 time=26.05.2020 06:56:13 Vmax=6.2 Vmin=5.6 Vmid=5.7 Napr=146 uakb=13.74 usb=14.02 temp=18.6 hum=89.7 prs=1006.06 Log=10327 Err=0
id=946934 time=26.05.2020 06:55:00 Vmax=6.1 Vmin=5.1 Vmid=5.6 Napr=147 uakb=13.74 usb=14 temp=18.53 hum=89.7 prs=1006.11 Log=10326 Err=0
id=946933 time=26.05.2020 06:53:48 Vmax=5.7 Vmin=4.6 Vmid=5 Napr=147 uakb=13.74 usb=14.02 temp=18.48 hum=89.68 prs=1006.11 Log=10325 Err=0
id=946932 time=26.05.2020 06:52:35 Vmax=5.6 Vmin=4.8 Vmid=5.1 Napr=147 uakb=13.72 usb=14 temp=18.44 hum=89.71 prs=1006.16 Log=10324 Err=0
id=946931 time=26.05.2020 06:51:23 Vmax=5.5 Vmin=4.4 Vmid=4.8 Napr=146 uakb=13.7 usb=14 temp=18.4 hum=89.69 prs=1006.17 Log=10323 Err=0
id=946930 time=26.05.2020 06:50:11 Vmax=4.9 Vmin=3.5 Vmid=4.3 Napr=143 uakb=13.68 usb=14 temp=18.34 hum=89.68 prs=1006.19 Log=10322 Err=0
id=946929 time=26.05.2020 06:47:26 Vmax=5.4 Vmin=4.8 Vmid=5 Napr=141 uakb=13.68 usb=14 temp=18.17 hum=89.68 prs=1006.08 Log=10320 Err=0
id=946928 time=26.05.2020 06:46:13 Vmax=6.5 Vmin=4 Vmid=5.4 Napr=142 uakb=13.6 usb=13.68 temp=18.13 hum=89.65 prs=1006.07 Log=10319 Err=0
id=946927 time=26.05.2020 06:45:01 Vmax=5.1 Vmin=3.6 Vmid=4.2 Napr=141 uakb=13.6 usb=13.76 temp=18.02 hum=89.67 prs=1006.13 Log=10318 Err=0
id=946926 time=26.05.2020 06:43:48 Vmax=5 Vmin=4 Vmid=4.3 Napr=141 uakb=13.58 usb=13.7 temp=17.85 hum=89.66 prs=1006.14 Log=10317 Err=0
id=946925 time=26.05.2020 06:42:37 Vmax=5.2 Vmin=3.7 Vmid=4.7 Napr=140 uakb=13.64 usb=14 temp=17.68 hum=89.64 prs=1006.18 Log=10316 Err=0
id=946924 time=26.05.2020 06:41:24 Vmax=4.8 Vmin=4.1 Vmid=4.4 Napr=138 uakb=13.64 usb=13.98 temp=17.52 hum=89.62 prs=1006.24 Log=10315 Err=0
id=946923 time=26.05.2020 06:40:12 Vmax=5.6 Vmin=4 Vmid=4.6 Napr=138 uakb=13.62 usb=13.98 temp=17.38 hum=89.6 prs=1006.28 Log=10314 Err=0
id=946922 time=26.05.2020 06:38:59 Vmax=5.1 Vmin=3.9 Vmid=4.4 Napr=138 uakb=13.54 usb=13.68 temp=17.28 hum=89.59 prs=1006.31 Log=10313 Err=0
id=946921 time=26.05.2020 06:37:46 Vmax=4.9 Vmin=4.1 Vmid=4.4 Napr=139 uakb=13.5 usb=13.6 temp=17.24 hum=89.56 prs=1006.35 Log=10312 Err=0
id=946920 time=26.05.2020 06:36:34 Vmax=4.6 Vmin=3.6 Vmid=4.1 Napr=140 uakb=13.52 usb=13.78 temp=17.21 hum=89.55 prs=1006.34 Log=10311 Err=0
id=946919 time=26.05.2020 06:35:22 Vmax=4.9 Vmin=3.6 Vmid=4.2 Napr=142 uakb=13.54 usb=13.9 temp=17.17 hum=89.54 prs=1006.35 Log=10310 Err=0
id=946918 time=26.05.2020 06:34:10 Vmax=5.5 Vmin=4.2 Vmid=4.4 Napr=141 uakb=13.54 usb=13.86 temp=17.14 hum=89.54 prs=1006.35 Log=10309 Err=0
id=946917 time=26.05.2020 06:33:00 Vmax=5 Vmin=3.6 Vmid=4.1 Napr=141 uakb=13.42 usb=13.54 temp=17.11 hum=89.53 prs=1006.33 Log=10308 Err=0
id=946916 time=26.05.2020 06:31:45 Vmax=6.6 Vmin=4 Vmid=5.5 Napr=141 uakb=13.44 usb=13.68 temp=17.07 hum=89.52 prs=1006.3 Log=10307 Err=0
id=946915 time=26.05.2020 06:30:34 Vmax=5.8 Vmin=4.8 Vmid=5.2 Napr=144 uakb=13.44 usb=13.6 temp=17.05 hum=89.49 prs=1006.3 Log=10306 Err=0
id=946914 time=26.05.2020 06:29:20 Vmax=5.7 Vmin=5.2 Vmid=5.4 Napr=143 uakb=13.38 usb=13.46 temp=17.03 hum=89.51 prs=1006.3 Log=10305 Err=0
id=946913 time=26.05.2020 06:28:10 Vmax=6.4 Vmin=5.4 Vmid=5.8 Napr=142 uakb=13.4 usb=13.64 temp=17.02 hum=89.5 prs=1006.29 Log=10304 Err=0
id=946912 time=26.05.2020 06:26:56 Vmax=6.1 Vmin=4.4 Vmid=5.1 Napr=142 uakb=13.4 usb=13.64 temp=16.99 hum=89.48 prs=1006.25 Log=10303 Err=0
id=946911 time=26.05.2020 06:25:43 Vmax=6.5 Vmin=4.6 Vmid=5.5 Napr=142 uakb=13.36 usb=13.52 temp=16.97 hum=89.49 prs=1006.28 Log=10302 Err=0
id=946910 time=26.05.2020 06:24:32 Vmax=6.8 Vmin=4.9 Vmid=5.7 Napr=143 uakb=13.34 usb=13.44 temp=16.95 hum=89.46 prs=1006.3 Log=10301 Err=0
id=946909 time=26.05.2020 06:23:19 Vmax=7.2 Vmin=5.6 Vmid=6.4 Napr=144 uakb=13.3 usb=13.42 temp=16.93 hum=89.45 prs=1006.32 Log=10300 Err=0
id=946908 time=26.05.2020 06:22:07 Vmax=6.8 Vmin=5.7 Vmid=6.3 Napr=147 uakb=13.28 usb=13.39 temp=16.92 hum=89.45 prs=1006.34 Log=10299 Err=0
id=946907 time=26.05.2020 06:20:54 Vmax=7.2 Vmin=6.3 Vmid=6.6 Napr=144 uakb=13.28 usb=13.39 temp=16.9 hum=89.47 prs=1006.42 Log=10298 Err=0
id=946906 time=26.05.2020 06:19:42 Vmax=8 Vmin=5.7 Vmid=6.4 Napr=146 uakb=13.26 usb=13.39 temp=16.9 hum=89.45 prs=1006.47 Log=10297 Err=0
id=946905 time=26.05.2020 06:18:31 Vmax=7.7 Vmin=6.8 Vmid=7.2 Napr=146 uakb=13.24 usb=13.35 temp=16.9 hum=89.43 prs=1006.49 Log=10296 Err=0
id=946904 time=26.05.2020 06:17:17 Vmax=7.5 Vmin=6.3 Vmid=6.9 Napr=147 uakb=13.3 usb=13.58 temp=16.9 hum=89.42 prs=1006.52 Log=10295 Err=0
id=946903 time=26.05.2020 06:16:04 Vmax=8.5 Vmin=7.2 Vmid=7.8 Napr=149 uakb=13.2 usb=13.27 temp=16.9 hum=89.54 prs=1006.56 Log=10294 Err=0
id=946902 time=26.05.2020 06:14:52 Vmax=7.8 Vmin=7 Vmid=7.5 Napr=151 uakb=13.18 usb=13.25 temp=16.9 hum=89.42 prs=1006.55 Log=10293 Err=0
id=946901 time=26.05.2020 06:13:40 Vmax=8.3 Vmin=6.8 Vmid=7.6 Napr=152 uakb=13.16 usb=13.23 temp=16.89 hum=89.41 prs=1006.58 Log=10292 Err=0
id=946900 time=26.05.2020 06:12:28 Vmax=8.4 Vmin=7.5 Vmid=8 Napr=154 uakb=13.16 usb=13.27 temp=16.87 hum=89.39 prs=1006.6 Log=10291 Err=0
id=946899 time=26.05.2020 06:11:15 Vmax=8 Vmin=7 Vmid=7.6 Napr=155 uakb=13.14 usb=13.27 temp=16.83 hum=89.38 prs=1006.62 Log=10290 Err=0
id=946898 time=26.05.2020 06:10:03 Vmax=7.8 Vmin=7.5 Vmid=7.6 Napr=157 uakb=13.12 usb=13.25 temp=16.81 hum=89.38 prs=1006.61 Log=10289 Err=0
id=946897 time=26.05.2020 06:08:51 Vmax=7.7 Vmin=7.5 Vmid=7.6 Napr=154 uakb=13.2 usb=13.52 temp=16.8 hum=89.39 prs=1006.59 Log=10288 Err=0
id=946896 time=26.05.2020 06:07:39 Vmax=8.3 Vmin=7.8 Vmid=8 Napr=153 uakb=13.1 usb=13.17 temp=16.79 hum=89.35 prs=1006.59 Log=10287 Err=0
id=946895 time=26.05.2020 06:06:26 Vmax=8.5 Vmin=7.5 Vmid=7.8 Napr=152 uakb=13.1 usb=13.27 temp=16.79 hum=89.36 prs=1006.59 Log=10286 Err=0
id=946894 time=26.05.2020 06:05:15 Vmax=8 Vmin=6.4 Vmid=7.5 Napr=151 uakb=13.08 usb=13.21 temp=16.76 hum=89.35 prs=1006.56 Log=10285 Err=0
id=946893 time=26.05.2020 06:04:01 Vmax=7.3 Vmin=6.1 Vmid=6.6 Napr=150 uakb=13.1 usb=13.33 temp=16.74 hum=89.34 prs=1006.61 Log=10284 Err=0
id=946892 time=26.05.2020 06:02:50 Vmax=7.3 Vmin=5.6 Vmid=6.8 Napr=151 uakb=13.06 usb=13.17 temp=16.7 hum=89.34 prs=1006.63 Log=10283 Err=0
id=946891 time=26.05.2020 06:01:36 Vmax=6.5 Vmin=5.7 Vmid=6.2 Napr=151 uakb=13.04 usb=13.09 temp=16.68 hum=89.33 prs=1006.63 Log=10282 Err=0
id=946890 time=26.05.2020 06:00:25 Vmax=7.2 Vmin=5.8 Vmid=6.5 Napr=151 uakb=13.04 usb=13.09 temp=16.67 hum=89.32 prs=1006.62 Log=10281 Err=0
id=946889 time=26.05.2020 05:59:12 Vmax=5.8 Vmin=5.4 Vmid=5.6 Napr=153 uakb=13.02 usb=13.09 temp=16.66 hum=89.31 prs=1006.67 Log=10280 Err=0
id=946888 time=26.05.2020 05:58:00 Vmax=5.6 Vmin=5 Vmid=5.2 Napr=154 uakb=13.02 usb=13.05 temp=16.64 hum=89.31 prs=1006.64 Log=10279 Err=0
id=946887 time=26.05.2020 05:56:47 Vmax=6.5 Vmin=5.1 Vmid=5.9 Napr=153 uakb=13 usb=13.05 temp=16.62 hum=89.29 prs=1006.63 Log=10278 Err=0
id=946886 time=26.05.2020 05:55:36 Vmax=7.6 Vmin=6.2 Vmid=6.9 Napr=153 uakb=13 usb=13.03 temp=16.6 hum=89.29 prs=1006.61 Log=10277 Err=0
id=946885 time=26.05.2020 05:52:49 Vmax=6.5 Vmin=5.7 Vmid=6.2 Napr=153 uakb=13.02 usb=13.23 temp=16.58 hum=89.28 prs=1006.66 Log=10275 Err=0
id=946884 time=26.05.2020 05:51:38 Vmax=5.8 Vmin=5 Vmid=5.5 Napr=153 uakb=12.98 usb=13.01 temp=16.56 hum=89.27 prs=1006.71 Log=10274 Err=0
id=946883 time=26.05.2020 05:50:26 Vmax=6.1 Vmin=5.4 Vmid=5.6 Napr=152 uakb=12.96 usb=13.03 temp=16.52 hum=89.27 prs=1006.75 Log=10273 Err=0
id=946882 time=26.05.2020 05:49:12 Vmax=6.3 Vmin=5.8 Vmid=5.9 Napr=152 uakb=12.96 usb=13.03 temp=16.48 hum=89.25 prs=1006.76 Log=10272 Err=0
id=946881 time=26.05.2020 05:48:02 Vmax=5.7 Vmin=4.9 Vmid=5.2 Napr=151 uakb=12.96 usb=13.09 temp=16.44 hum=89.23 prs=1006.83 Log=10271 Err=0
id=946880 time=26.05.2020 05:46:48 Vmax=5.8 Vmin=4.9 Vmid=5.4 Napr=150 uakb=12.96 usb=13.07 temp=16.38 hum=89.22 prs=1006.84 Log=10270 Err=0
id=946879 time=26.05.2020 05:45:35 Vmax=6.3 Vmin=5.1 Vmid=5.6 Napr=150 uakb=13.02 usb=13.27 temp=16.34 hum=89.2 prs=1006.91 Log=10269 Err=0
id=946878 time=26.05.2020 05:44:24 Vmax=6.1 Vmin=5.1 Vmid=5.7 Napr=152 uakb=12.96 usb=13.05 temp=16.3 hum=89.21 prs=1006.85 Log=10268 Err=0
id=946877 time=26.05.2020 05:43:11 Vmax=6.4 Vmin=4.7 Vmid=5.5 Napr=152 uakb=12.94 usb=13.03 temp=16.27 hum=89.18 prs=1006.88 Log=10267 Err=0
id=946876 time=26.05.2020 05:41:59 Vmax=6.9 Vmin=5.6 Vmid=6.3 Napr=152 uakb=12.94 usb=13.01 temp=16.24 hum=89.18 prs=1006.85 Log=10266 Err=0
id=946875 time=26.05.2020 05:40:46 Vmax=5.4 Vmin=4.2 Vmid=4.8 Napr=147 uakb=12.92 usb=12.95 temp=16.22 hum=89.18 prs=1006.87 Log=10265 Err=0
id=946874 time=26.05.2020 05:39:35 Vmax=5.1 Vmin=4 Vmid=4.7 Napr=146 uakb=12.92 usb=12.93 temp=16.2 hum=89.17 prs=1006.93 Log=10264 Err=0
id=946873 time=26.05.2020 05:38:23 Vmax=5.7 Vmin=4.2 Vmid=4.9 Napr=146 uakb=12.9 usb=12.91 temp=16.18 hum=89.14 prs=1006.96 Log=10263 Err=0
id=946872 time=26.05.2020 05:37:09 Vmax=5.6 Vmin=4 Vmid=4.6 Napr=144 uakb=12.94 usb=13.13 temp=16.17 hum=89.13 prs=1006.98 Log=10262 Err=0
id=946871 time=26.05.2020 05:35:58 Vmax=5 Vmin=4 Vmid=4.6 Napr=146 uakb=12.9 usb=12.93 temp=16.16 hum=89.12 prs=1006.93 Log=10261 Err=0
id=946870 time=26.05.2020 05:34:45 Vmax=5.1 Vmin=4.3 Vmid=4.7 Napr=150 uakb=12.9 usb=12.83 temp=16.15 hum=89.11 prs=1006.96 Log=10260 Err=0
id=946869 time=26.05.2020 05:33:33 Vmax=6.3 Vmin=4.2 Vmid=5.1 Napr=147 uakb=12.9 usb=12.79 temp=16.14 hum=89.12 prs=1006.97 Log=10259 Err=0
id=946868 time=26.05.2020 05:32:21 Vmax=5 Vmin=4.3 Vmid=4.8 Napr=142 uakb=12.9 usb=12.87 temp=16.13 hum=89.11 prs=1007 Log=10258 Err=0
id=946867 time=26.05.2020 05:31:08 Vmax=5.5 Vmin=4.1 Vmid=4.8 Napr=140 uakb=12.9 usb=12.81 temp=16.12 hum=89.09 prs=1007 Log=10257 Err=0
id=946866 time=26.05.2020 05:29:56 Vmax=5.2 Vmin=3.6 Vmid=4.3 Napr=143 uakb=12.9 usb=12.99 temp=16.11 hum=89.06 prs=1007.06 Log=10256 Err=0
id=946865 time=26.05.2020 05:28:43 Vmax=5 Vmin=3.9 Vmid=4.4 Napr=146 uakb=12.88 usb=13.07 temp=16.11 hum=89.05 prs=1007.07 Log=10255 Err=0
id=946864 time=26.05.2020 05:27:31 Vmax=3.5 Vmin=2.7 Vmid=3 Napr=146 uakb=12.88 usb=12.73 temp=16.1 hum=89.05 prs=1007.1 Log=10254 Err=0
id=946863 time=26.05.2020 05:26:19 Vmax=5.1 Vmin=3.5 Vmid=4.3 Napr=146 uakb=12.88 usb=12.95 temp=16.1 hum=89.03 prs=1007.11 Log=10253 Err=0
id=946862 time=26.05.2020 05:25:07 Vmax=4.1 Vmin=2.8 Vmid=3.4 Napr=146 uakb=12.88 usb=12.97 temp=16.1 hum=89.03 prs=1007.16 Log=10252 Err=0
id=946861 time=26.05.2020 05:23:55 Vmax=4.8 Vmin=2.8 Vmid=3.7 Napr=146 uakb=12.88 usb=12.63 temp=16.09 hum=89.02 prs=1007.16 Log=10251 Err=0
id=946860 time=26.05.2020 05:22:41 Vmax=4.8 Vmin=3.2 Vmid=3.7 Napr=146 uakb=12.88 usb=12.85 temp=16.09 hum=89.01 prs=1007.17 Log=10250 Err=0
id=946859 time=26.05.2020 05:21:19 Vmax=4 Vmin=2.8 Vmid=3.3 Napr=146 uakb=12.88 usb=12.89 temp=16.09 hum=89.01 prs=1007.18 Log=10249 Err=0
id=946858 time=26.05.2020 05:20:07 Vmax=4.2 Vmin=3.4 Vmid=3.7 Napr=146 uakb=12.88 usb=12.55 temp=16.08 hum=88.97 prs=1007.2 Log=10248 Err=0
id=946857 time=26.05.2020 05:18:54 Vmax=4.6 Vmin=3.7 Vmid=4.2 Napr=146 uakb=12.88 usb=12.63 temp=16.08 hum=88.98 prs=1007.23 Log=10247 Err=0
id=946856 time=26.05.2020 05:17:42 Vmax=5.4 Vmin=2.8 Vmid=4.2 Napr=146 uakb=12.88 usb=12.37 temp=16.07 hum=88.96 prs=1007.26 Log=10246 Err=0
id=946855 time=26.05.2020 05:16:32 Vmax=4.6 Vmin=3.3 Vmid=3.9 Napr=143 uakb=12.88 usb=12.69 temp=16.07 hum=88.96 prs=1007.24 Log=10245 Err=0
id=946854 time=26.05.2020 05:15:18 Vmax=4.2 Vmin=1.9 Vmid=3 Napr=143 uakb=12.88 usb=12.41 temp=16.07 hum=88.93 prs=1007.23 Log=10244 Err=0
id=946853 time=26.05.2020 05:14:05 Vmax=4.7 Vmin=3 Vmid=3.9 Napr=142 uakb=12.86 usb=12.75 temp=16.07 hum=88.93 prs=1007.23 Log=10243 Err=0
id=946852 time=26.05.2020 05:12:53 Vmax=5.2 Vmin=3.5 Vmid=4.1 Napr=145 uakb=12.86 usb=12.16 temp=16.06 hum=88.92 prs=1007.22 Log=10242 Err=0
id=946851 time=26.05.2020 05:11:41 Vmax=6.3 Vmin=4 Vmid=4.8 Napr=143 uakb=12.88 usb=11.88 temp=16.05 hum=88.9 prs=1007.2 Log=10241 Err=0
id=946850 time=26.05.2020 05:10:29 Vmax=5.5 Vmin=3.9 Vmid=4.4 Napr=142 uakb=12.88 usb=12.51 temp=16.05 hum=88.91 prs=1007.19 Log=10240 Err=0
id=946849 time=26.05.2020 05:09:16 Vmax=5.6 Vmin=4.2 Vmid=4.9 Napr=140 uakb=12.86 usb=11.9 temp=16.04 hum=88.89 prs=1007.21 Log=10239 Err=0
id=946848 time=26.05.2020 05:08:03 Vmax=5.8 Vmin=4.4 Vmid=5.1 Napr=142 uakb=12.86 usb=11.94 temp=16.04 hum=88.87 prs=1007.2 Log=10238 Err=0
id=946847 time=26.05.2020 05:06:51 Vmax=6.4 Vmin=5.6 Vmid=5.9 Napr=142 uakb=12.88 usb=10.93 temp=16.03 hum=88.87 prs=1007.21 Log=10237 Err=0
id=946846 time=26.05.2020 05:05:39 Vmax=7 Vmin=5.6 Vmid=6.1 Napr=144 uakb=12.86 usb=11.07 temp=16.02 hum=88.87 prs=1007.26 Log=10236 Err=0
id=946845 time=26.05.2020 05:04:27 Vmax=7 Vmin=5.7 Vmid=6.2 Napr=144 uakb=12.88 usb=10.55 temp=16 hum=88.85 prs=1007.34 Log=10235 Err=0
id=946844 time=26.05.2020 05:03:14 Vmax=6.8 Vmin=4.7 Vmid=6.2 Napr=147 uakb=12.86 usb=9.99 temp=15.98 hum=88.83 prs=1007.38 Log=10234 Err=0
id=946843 time=26.05.2020 05:02:03 Vmax=5.7 Vmin=5 Vmid=5.2 Napr=147 uakb=12.88 usb=10.07 temp=15.97 hum=88.82 prs=1007.41 Log=10233 Err=0
id=946842 time=26.05.2020 05:00:53 Vmax=5.7 Vmin=4.2 Vmid=4.9 Napr=148 uakb=12.88 usb=8.78 temp=15.97 hum=88.8 prs=1007.45 Log=10232 Err=0
id=946841 time=26.05.2020 04:59:37 Vmax=4.2 Vmin=2.8 Vmid=3.3 Napr=151 uakb=12.88 usb=8.73 temp=15.97 hum=88.78 prs=1007.46 Log=10231 Err=0
id=946840 time=26.05.2020 04:58:25 Vmax=4.9 Vmin=3.2 Vmid=3.7 Napr=151 uakb=12.86 usb=8.57 temp=15.97 hum=88.79 prs=1007.49 Log=10230 Err=0
id=946839 time=26.05.2020 04:57:13 Vmax=4.8 Vmin=1.6 Vmid=2.8 Napr=151 uakb=12.88 usb=7.67 temp=15.99 hum=88.76 prs=1007.54 Log=10229 Err=0
id=946838 time=26.05.2020 04:56:01 Vmax=3.4 Vmin=1.5 Vmid=2.5 Napr=151 uakb=12.86 usb=6.98 temp=16.01 hum=88.75 prs=1007.56 Log=10228 Err=0
id=946837 time=26.05.2020 04:54:49 Vmax=1.1 Vmin=0 Vmid=0.1 Napr=151 uakb=12.86 usb=6.8 temp=16.03 hum=88.74 prs=1007.56 Log=10227 Err=0
id=946836 time=26.05.2020 04:53:36 Vmax=0 Vmin=0 Vmid=0 Napr=151 uakb=12.88 usb=5.77 temp=16.05 hum=88.73 prs=1007.54 Log=10226 Err=0
id=946835 time=26.05.2020 04:52:24 Vmax=0.9 Vmin=0 Vmid=0.2 Napr=151 uakb=12.88 usb=4.78 temp=16.06 hum=88.73 prs=1007.51 Log=10225 Err=0
id=946834 time=26.05.2020 04:51:11 Vmax=0.6 Vmin=0 Vmid=0 Napr=151 uakb=12.86 usb=3.87 temp=16.07 hum=88.72 prs=1007.54 Log=10224 Err=0
id=946833 time=26.05.2020 04:49:59 Vmax=1.2 Vmin=0 Vmid=0.6 Napr=149 uakb=12.88 usb=4.2 temp=16.08 hum=88.71 prs=1007.55 Log=10223 Err=0
id=946832 time=26.05.2020 04:48:48 Vmax=0 Vmin=0 Vmid=0 Napr=149 uakb=12.88 usb=2.28 temp=16.08 hum=88.68 prs=1007.59 Log=10222 Err=0
id=946831 time=26.05.2020 04:47:35 Vmax=0 Vmin=0 Vmid=0 Napr=149 uakb=12.88 usb=2.44 temp=16.07 hum=88.67 prs=1007.64 Log=10221 Err=0
id=946830 time=26.05.2020 04:46:22 Vmax=0 Vmin=0 Vmid=0 Napr=151 uakb=12.88 usb=2.04 temp=16.06 hum=88.66 prs=1007.69 Log=10220 Err=0
id=946829 time=26.05.2020 04:45:10 Vmax=0 Vmin=0 Vmid=0 Napr=151 uakb=12.88 usb=2.16 temp=16.07 hum=88.65 prs=1007.71 Log=10219 Err=0
id=946828 time=26.05.2020 04:43:58 Vmax=0 Vmin=0 Vmid=0 Napr=151 uakb=12.86 usb=1.53 temp=16.09 hum=88.64 prs=1007.71 Log=10218 Err=0
id=946827 time=26.05.2020 04:42:45 Vmax=0.8 Vmin=0 Vmid=0.1 Napr=151 uakb=12.88 usb=1.23 temp=16.1 hum=88.62 prs=1007.72 Log=10217 Err=0
id=946826 time=26.05.2020 04:41:32 Vmax=0 Vmin=0 Vmid=0 Napr=151 uakb=12.88 usb=0.93 temp=16.11 hum=88.62 prs=1007.73 Log=10216 Err=0
id=946825 time=26.05.2020 04:40:21 Vmax=3.3 Vmin=0 Vmid=1.8 Napr=151 uakb=12.88 usb=1.17 temp=16.12 hum=88.6 prs=1007.75 Log=10215 Err=0
id=946824 time=26.05.2020 04:39:08 Vmax=0.4 Vmin=0 Vmid=0 Napr=151 uakb=12.88 usb=0.83 temp=16.12 hum=88.58 prs=1007.74 Log=10214 Err=0
id=946823 time=26.05.2020 04:37:56 Vmax=2.1 Vmin=0.8 Vmid=1.4 Napr=151 uakb=12.88 usb=0.79 temp=16.13 hum=88.58 prs=1007.71 Log=10213 Err=0
id=946822 time=26.05.2020 04:36:43 Vmax=3.3 Vmin=1.9 Vmid=2.5 Napr=151 uakb=12.88 usb=0.95 temp=16.13 hum=88.55 prs=1007.72 Log=10212 Err=0
id=946821 time=26.05.2020 04:35:32 Vmax=4.2 Vmin=2.2 Vmid=3 Napr=151 uakb=12.88 usb=0.06 temp=16.14 hum=88.55 prs=1007.7 Log=10211 Err=0
id=946820 time=26.05.2020 04:34:19 Vmax=3.7 Vmin=2.6 Vmid=3 Napr=151 uakb=12.88 usb=0.06 temp=16.14 hum=88.53 prs=1007.7 Log=10210 Err=0
id=946819 time=26.05.2020 04:33:07 Vmax=3.9 Vmin=2.8 Vmid=3.4 Napr=151 uakb=12.88 usb=0.06 temp=16.14 hum=88.52 prs=1007.71 Log=10209 Err=0
id=946818 time=26.05.2020 04:31:54 Vmax=4.3 Vmin=3.5 Vmid=3.9 Napr=151 uakb=12.88 usb=0.06 temp=16.15 hum=88.51 prs=1007.77 Log=10208 Err=0
id=946817 time=26.05.2020 04:30:42 Vmax=3.4 Vmin=2.9 Vmid=3 Napr=151 uakb=12.88 usb=0.06 temp=16.16 hum=88.49 prs=1007.79 Log=10207 Err=0
id=946816 time=26.05.2020 04:29:29 Vmax=3.5 Vmin=2.5 Vmid=2.8 Napr=151 uakb=12.88 usb=0.06 temp=16.17 hum=88.46 prs=1007.87 Log=10206 Err=0
id=946815 time=26.05.2020 04:28:17 Vmax=3.4 Vmin=2.9 Vmid=3.2 Napr=151 uakb=12.88 usb=0.06 temp=16.19 hum=88.44 prs=1007.89 Log=10205 Err=0
id=946814 time=26.05.2020 04:27:05 Vmax=3.2 Vmin=2.1 Vmid=2.7 Napr=151 uakb=12.88 usb=0.06 temp=16.2 hum=88.44 prs=1007.91 Log=10204 Err=0
id=946813 time=26.05.2020 04:25:52 Vmax=3 Vmin=2 Vmid=2.6 Napr=151 uakb=12.88 usb=0.06 temp=16.22 hum=88.42 prs=1007.95 Log=10203 Err=0
id=946812 time=26.05.2020 04:24:41 Vmax=2.3 Vmin=0.9 Vmid=1.9 Napr=151 uakb=12.88 usb=0.06 temp=16.24 hum=88.4 prs=1007.98 Log=10202 Err=0
id=946811 time=26.05.2020 04:23:28 Vmax=2.3 Vmin=0.9 Vmid=1.9 Napr=151 uakb=12.88 usb=0.06 temp=16.26 hum=88.39 prs=1008 Log=10201 Err=0
id=946810 time=26.05.2020 04:22:16 Vmax=2.2 Vmin=1.2 Vmid=1.8 Napr=151 uakb=12.88 usb=0.06 temp=16.28 hum=88.38 prs=1008.04 Log=10200 Err=0
id=946809 time=26.05.2020 04:21:04 Vmax=2 Vmin=1.3 Vmid=1.6 Napr=151 uakb=12.88 usb=0.08 temp=16.3 hum=88.38 prs=1008.06 Log=10199 Err=0
id=946808 time=26.05.2020 04:19:52 Vmax=2.6 Vmin=0.8 Vmid=1.5 Napr=151 uakb=12.88 usb=0.06 temp=16.32 hum=88.35 prs=1008.09 Log=10198 Err=0
id=946807 time=26.05.2020 04:18:39 Vmax=2 Vmin=0.9 Vmid=1.5 Napr=151 uakb=12.88 usb=0.08 temp=16.34 hum=88.34 prs=1008.12 Log=10197 Err=0
id=946806 time=26.05.2020 04:17:27 Vmax=2.1 Vmin=1.3 Vmid=1.6 Napr=151 uakb=12.88 usb=0.06 temp=16.36 hum=88.34 prs=1008.11 Log=10196 Err=0
id=946805 time=26.05.2020 04:16:14 Vmax=2.8 Vmin=1.2 Vmid=2 Napr=151 uakb=12.88 usb=0.06 temp=16.38 hum=88.3 prs=1008.11 Log=10195 Err=0
id=946804 time=26.05.2020 04:15:02 Vmax=0.7 Vmin=0 Vmid=0.1 Napr=151 uakb=12.88 usb=0.06 temp=16.41 hum=88.3 prs=1008.09 Log=10194 Err=0
id=946803 time=26.05.2020 04:12:17 Vmax=3.9 Vmin=1.9 Vmid=3 Napr=151 uakb=12.88 usb=0.06 temp=16.45 hum=88.28 prs=1008.11 Log=10192 Err=0
id=946802 time=26.05.2020 04:11:04 Vmax=2.5 Vmin=1.4 Vmid=2 Napr=151 uakb=12.88 usb=0.06 temp=16.48 hum=88.25 prs=1008.1 Log=10191 Err=0
id=946801 time=26.05.2020 04:09:52 Vmax=3.2 Vmin=1.8 Vmid=2.2 Napr=151 uakb=12.88 usb=0.06 temp=16.49 hum=88.24 prs=1008.11 Log=10190 Err=0
id=946800 time=26.05.2020 04:08:40 Vmax=3 Vmin=2.3 Vmid=2.7 Napr=151 uakb=12.88 usb=0.06 temp=16.51 hum=88.23 prs=1008.08 Log=10189 Err=0
id=946799 time=26.05.2020 04:07:27 Vmax=3.3 Vmin=1.3 Vmid=2.6 Napr=151 uakb=12.88 usb=0.06 temp=16.55 hum=88.22 prs=1008.05 Log=10188 Err=0
id=946798 time=26.05.2020 04:06:15 Vmax=2.3 Vmin=1.4 Vmid=1.8 Napr=151 uakb=12.88 usb=0.06 temp=16.58 hum=88.21 prs=1008.02 Log=10187 Err=0
id=946797 time=26.05.2020 04:05:03 Vmax=2.6 Vmin=1.2 Vmid=1.8 Napr=151 uakb=12.88 usb=0.08 temp=16.6 hum=88.19 prs=1008.01 Log=10186 Err=0
id=946796 time=26.05.2020 04:03:52 Vmax=4.1 Vmin=2.7 Vmid=3.3 Napr=151 uakb=12.88 usb=0.06 temp=16.62 hum=88.19 prs=1007.98 Log=10185 Err=0
id=946795 time=26.05.2020 04:02:39 Vmax=3.3 Vmin=2.9 Vmid=3 Napr=151 uakb=12.88 usb=0.06 temp=16.63 hum=88.17 prs=1007.95 Log=10184 Err=0
id=946794 time=26.05.2020 04:01:26 Vmax=3.5 Vmin=2.7 Vmid=3.2 Napr=151 uakb=12.9 usb=0.06 temp=16.64 hum=88.16 prs=1007.93 Log=10183 Err=0
id=946793 time=26.05.2020 04:00:14 Vmax=4 Vmin=3 Vmid=3.5 Napr=151 uakb=12.9 usb=0.06 temp=16.64 hum=88.14 prs=1007.96 Log=10182 Err=0
id=946792 time=26.05.2020 03:59:01 Vmax=3.5 Vmin=2.6 Vmid=3 Napr=150 uakb=12.88 usb=0.08 temp=16.64 hum=88.12 prs=1007.96 Log=10181 Err=0
id=946791 time=26.05.2020 03:57:49 Vmax=4.4 Vmin=3.6 Vmid=4.1 Napr=148 uakb=12.88 usb=0.06 temp=16.65 hum=88.11 prs=1007.93 Log=10180 Err=0
id=946790 time=26.05.2020 03:56:38 Vmax=4.8 Vmin=3.2 Vmid=3.9 Napr=143 uakb=12.88 usb=0.06 temp=16.67 hum=88.11 prs=1007.93 Log=10179 Err=0
id=946789 time=26.05.2020 03:55:24 Vmax=5.1 Vmin=3.6 Vmid=4.3 Napr=139 uakb=12.88 usb=0.06 temp=16.68 hum=88.09 prs=1007.92 Log=10178 Err=0
id=946788 time=26.05.2020 03:54:12 Vmax=4.9 Vmin=2.6 Vmid=3.7 Napr=140 uakb=12.88 usb=0.08 temp=16.68 hum=88.07 prs=1007.91 Log=10177 Err=0
id=946787 time=26.05.2020 03:53:00 Vmax=5.1 Vmin=4 Vmid=4.4 Napr=140 uakb=12.88 usb=0.06 temp=16.69 hum=88.03 prs=1007.91 Log=10176 Err=0
id=946786 time=26.05.2020 03:51:50 Vmax=4.6 Vmin=3 Vmid=3.6 Napr=138 uakb=12.88 usb=0.06 temp=16.69 hum=88.02 prs=1007.96 Log=10175 Err=0
id=946785 time=26.05.2020 03:50:35 Vmax=5.4 Vmin=4.2 Vmid=4.7 Napr=139 uakb=12.9 usb=0.06 temp=16.69 hum=88 prs=1007.93 Log=10174 Err=0
id=946784 time=26.05.2020 03:49:24 Vmax=6.2 Vmin=3.5 Vmid=4.6 Napr=139 uakb=12.9 usb=0.06 temp=16.69 hum=87.99 prs=1007.94 Log=10173 Err=0
id=946783 time=26.05.2020 03:48:10 Vmax=6.3 Vmin=4.7 Vmid=5.2 Napr=140 uakb=12.88 usb=0.06 temp=16.69 hum=87.98 prs=1007.94 Log=10172 Err=0
id=946782 time=26.05.2020 03:46:59 Vmax=5.5 Vmin=4 Vmid=4.4 Napr=135 uakb=12.9 usb=0.06 temp=16.69 hum=87.96 prs=1007.95 Log=10171 Err=0
id=946781 time=26.05.2020 03:45:46 Vmax=4.8 Vmin=2.8 Vmid=3.7 Napr=136 uakb=12.9 usb=0.08 temp=16.7 hum=87.95 prs=1007.97 Log=10170 Err=0
id=946780 time=26.05.2020 03:44:33 Vmax=5.6 Vmin=4.2 Vmid=4.8 Napr=139 uakb=12.9 usb=0.06 temp=16.71 hum=87.93 prs=1007.95 Log=10169 Err=0
id=946779 time=26.05.2020 03:43:22 Vmax=5.1 Vmin=3.3 Vmid=3.9 Napr=138 uakb=12.88 usb=0.06 temp=16.71 hum=87.94 prs=1007.96 Log=10168 Err=0
id=946778 time=26.05.2020 03:42:09 Vmax=5.4 Vmin=2.9 Vmid=4.2 Napr=139 uakb=12.9 usb=0.06 temp=16.73 hum=87.91 prs=1007.93 Log=10167 Err=0
id=946777 time=26.05.2020 03:40:58 Vmax=4.1 Vmin=3.3 Vmid=3.6 Napr=137 uakb=12.9 usb=0.06 temp=16.74 hum=87.88 prs=1007.91 Log=10166 Err=0
id=946776 time=26.05.2020 03:39:44 Vmax=4.6 Vmin=3.5 Vmid=4 Napr=136 uakb=12.9 usb=0.06 temp=16.76 hum=87.88 prs=1007.91 Log=10165 Err=0
id=946775 time=26.05.2020 03:38:32 Vmax=5.6 Vmin=3.9 Vmid=4.7 Napr=135 uakb=12.88 usb=0.08 temp=16.76 hum=87.85 prs=1007.91 Log=10164 Err=0
id=946774 time=26.05.2020 03:37:19 Vmax=5.1 Vmin=3.5 Vmid=4.1 Napr=136 uakb=12.88 usb=0.06 temp=16.77 hum=87.84 prs=1007.92 Log=10163 Err=0
id=946773 time=26.05.2020 03:36:08 Vmax=5.7 Vmin=4.7 Vmid=5 Napr=140 uakb=12.9 usb=0.06 temp=16.77 hum=87.84 prs=1007.9 Log=10162 Err=0
id=946772 time=26.05.2020 03:34:55 Vmax=7.5 Vmin=5.1 Vmid=6.3 Napr=139 uakb=12.9 usb=0.06 temp=16.77 hum=87.82 prs=1007.88 Log=10161 Err=0
id=946771 time=26.05.2020 03:33:44 Vmax=7.2 Vmin=6.3 Vmid=6.6 Napr=143 uakb=12.9 usb=0.06 temp=16.77 hum=87.79 prs=1007.86 Log=10160 Err=0
id=946770 time=26.05.2020 03:32:30 Vmax=6.5 Vmin=5.2 Vmid=5.7 Napr=143 uakb=12.9 usb=0.08 temp=16.77 hum=87.78 prs=1007.87 Log=10159 Err=0
id=946769 time=26.05.2020 03:31:18 Vmax=7.2 Vmin=5.7 Vmid=6.5 Napr=141 uakb=12.88 usb=0.06 temp=16.76 hum=87.76 prs=1007.87 Log=10158 Err=0
id=946768 time=26.05.2020 03:30:05 Vmax=7.9 Vmin=6.2 Vmid=6.9 Napr=142 uakb=12.9 usb=0.08 temp=16.75 hum=87.75 prs=1007.91 Log=10157 Err=0
id=946767 time=26.05.2020 03:28:53 Vmax=7.7 Vmin=5.4 Vmid=6.1 Napr=140 uakb=12.9 usb=0.06 temp=16.75 hum=87.72 prs=1007.89 Log=10156 Err=0
id=946766 time=26.05.2020 03:27:41 Vmax=5.9 Vmin=4.9 Vmid=5.4 Napr=139 uakb=12.9 usb=0.06 temp=16.75 hum=87.72 prs=1007.92 Log=10155 Err=0
id=946765 time=26.05.2020 03:26:28 Vmax=5.2 Vmin=3.5 Vmid=4.4 Napr=139 uakb=12.9 usb=0.06 temp=16.76 hum=87.69 prs=1007.92 Log=10154 Err=0
id=946764 time=26.05.2020 03:25:17 Vmax=5.9 Vmin=5 Vmid=5.5 Napr=139 uakb=12.9 usb=0.06 temp=16.76 hum=87.67 prs=1007.92 Log=10153 Err=0
id=946763 time=26.05.2020 03:24:04 Vmax=6.5 Vmin=2.9 Vmid=4.9 Napr=141 uakb=12.9 usb=0.06 temp=16.75 hum=87.66 prs=1007.91 Log=10152 Err=0
id=946762 time=26.05.2020 03:22:51 Vmax=6.3 Vmin=4 Vmid=5.2 Napr=142 uakb=12.9 usb=0.06 temp=16.75 hum=87.63 prs=1007.9 Log=10151 Err=0
id=946761 time=26.05.2020 03:21:39 Vmax=5.2 Vmin=1.9 Vmid=3.5 Napr=139 uakb=12.9 usb=0.06 temp=16.76 hum=87.61 prs=1007.92 Log=10150 Err=0
id=946760 time=26.05.2020 03:20:26 Vmax=5.1 Vmin=3.4 Vmid=4 Napr=140 uakb=12.9 usb=0.06 temp=16.76 hum=87.59 prs=1007.92 Log=10149 Err=0
id=946759 time=26.05.2020 03:19:15 Vmax=5.8 Vmin=3.7 Vmid=5 Napr=139 uakb=12.9 usb=0.06 temp=16.76 hum=87.58 prs=1007.93 Log=10148 Err=0
id=946758 time=26.05.2020 03:18:02 Vmax=5.2 Vmin=3.5 Vmid=4.4 Napr=140 uakb=12.9 usb=0.08 temp=16.75 hum=87.56 prs=1007.92 Log=10147 Err=0
id=946757 time=26.05.2020 03:16:51 Vmax=6.4 Vmin=4.7 Vmid=5.4 Napr=140 uakb=12.9 usb=0.08 temp=16.75 hum=87.55 prs=1007.93 Log=10146 Err=0
id=946756 time=26.05.2020 03:15:38 Vmax=4 Vmin=2.2 Vmid=3.3 Napr=140 uakb=12.9 usb=0.06 temp=16.75 hum=87.54 prs=1007.95 Log=10145 Err=0
id=946755 time=26.05.2020 03:14:25 Vmax=5.6 Vmin=4.4 Vmid=5 Napr=140 uakb=12.9 usb=0.08 temp=16.74 hum=87.51 prs=1007.94 Log=10144 Err=0
id=946754 time=26.05.2020 03:13:12 Vmax=5.1 Vmin=3.7 Vmid=4.2 Napr=137 uakb=12.9 usb=0.06 temp=16.74 hum=87.48 prs=1007.99 Log=10143 Err=0
id=946753 time=26.05.2020 03:12:01 Vmax=5.2 Vmin=3.5 Vmid=4.4 Napr=138 uakb=12.9 usb=0.06 temp=16.75 hum=87.47 prs=1008 Log=10142 Err=0
id=946752 time=26.05.2020 03:10:48 Vmax=5 Vmin=3.6 Vmid=4.2 Napr=137 uakb=12.9 usb=0.08 temp=16.76 hum=87.44 prs=1008.03 Log=10141 Err=0
id=946751 time=26.05.2020 03:09:37 Vmax=5.7 Vmin=3.3 Vmid=4.6 Napr=136 uakb=12.9 usb=0.06 temp=16.76 hum=87.44 prs=1008.07 Log=10140 Err=0
id=946750 time=26.05.2020 03:08:23 Vmax=5.8 Vmin=2.8 Vmid=4.3 Napr=140 uakb=12.92 usb=0.06 temp=16.75 hum=87.42 prs=1008.1 Log=10139 Err=0
id=946749 time=26.05.2020 03:07:13 Vmax=6.1 Vmin=4 Vmid=5.1 Napr=143 uakb=12.9 usb=0.08 temp=16.75 hum=87.41 prs=1008.14 Log=10138 Err=0
id=946748 time=26.05.2020 03:05:59 Vmax=5.4 Vmin=3.3 Vmid=4.1 Napr=141 uakb=12.92 usb=0.06 temp=16.75 hum=87.36 prs=1008.14 Log=10137 Err=0
id=946747 time=26.05.2020 03:04:46 Vmax=5.9 Vmin=4.2 Vmid=5 Napr=141 uakb=12.9 usb=0.06 temp=16.75 hum=87.36 prs=1008.16 Log=10136 Err=0
id=946746 time=26.05.2020 03:03:35 Vmax=4.8 Vmin=3.3 Vmid=4 Napr=139 uakb=12.9 usb=0.06 temp=16.74 hum=87.34 prs=1008.17 Log=10135 Err=0
id=946745 time=26.05.2020 03:02:22 Vmax=4.9 Vmin=1.8 Vmid=3.4 Napr=137 uakb=12.9 usb=0.06 temp=16.74 hum=87.31 prs=1008.18 Log=10134 Err=0
id=946744 time=26.05.2020 03:01:10 Vmax=5 Vmin=3 Vmid=3.6 Napr=137 uakb=12.9 usb=0.06 temp=16.73 hum=87.31 prs=1008.19 Log=10133 Err=0
id=946743 time=26.05.2020 02:59:57 Vmax=5.8 Vmin=3.5 Vmid=4.3 Napr=134 uakb=12.9 usb=0.06 temp=16.73 hum=87.31 prs=1008.16 Log=10132 Err=0
id=946742 time=26.05.2020 02:58:46 Vmax=5.4 Vmin=3.3 Vmid=4.3 Napr=137 uakb=12.9 usb=0.08 temp=16.72 hum=87.25 prs=1008.18 Log=10131 Err=0
id=946741 time=26.05.2020 02:57:33 Vmax=5.4 Vmin=2.8 Vmid=4.4 Napr=133 uakb=12.9 usb=0.08 temp=16.72 hum=87.23 prs=1008.2 Log=10130 Err=0
id=946740 time=26.05.2020 02:56:20 Vmax=5.6 Vmin=2.3 Vmid=3.5 Napr=133 uakb=12.9 usb=0.06 temp=16.71 hum=87.21 prs=1008.22 Log=10129 Err=0
id=946739 time=26.05.2020 02:55:07 Vmax=3.7 Vmin=2.2 Vmid=3 Napr=134 uakb=12.9 usb=0.06 temp=16.72 hum=87.18 prs=1008.23 Log=10128 Err=0
id=946738 time=26.05.2020 02:53:58 Vmax=3.6 Vmin=2.8 Vmid=3 Napr=133 uakb=12.9 usb=0.06 temp=16.71 hum=87.17 prs=1008.25 Log=10127 Err=0
id=946737 time=26.05.2020 02:52:44 Vmax=5.5 Vmin=3 Vmid=4.1 Napr=137 uakb=12.9 usb=0.06 temp=16.71 hum=87.13 prs=1008.23 Log=10126 Err=0
id=946736 time=26.05.2020 02:51:32 Vmax=4.7 Vmin=1.9 Vmid=3 Napr=138 uakb=12.9 usb=0.06 temp=16.71 hum=87.12 prs=1008.28 Log=10125 Err=0
id=946735 time=26.05.2020 02:50:20 Vmax=3.6 Vmin=0.8 Vmid=2.5 Napr=140 uakb=12.9 usb=0.06 temp=16.72 hum=87.11 prs=1008.28 Log=10124 Err=0
id=946734 time=26.05.2020 02:49:06 Vmax=3.6 Vmin=1.4 Vmid=2.5 Napr=139 uakb=12.9 usb=0.06 temp=16.74 hum=87.07 prs=1008.3 Log=10123 Err=0
id=946733 time=26.05.2020 02:47:54 Vmax=4.6 Vmin=1.6 Vmid=3 Napr=139 uakb=12.9 usb=0.06 temp=16.74 hum=87.06 prs=1008.3 Log=10122 Err=0
id=946732 time=26.05.2020 02:46:44 Vmax=5.1 Vmin=2.9 Vmid=4 Napr=137 uakb=12.92 usb=0.06 temp=16.73 hum=87.05 prs=1008.32 Log=10121 Err=0
id=946731 time=26.05.2020 02:45:30 Vmax=5.6 Vmin=3.2 Vmid=4.6 Napr=136 uakb=12.9 usb=0.06 temp=16.73 hum=87.03 prs=1008.32 Log=10120 Err=0
id=946730 time=26.05.2020 02:44:18 Vmax=5.5 Vmin=3.2 Vmid=4.3 Napr=136 uakb=12.9 usb=0.06 temp=16.72 hum=87.01 prs=1008.34 Log=10119 Err=0
id=946729 time=26.05.2020 02:43:06 Vmax=4 Vmin=2.8 Vmid=3.6 Napr=134 uakb=12.9 usb=0.06 temp=16.72 hum=86.97 prs=1008.36 Log=10118 Err=0
id=946728 time=26.05.2020 02:41:53 Vmax=4.6 Vmin=0.6 Vmid=2.9 Napr=140 uakb=12.92 usb=0.06 temp=16.71 hum=86.96 prs=1008.41 Log=10117 Err=0
id=946727 time=26.05.2020 02:40:41 Vmax=3 Vmin=1.2 Vmid=2 Napr=140 uakb=12.92 usb=0.06 temp=16.71 hum=86.94 prs=1008.41 Log=10116 Err=0
id=946726 time=26.05.2020 02:39:28 Vmax=5.1 Vmin=2.2 Vmid=3.5 Napr=139 uakb=12.9 usb=0.06 temp=16.7 hum=86.93 prs=1008.41 Log=10115 Err=0
id=946725 time=26.05.2020 02:38:17 Vmax=7.5 Vmin=3.6 Vmid=5 Napr=139 uakb=12.9 usb=0.06 temp=16.7 hum=86.91 prs=1008.41 Log=10114 Err=0
id=946724 time=26.05.2020 02:36:59 Vmax=4.2 Vmin=2.2 Vmid=3.6 Napr=146 uakb=12.92 usb=0.08 temp=16.7 hum=86.86 prs=1008.41 Log=10113 Err=0
id=946723 time=26.05.2020 02:35:40 Vmax=5.4 Vmin=0.9 Vmid=3.2 Napr=142 uakb=12.92 usb=0.06 temp=16.7 hum=86.85 prs=1008.38 Log=10112 Err=0
id=946722 time=26.05.2020 02:34:28 Vmax=4.8 Vmin=2.7 Vmid=3.6 Napr=130 uakb=12.9 usb=0.06 temp=16.7 hum=86.83 prs=1008.37 Log=10111 Err=0
id=946721 time=26.05.2020 02:33:16 Vmax=4.2 Vmin=3 Vmid=3.6 Napr=127 uakb=12.92 usb=0.06 temp=16.69 hum=86.8 prs=1008.41 Log=10110 Err=0
id=946720 time=26.05.2020 02:32:05 Vmax=4.8 Vmin=3 Vmid=4 Napr=142 uakb=12.92 usb=0.06 temp=16.67 hum=86.78 prs=1008.41 Log=10109 Err=0
id=946719 time=26.05.2020 02:30:51 Vmax=4.2 Vmin=2.5 Vmid=3 Napr=143 uakb=12.92 usb=0.06 temp=16.67 hum=86.75 prs=1008.4 Log=10108 Err=0